
Distance (Route):
Temperature : 11.3°C
Humidity : 24.5%
Pressure : 780.0hPa| Receiver | Frames | First received | Last received |
|---|---|---|---|
| PETON7-10 | 360 | 2026-08-31 23:35:26 | 2026-09-01 01:13:01 |
| OM5KV | 231 | 2026-08-31 23:23:44 | 2026-08-31 23:40:37 |
| OE3JTB-15 | 126 | 2026-08-31 23:34:46 | 2026-09-01 01:23:35 |
| OE5DRO-10 | 123 | 2026-09-01 00:01:37 | 2026-09-01 00:58:40 |
| GYPAP8-17 | 90 | 2026-08-31 23:33:54 | 2026-09-01 01:31:59 |
| LZ4TU-5 | 50 | 2026-09-01 00:07:17 | 2026-09-01 01:01:43 |
| SP9KGR-15 | 33 | 2026-09-01 00:43:34 | 2026-09-01 00:55:06 |
| SQ9EZE-16 | 24 | 2026-09-01 00:08:22 | 2026-09-01 00:43:51 |
| OE3OSB-13 | 22 | 2026-08-31 23:47:47 | 2026-09-01 00:00:47 |
| SQ9EZE-15 | 22 | 2026-09-01 00:08:37 | 2026-09-01 00:58:32 |
| SQ9EZE-14 | 3 | 2026-09-01 00:11:23 | 2026-09-01 00:16:30 |
| DO3MHA-12 | 3 | 2026-09-01 00:36:14 | 2026-09-01 00:36:34 |
| OE5DXL-15 | 3 | 2026-09-01 00:37:32 | 2026-09-01 00:51:16 |
| 9A1FER-3 | 1 | 2026-09-01 00:17:45 | 2026-09-01 00:17:45 |
| Receiver | Date | Latitude | Longitude | Direction | Speed | Altitude | Climb | Temperature | Humidity | Pressure | Voltage | Killtimer | Uptime | BKT | XDATA |
|---|---|---|---|---|---|---|---|---|---|---|---|---|---|---|---|
| GYPAP8-17 | 2026-09-01 01:31:59 | 47.72996 | 20.31143 | 165° | 16km/h | 2277m | -9.1m/s | 11.3°C | 24.5% | 780.0hPa | 2.6V | 00:00:00 | 00:00:00 | 00:00:00 | |
| GYPAP8-17 | 2026-09-01 01:30:50 | 47.73131 | 20.31071 | 146° | 5km/h | 2910m | -11.1m/s | 5.4°C | 33.4% | 722.7hPa | 2.6V | 00:00:00 | 00:00:00 | 00:00:00 | |
| GYPAP8-17 | 2026-09-01 01:29:50 | 47.73182 | 20.30934 | 97° | 13km/h | 3431m | -8.8m/s | 1.2°C | 65.8% | 677.9hPa | 2.6V | 00:00:00 | 00:00:00 | 00:00:00 | |
| GYPAP8-17 | 2026-09-01 01:28:41 | 47.73163 | 20.30008 | 84° | 60km/h | 4059m | -9.6m/s | -2.2°C | 80.7% | 626.8hPa | 2.6V | 00:00:00 | 00:00:00 | 00:00:00 | |
| GYPAP8-17 | 2026-09-01 01:27:40 | 47.73010 | 20.28606 | 82° | 62km/h | 4592m | -10.4m/s | -6.5°C | 85.2% | 586.2hPa | 2.6V | 00:00:00 | 00:00:00 | 00:00:00 | |
| GYPAP8-17 | 2026-09-01 01:25:55 | 47.72460 | 20.26398 | 72° | 64km/h | 5160m | -5.1m/s | -7.6°C | 27.5% | 545.0hPa | 2.6V | 00:00:00 | 00:00:00 | 00:00:00 | |
| GYPAP8-17 | 2026-09-01 01:24:35 | 47.71971 | 20.24578 | 65° | 68km/h | 5547m | -4.4m/s | -10.1°C | 19.7% | 518.5hPa | 2.6V | 00:00:00 | 00:00:00 | 00:00:00 | |
| OE3JTB-15 | 2026-09-01 01:23:35 | 47.71434 | 20.23053 | 60° | 86km/h | 5812m | -3.9m/s | -11.5°C | 29.9% | 501.0hPa | 2.6V | 07:54:00 | 00:00:00 | 00:00:00 | |
| GYPAP8-17 | 2026-09-01 01:23:21 | 47.71296 | 20.22696 | 63° | 86km/h | 5869m | -4.5m/s | -11.9°C | 27.6% | 497.4hPa | 2.6V | 00:00:00 | 00:00:00 | 00:00:00 | |
| OE3JTB-15 | 2026-09-01 01:23:06 | 47.71119 | 20.22257 | 58° | 86km/h | 5936m | -4.4m/s | -12.3°C | 25.3% | 492.9hPa | 2.6V | 00:00:00 | 00:00:00 | 00:00:00 | |
| OE3JTB-15 | 2026-09-01 01:22:37 | 47.70787 | 20.21474 | 58° | 88km/h | 6054m | -4.1m/s | -12.9°C | 14.7% | 485.4hPa | 2.6V | 00:00:00 | 02:27:43 | 00:00:00 | |
| GYPAP8-17 | 2026-09-01 01:22:08 | 47.70466 | 20.20747 | 56° | 82km/h | 6167m | -3.6m/s | -13.9°C | 10.6% | 478.5hPa | 2.6V | 00:00:00 | 00:00:00 | 00:00:00 | |
| GYPAP8-17 | 2026-09-01 01:21:04 | 47.69697 | 20.19078 | 58° | 86km/h | 6445m | -4.9m/s | -16.4°C | 7.3% | 460.8hPa | 2.6V | 00:00:00 | 00:00:00 | 00:00:00 | |
| GYPAP8-17 | 2026-09-01 01:19:43 | 47.68619 | 20.16870 | 55° | 93km/h | 7046m | -8.0m/s | -19.9°C | 7.3% | 425.6hPa | 2.6V | 00:00:00 | 00:00:00 | 00:00:00 | |
| OE3JTB-15 | 2026-09-01 01:19:39 | 47.68549 | 20.16734 | 54° | 91km/h | 7094m | -7.6m/s | -20.2°C | 7.0% | 422.7hPa | 2.6V | 00:00:00 | 00:00:00 | 00:00:00 | |
| OE3JTB-15 | 2026-09-01 01:19:09 | 47.68113 | 20.15941 | 54° | 89km/h | 7388m | -9.6m/s | -22.9°C | 9.7% | 406.2hPa | 2.6V | 00:00:00 | 00:00:00 | 00:00:00 | |
| OE3JTB-15 | 2026-09-01 01:18:40 | 47.67742 | 20.15139 | 58° | 84km/h | 7689m | -10.9m/s | -25.4°C | 66.7% | 389.9hPa | 2.6V | 00:00:00 | 02:23:46 | 00:00:00 | |
| OE3JTB-15 | 2026-09-01 01:18:11 | 47.67404 | 20.14398 | 57° | 80km/h | 7999m | -8.6m/s | -27.6°C | 81.5% | 373.4hPa | 2.6V | 00:00:00 | 00:00:00 | 00:00:00 | |
| GYPAP8-17 | 2026-09-01 01:17:51 | 47.67189 | 20.13919 | 55° | 78km/h | 8199m | -12.3m/s | -29.3°C | 80.7% | 363.2hPa | 2.6V | 00:00:00 | 00:00:00 | 00:00:00 | |
| OE3JTB-15 | 2026-09-01 01:17:37 | 47.67010 | 20.13557 | 58° | 80km/h | 8367m | -9.5m/s | -29.8°C | 54.5% | 355.0hPa | 2.6V | 00:00:00 | 00:00:00 | 00:00:00 | |
| OE3JTB-15 | 2026-09-01 01:16:39 | 47.66384 | 20.12008 | 55° | 91km/h | 8940m | -9.6m/s | -34.3°C | 22.6% | 327.2hPa | 2.6V | 08:01:00 | 00:00:00 | 00:00:00 | |
| GYPAP8-17 | 2026-09-01 01:16:18 | 47.66139 | 20.11488 | 55° | 84km/h | 9122m | -10.4m/s | -36.1°C | 19.2% | 318.7hPa | 2.5V | 00:00:00 | 00:00:00 | 00:00:00 | |
| GYPAP8-17 | 2026-09-01 01:14:52 | 47.65248 | 20.09354 | 54° | 68km/h | 9963m | -8.6m/s | -43.8°C | 27.0% | 281.9hPa | 2.5V | 00:00:00 | 00:00:00 | 00:00:00 | |
| GYPAP8-17 | 2026-09-01 01:13:31 | 47.64508 | 20.07372 | 69° | 84km/h | 10715m | -10.0m/s | -51.1°C | 42.7% | 251.6hPa | 2.5V | 00:00:00 | 00:00:00 | 00:00:00 | |
| PETON7-10 | 2026-09-01 01:13:01 | 47.64309 | 20.06357 | 79° | 102km/h | 11013m | -9.3m/s | -53.4°C | 42.8% | 240.3hPa | 2.5V | 00:00:00 | 02:18:07 | 00:00:00 | |
| PETON7-10 | 2026-09-01 01:12:46 | 47.64242 | 20.05786 | 83° | 110km/h | 11159m | -12.4m/s | -54.1°C | 33.1% | 235.1hPa | 2.5V | 00:00:00 | 00:00:00 | 00:00:00 | |
| GYPAP8-17 | 2026-09-01 01:12:35 | 47.64213 | 20.05381 | 84° | 111km/h | 11281m | -12.5m/s | -53.6°C | 22.9% | 230.7hPa | 2.5V | 08:05:00 | 00:00:00 | 00:00:00 | |
| PETON7-10 | 2026-09-01 01:12:31 | 47.64197 | 20.05175 | 85° | 115km/h | 11339m | -10.7m/s | -53.9°C | 29.0% | 228.6hPa | 2.5V | 00:00:00 | 00:00:00 | 00:00:00 | |
| PETON7-10 | 2026-09-01 01:12:16 | 47.64147 | 20.04533 | 84° | 117km/h | 11504m | -10.6m/s | -54.7°C | 25.8% | 222.7hPa | 2.5V | 00:00:00 | 02:17:22 | 00:00:00 | |
| PETON7-10 | 2026-09-01 01:12:01 | 47.64106 | 20.03880 | 86° | 120km/h | 11624m | -8.1m/s | -55.5°C | 23.1% | 218.4hPa | 2.5V | 00:00:00 | 00:00:00 | 00:00:00 | |
| PETON7-10 | 2026-09-01 01:11:46 | 47.64088 | 20.03209 | 89° | 108km/h | 11750m | -9.6m/s | -55.0°C | 17.5% | 214.2hPa | 2.5V | 00:00:00 | 00:00:00 | 00:00:00 | |
| PETON7-10 | 2026-09-01 01:11:31 | 47.64057 | 20.02616 | 80° | 99km/h | 11915m | -13.0m/s | -52.6°C | 9.5% | 208.8hPa | 2.5V | 00:00:00 | 02:16:37 | 00:00:00 | |
| GYPAP8-17 | 2026-09-01 01:11:22 | 47.64007 | 20.02337 | 73° | 99km/h | 12013m | -12.4m/s | -52.5°C | 5.3% | 205.7hPa | 2.5V | 00:00:00 | 00:00:00 | 00:00:00 | |
| PETON7-10 | 2026-09-01 01:11:16 | 47.63953 | 20.02085 | 72° | 104km/h | 12089m | -10.0m/s | -52.4°C | 7.8% | 203.2hPa | 2.5V | 08:07:00 | 00:00:00 | 00:00:00 | |
| PETON7-10 | 2026-09-01 01:11:01 | 47.63822 | 20.01533 | 71° | 108km/h | 12204m | -9.4m/s | -52.8°C | 8.1% | 199.7hPa | 2.5V | 00:00:00 | 00:00:00 | 00:00:00 | |
| PETON7-10 | 2026-09-01 01:10:46 | 47.63681 | 20.00968 | 67° | 111km/h | 12352m | -8.5m/s | -53.2°C | 7.4% | 195.1hPa | 2.5V | 00:00:00 | 02:15:52 | 00:00:00 | |
| PETON7-10 | 2026-09-01 01:10:31 | 47.63526 | 20.00386 | 68° | 111km/h | 12465m | -7.3m/s | 0°C | 0% | 0hPa | 2.5V | 00:00:00 | 00:00:00 | 00:00:00 | |
| PETON7-10 | 2026-09-01 01:10:16 | 47.63373 | 19.99807 | 70° | 110km/h | 12569m | -5.0m/s | -53.4°C | 7.5% | 188.6hPa | 2.5V | 00:00:00 | 00:00:00 | 00:00:00 | |
| GYPAP8-17 | 2026-09-01 01:10:14 | 47.63364 | 19.99769 | 70° | 108km/h | 12574m | -5.2m/s | -53.5°C | 4.4% | 188.5hPa | 2.5V | 00:00:00 | 00:00:00 | 00:00:00 | |
| PETON7-10 | 2026-09-01 01:10:01 | 47.63223 | 19.99231 | 68° | 113km/h | 12652m | -6.7m/s | -53.8°C | 8.1% | 186.2hPa | 2.5V | 00:00:00 | 02:15:07 | 00:00:00 | |
| PETON7-10 | 2026-09-01 01:09:46 | 47.63057 | 19.98645 | 67° | 119km/h | 12763m | -7.7m/s | -54.4°C | 8.3% | 183.0hPa | 2.5V | 00:00:00 | 00:00:00 | 00:00:00 | |
| PETON7-10 | 2026-09-01 01:09:31 | 47.62896 | 19.98028 | 71° | 117km/h | 12887m | -7.9m/s | -55.3°C | 8.4% | 179.5hPa | 2.5V | 00:00:00 | 00:00:00 | 00:00:00 | |
| PETON7-10 | 2026-09-01 01:09:16 | 47.62761 | 19.97402 | 76° | 119km/h | 13018m | -9.5m/s | -55.2°C | 7.6% | 176.0hPa | 2.5V | 00:00:00 | 02:14:22 | 00:00:00 | |
| GYPAP8-17 | 2026-09-01 01:09:10 | 47.62726 | 19.97184 | 78° | 117km/h | 13065m | -11.1m/s | -55.4°C | 3.8% | 174.7hPa | 2.5V | 00:00:00 | 00:00:00 | 00:00:00 | |
| PETON7-10 | 2026-09-01 01:09:01 | 47.62651 | 19.96759 | 74° | 120km/h | 13181m | -14.7m/s | -55.2°C | 6.6% | 171.6hPa | 2.5V | 08:09:00 | 00:00:00 | 00:00:00 | |
| PETON7-10 | 2026-09-01 01:08:46 | 47.62561 | 19.96093 | 81° | 124km/h | 13381m | -14.0m/s | -54.5°C | 5.6% | 166.4hPa | 2.5V | 00:00:00 | 00:00:00 | 00:00:00 | |
| PETON7-10 | 2026-09-01 01:08:31 | 47.62485 | 19.95403 | 84° | 111km/h | 13569m | -12.4m/s | -54.6°C | 5.6% | 161.6hPa | 2.5V | 00:00:00 | 02:13:37 | 00:00:00 | |
| PETON7-10 | 2026-09-01 01:08:16 | 47.62458 | 19.94784 | 89° | 99km/h | 13749m | -11.1m/s | -55.0°C | 5.7% | 157.0hPa | 2.5V | 00:00:00 | 00:00:00 | 00:00:00 | |
| GYPAP8-17 | 2026-09-01 01:08:02 | 47.62453 | 19.94301 | 91° | 97km/h | 13894m | -10.4m/s | -55.2°C | 2.6% | 153.6hPa | 2.5V | 00:00:00 | 00:00:00 | 00:00:00 | |
| PETON7-10 | 2026-09-01 01:08:01 | 47.62452 | 19.94229 | 89° | 88km/h | 13915m | -10.3m/s | -55.3°C | 5.6% | 153.0hPa | 2.5V | 00:00:00 | 00:00:00 | 00:00:00 | |
| PETON7-10 | 2026-09-01 01:07:46 | 47.62429 | 19.93738 | 82° | 84km/h | 14076m | -11.5m/s | -56.4°C | 6.0% | 149.2hPa | 2.5V | 00:00:00 | 02:12:52 | 00:00:00 | |
| PETON7-10 | 2026-09-01 01:07:31 | 47.62364 | 19.93280 | 76° | 88km/h | 14234m | -11.4m/s | -56.8°C | 6.1% | 145.6hPa | 2.5V | 00:00:00 | 00:00:00 | 00:00:00 | |
| OE3JTB-15 | 2026-09-01 01:07:17 | 47.62283 | 19.92840 | 73° | 42km/h | 14387m | -10.3m/s | -56.7°C | 6.6% | 142.0hPa | 2.5V | 00:00:00 | 00:00:00 | 00:00:00 | |
| PETON7-10 | 2026-09-01 01:07:16 | 47.62276 | 19.92808 | 73° | 86km/h | 14397m | -9.5m/s | -56.6°C | 6.5% | 141.8hPa | 2.5V | 00:00:00 | 00:00:00 | 00:00:00 | |
| PETON7-10 | 2026-09-01 01:07:01 | 47.62177 | 19.92356 | 70° | 73km/h | 14557m | -9.2m/s | -55.1°C | 5.9% | 138.3hPa | 2.5V | 00:00:00 | 02:12:07 | 00:00:00 | |
| GYPAP8-17 | 2026-09-01 01:06:54 | 47.62136 | 19.92200 | 70° | 75km/h | 14624m | -11.3m/s | -54.4°C | 2.6% | 136.9hPa | 2.5V | 00:00:00 | 00:00:00 | 00:00:00 | |
| PETON7-10 | 2026-09-01 01:06:45 | 47.62074 | 19.91951 | 71° | 71km/h | 14739m | -15.4m/s | -54.6°C | 5.4% | 134.5hPa | 2.5V | 08:11:00 | 00:00:00 | 00:00:00 | |
| PETON7-10 | 2026-09-01 01:06:30 | 47.61980 | 19.91577 | 72° | 73km/h | 14905m | -10.6m/s | -55.6°C | 5.6% | 130.9hPa | 2.5V | 00:00:00 | 00:00:00 | 00:00:00 | |
| PETON7-10 | 2026-09-01 01:06:15 | 47.61894 | 19.91186 | 75° | 75km/h | 15059m | -11.3m/s | -56.8°C | 6.0% | 127.8hPa | 2.5V | 00:00:00 | 02:11:21 | 00:00:00 | |
| PETON7-10 | 2026-09-01 01:06:00 | 47.61827 | 19.90775 | 81° | 66km/h | 15208m | -9.0m/s | -57.6°C | 6.3% | 124.8hPa | 2.5V | 00:00:00 | 00:00:00 | 00:00:00 | |
| PETON7-10 | 2026-09-01 01:05:45 | 47.61781 | 19.90418 | 76° | 62km/h | 15373m | -10.7m/s | -57.5°C | 5.8% | 121.7hPa | 2.6V | 00:00:00 | 00:00:00 | 00:00:00 | |
| GYPAP8-17 | 2026-09-01 01:05:44 | 47.61781 | 19.90417 | 76° | 60km/h | 15373m | -10.8m/s | -57.5°C | 2.4% | 121.7hPa | 2.6V | 00:00:00 | 00:00:00 | 00:00:00 | |
| PETON7-10 | 2026-09-01 01:05:30 | 47.61714 | 19.90083 | 76° | 51km/h | 15531m | -12.7m/s | -58.7°C | 6.4% | 118.7hPa | 2.6V | 00:00:00 | 02:10:36 | 00:00:00 | |
| PETON7-10 | 2026-09-01 01:05:15 | 47.61677 | 19.89810 | 86° | 31km/h | 15722m | -14.5m/s | -57.4°C | 5.6% | 115.2hPa | 2.6V | 00:00:00 | 00:00:00 | 00:00:00 | |
| OE3JTB-15 | 2026-09-01 01:04:57 | 47.61682 | 19.89606 | 94° | 37km/h | 15973m | -14.0m/s | -58.3°C | 5.5% | 110.6hPa | 2.5V | 00:00:00 | 02:10:03 | 00:00:00 | |
| PETON7-10 | 2026-09-01 01:04:45 | 47.61685 | 19.89479 | 81° | 40km/h | 16130m | -12.8m/s | -59.6°C | 5.9% | 107.8hPa | 2.5V | 00:00:00 | 02:09:51 | 00:00:00 | |
| GYPAP8-17 | 2026-09-01 01:04:34 | 47.61674 | 19.89347 | 84° | 42km/h | 16245m | -10.9m/s | -60.3°C | 2.1% | 105.9hPa | 2.5V | 00:00:00 | 00:00:00 | 00:00:00 | |
| PETON7-10 | 2026-09-01 01:04:28 | 47.61653 | 19.89231 | 72° | 66km/h | 16316m | -7.7m/s | -59.9°C | 6.3% | 104.6hPa | 2.5V | 08:13:00 | 00:00:00 | 00:00:00 | |
| OE3JTB-15 | 2026-09-01 01:04:26 | 47.61645 | 19.89192 | 75° | 69km/h | 16336m | -13.0m/s | -60.0°C | 6.3% | 104.4hPa | 2.6V | 00:00:00 | 00:00:00 | 00:00:00 | |
| PETON7-10 | 2026-09-01 01:04:13 | 47.61586 | 19.88879 | 76° | 71km/h | 16484m | -11.3m/s | -58.0°C | 5.6% | 102.0hPa | 2.5V | 00:00:00 | 00:00:00 | 00:00:00 | |
| PETON7-10 | 2026-09-01 01:03:58 | 47.61565 | 19.88487 | 94° | 57km/h | 16658m | -12.3m/s | -56.4°C | 5.2% | 99.2hPa | 2.5V | 00:00:00 | 02:09:04 | 00:00:00 | |
| OE3JTB-15 | 2026-09-01 01:03:57 | 47.61566 | 19.88460 | 92° | 69km/h | 16670m | -12.3m/s | -56.1°C | 5.1% | 99.0hPa | 2.5V | 00:00:00 | 00:00:00 | 00:00:00 | |
| PETON7-10 | 2026-09-01 01:03:42 | 47.61591 | 19.88149 | 103° | 35km/h | 16859m | -12.8m/s | -53.9°C | 4.3% | 96.1hPa | 2.5V | 00:00:00 | 00:00:00 | 00:00:00 | |
| PETON7-10 | 2026-09-01 01:03:27 | 47.61588 | 19.87962 | 73° | 38km/h | 17040m | -12.2m/s | -53.4°C | 4.1% | 93.5hPa | 2.6V | 00:00:00 | 00:00:00 | 00:00:00 | |
| PETON7-10 | 2026-09-01 01:03:12 | 47.61518 | 19.87775 | 47° | 38km/h | 17189m | -8.2m/s | -52.6°C | 3.8% | 91.4hPa | 2.6V | 00:00:00 | 02:08:18 | 00:00:00 | |
| GYPAP8-17 | 2026-09-01 01:03:10 | 47.61512 | 19.87766 | 48° | 37km/h | 17198m | -9.4m/s | -52.7°C | 1.1% | 91.3hPa | 2.6V | 00:00:00 | 00:00:00 | 00:00:00 | |
| PETON7-10 | 2026-09-01 01:02:57 | 47.61419 | 19.87615 | 40° | 44km/h | 17384m | -15.1m/s | -54.3°C | 4.1% | 88.7hPa | 2.6V | 00:00:00 | 00:00:00 | 00:00:00 | |
| OE3JTB-15 | 2026-09-01 01:02:47 | 47.61342 | 19.87512 | 46° | 40km/h | 17518m | -13.7m/s | -54.3°C | 4.2% | 86.8hPa | 2.6V | 00:00:00 | 00:00:00 | 00:00:00 | |
| PETON7-10 | 2026-09-01 01:02:42 | 47.61301 | 19.87447 | 50° | 38km/h | 17588m | -13.7m/s | -54.7°C | 4.4% | 85.9hPa | 2.5V | 00:00:00 | 00:00:00 | 00:00:00 | |
| PETON7-10 | 2026-09-01 01:02:27 | 47.61236 | 19.87256 | 79° | 40km/h | 17792m | -16.0m/s | -54.4°C | 4.2% | 83.2hPa | 2.5V | 00:00:00 | 02:07:33 | 00:00:00 | |
| OE3JTB-15 | 2026-09-01 01:02:17 | 47.61209 | 19.87115 | 74° | 38km/h | 17913m | -10.7m/s | -54.6°C | 4.2% | 81.6hPa | 2.5V | 00:00:00 | 00:00:00 | 00:00:00 | |
| PETON7-10 | 2026-09-01 01:02:12 | 47.61197 | 19.87038 | 82° | 38km/h | 17966m | -11.0m/s | -54.8°C | 4.2% | 80.9hPa | 2.5V | 08:16:00 | 00:00:00 | 00:00:00 | |
| PETON7-10 | 2026-09-01 01:01:57 | 47.61191 | 19.86822 | 97° | 37km/h | 18094m | -7.7m/s | -55.0°C | 4.4% | 79.3hPa | 2.6V | 00:00:00 | 00:00:00 | 00:00:00 | |
| OE3JTB-15 | 2026-09-01 01:01:47 | 47.61207 | 19.86681 | 105° | 18km/h | 18176m | -8.2m/s | -55.2°C | 4.5% | 78.3hPa | 2.6V | 00:00:00 | 02:06:53 | 00:00:00 | |
| LZ4TU-5 | 2026-09-01 01:01:43 | 47.61215 | 19.86648 | 109° | 31km/h | 18201m | -8.2m/s | -55.2°C | 0% | 78.0hPa | 2.6V | 00:00:00 | 00:00:00 | 00:00:00 | |
| PETON7-10 | 2026-09-01 01:01:42 | 47.61219 | 19.86627 | 108° | 18km/h | 18217m | -8.0m/s | -55.3°C | 4.5% | 77.8hPa | 2.6V | 00:00:00 | 02:06:48 | 00:00:00 | |
| LZ4TU-5 | 2026-09-01 01:01:38 | 47.61225 | 19.86598 | 101° | 24km/h | 18243m | -8.8m/s | -55.0°C | 0% | 77.5hPa | 2.6V | 00:00:00 | 00:00:00 | 00:00:00 | |
| PETON7-10 | 2026-09-01 01:01:27 | 47.61229 | 19.86523 | 117° | 9km/h | 18353m | -9.8m/s | -55.1°C | 4.5% | 76.2hPa | 2.6V | 00:00:00 | 00:00:00 | 00:00:00 | |
| OE3JTB-15 | 2026-09-01 01:01:18 | 47.61243 | 19.86497 | 119° | 5km/h | 18436m | -8.7m/s | -54.5°C | 4.3% | 75.1hPa | 2.5V | 08:17:00 | 00:00:00 | 00:00:00 | |
| PETON7-10 | 2026-09-01 01:01:12 | 47.61250 | 19.86489 | 155° | 4km/h | 18484m | -7.9m/s | -54.5°C | 4.3% | 74.6hPa | 2.6V | 00:00:00 | 00:00:00 | 00:00:00 | |
| PETON7-10 | 2026-09-01 01:00:57 | 47.61252 | 19.86481 | 359° | 11km/h | 18611m | -9.2m/s | -54.5°C | 4.2% | 73.1hPa | 2.6V | 00:00:00 | 02:06:03 | 00:00:00 | |
| GYPAP8-17 | 2026-09-01 01:00:49 | 47.61240 | 19.86492 | 25° | 7km/h | 18680m | -8.4m/s | -55.0°C | 1.2% | 72.4hPa | 2.6V | 00:00:00 | 00:00:00 | 00:00:00 | |
| PETON7-10 | 2026-09-01 01:00:42 | 47.61216 | 19.86468 | 20° | 16km/h | 18746m | -9.5m/s | -55.4°C | 4.8% | 71.6hPa | 2.6V | 00:00:00 | 00:00:00 | 00:00:00 | |
| PETON7-10 | 2026-09-01 01:00:27 | 47.61154 | 19.86445 | 18° | 18km/h | 18931m | -12.0m/s | -54.3°C | 4.1% | 69.6hPa | 2.5V | 00:00:00 | 00:00:00 | 00:00:00 | |
| OE3JTB-15 | 2026-09-01 01:00:20 | 47.61129 | 19.86425 | 27° | 27km/h | 19009m | -11.5m/s | -54.3°C | 4.1% | 68.7hPa | 2.5V | 00:00:00 | 02:05:26 | 00:00:00 | |
| PETON7-10 | 2026-09-01 01:00:12 | 47.61087 | 19.86401 | 24° | 31km/h | 19110m | -11.8m/s | -54.9°C | 4.3% | 67.6hPa | 2.5V | 00:00:00 | 02:05:18 | 00:00:00 | |
| PETON7-10 | 2026-09-01 00:59:57 | 47.61003 | 19.86279 | 59° | 16km/h | 19373m | -14.6m/s | -55.9°C | 4.6% | 65.0hPa | 2.5V | 08:18:00 | 00:00:00 | 00:00:00 | |
| OE3JTB-15 | 2026-09-01 00:59:51 | 47.60985 | 19.86236 | 66° | 22km/h | 19457m | -11.2m/s | -56.0°C | 4.7% | 64.1hPa | 2.5V | 00:00:00 | 00:00:00 | 00:00:00 | |
| LZ4TU-5 | 2026-09-01 00:59:46 | 47.60979 | 19.86218 | 50° | 11km/h | 19505m | -12.5m/s | -55.9°C | 0% | 63.6hPa | 2.5V | 00:00:00 | 00:00:00 | 00:00:00 | |
| PETON7-10 | 2026-09-01 00:59:42 | 47.60968 | 19.86202 | 45° | 22km/h | 19572m | -14.1m/s | -56.1°C | 4.6% | 63.0hPa | 2.5V | 00:00:00 | 00:00:00 | 00:00:00 | |
| LZ4TU-5 | 2026-09-01 00:59:41 | 47.60968 | 19.86202 | 45° | 15km/h | 19572m | -14.1m/s | -56.1°C | 0% | 63.0hPa | 2.5V | 00:00:00 | 00:00:00 | 00:00:00 | |
| PETON7-10 | 2026-09-01 00:59:27 | 47.60909 | 19.86106 | 55° | 24km/h | 19780m | -14.5m/s | -55.8°C | 4.7% | 60.9hPa | 2.5V | 00:00:00 | 02:04:33 | 00:00:00 | |
| OE3JTB-15 | 2026-09-01 00:59:22 | 47.60888 | 19.86051 | 61° | 20km/h | 19854m | -15.4m/s | -56.0°C | 4.7% | 60.2hPa | 2.5V | 00:00:00 | 00:00:00 | 00:00:00 | |
| GYPAP8-17 | 2026-09-01 00:59:19 | 47.60881 | 19.86034 | 65° | 24km/h | 19885m | -15.4m/s | -55.9°C | 1.2% | 60.0hPa | 2.5V | 00:00:00 | 00:00:00 | 00:00:00 | |
| PETON7-10 | 2026-09-01 00:59:12 | 47.60863 | 19.86012 | 40° | 20km/h | 20009m | -15.1m/s | -56.1°C | 4.8% | 58.8hPa | 2.5V | 00:00:00 | 00:00:00 | 00:00:00 | |
| PETON7-10 | 2026-09-01 00:58:57 | 47.60819 | 19.85918 | 59° | 22km/h | 20247m | -16.4m/s | -55.2°C | 4.7% | 56.6hPa | 2.5V | 00:00:00 | 00:00:00 | 00:00:00 | |
| OE3JTB-15 | 2026-09-01 00:58:54 | 47.60806 | 19.85878 | 77° | 16km/h | 20320m | -13.8m/s | -55.0°C | 4.7% | 56.0hPa | 2.5V | 00:00:00 | 02:03:58 | 00:00:00 | |
| PETON7-10 | 2026-09-01 00:58:42 | 47.60800 | 19.85807 | 67° | 11km/h | 20467m | -13.9m/s | -54.4°C | 4.4% | 54.7hPa | 2.5V | 00:00:00 | 02:03:48 | 00:00:00 | |
| OE5DRO-10 | 2026-09-01 00:58:40 | 47.60797 | 19.85799 | 57° | 11km/h | 20497m | -15.2m/s | -54.0°C | 4.3% | 54.4hPa | 2.5V | 00:00:00 | 00:00:00 | 00:00:00 | |
| SQ9EZE-15 | 2026-09-01 00:58:32 | 47.60785 | 19.85783 | 339° | 5km/h | 20601m | -12.5m/s | -53.7°C | 1.1% | 53.6hPa | 2.5V | 00:00:00 | 00:00:00 | 00:00:00 | |
| PETON7-10 | 2026-09-01 00:58:27 | 47.60774 | 19.85798 | 330° | 15km/h | 20685m | -13.3m/s | -54.0°C | 4.2% | 52.8hPa | 2.5V | 00:00:00 | 00:00:00 | 00:00:00 | |
| OE3JTB-15 | 2026-09-01 00:58:24 | 47.60756 | 19.85800 | 5° | 11km/h | 20755m | -12.7m/s | -54.3°C | 4.2% | 52.3hPa | 2.5V | 00:00:00 | 00:00:00 | 00:00:00 | |
| OE5DRO-10 | 2026-09-01 00:58:21 | 47.60751 | 19.85800 | 1° | 11km/h | 20768m | -13.4m/s | -54.3°C | 4.2% | 52.2hPa | 2.5V | 00:00:00 | 00:00:00 | 00:00:00 | |
| PETON7-10 | 2026-09-01 00:58:12 | 47.60717 | 19.85804 | 8° | 5km/h | 20897m | -13.1m/s | -54.6°C | 4.4% | 51.1hPa | 2.5V | 00:00:00 | 00:00:00 | 00:00:00 | |
| SQ9EZE-15 | 2026-09-01 00:58:11 | 47.60717 | 19.85804 | 9° | 9km/h | 20897m | -13.1m/s | -54.6°C | 1.2% | 51.2hPa | 2.5V | 00:00:00 | 00:00:00 | 00:00:00 | |
| LZ4TU-5 | 2026-09-01 00:58:06 | 47.60707 | 19.85794 | 77° | 7km/h | 20965m | -13.7m/s | -54.7°C | 0% | 50.6hPa | 2.5V | 00:00:00 | 00:00:00 | 00:00:00 | |
| OE5DRO-10 | 2026-09-01 00:58:02 | 47.60707 | 19.85789 | 280° | 9km/h | 21038m | -15.7m/s | -54.8°C | 4.5% | 50.0hPa | 2.5V | 00:00:00 | 00:00:00 | 00:00:00 | |
| LZ4TU-5 | 2026-09-01 00:58:01 | 47.60707 | 19.85789 | 281° | 4km/h | 21038m | -15.7m/s | -54.9°C | 0% | 50.1hPa | 2.5V | 00:00:00 | 00:00:00 | 00:00:00 | |
| PETON7-10 | 2026-09-01 00:57:57 | 47.60709 | 19.85797 | 233° | 11km/h | 21120m | -17.0m/s | -54.6°C | 4.4% | 49.4hPa | 2.5V | 00:00:00 | 02:03:03 | 00:00:00 | |
| GYPAP8-17 | 2026-09-01 00:57:55 | 47.60710 | 19.85799 | 216° | 7km/h | 21136m | -16.9m/s | -54.7°C | 1.2% | 49.3hPa | 2.5V | 00:00:00 | 00:00:00 | 00:00:00 | |
| OE3JTB-15 | 2026-09-01 00:57:51 | 47.60721 | 19.85809 | 279° | 18km/h | 21250m | -14.7m/s | -54.7°C | 4.4% | 48.4hPa | 2.5V | 00:00:00 | 00:00:00 | 00:00:00 | |
| PETON7-10 | 2026-09-01 00:57:42 | 47.60699 | 19.85821 | 353° | 16km/h | 21354m | -14.6m/s | -54.6°C | 4.4% | 47.6hPa | 2.5V | 08:20:00 | 00:00:00 | 00:00:00 | |
| OE5DRO-10 | 2026-09-01 00:57:32 | 47.60670 | 19.85829 | 11° | 24km/h | 21521m | -15.7m/s | -54.1°C | 4.4% | 46.4hPa | 2.5V | 00:00:00 | 00:00:00 | 00:00:00 | |
| PETON7-10 | 2026-09-01 00:57:27 | 47.60641 | 19.85821 | 19° | 24km/h | 21597m | -16.2m/s | -54.0°C | 4.3% | 45.8hPa | 2.5V | 00:00:00 | 00:00:00 | 00:00:00 | |
| OE3JTB-15 | 2026-09-01 00:57:22 | 47.60604 | 19.85798 | 40° | 15km/h | 21706m | -17.7m/s | -54.1°C | 4.3% | 45.1hPa | 2.5V | 00:00:00 | 02:02:27 | 00:00:00 | |
| OE5DRO-10 | 2026-09-01 00:57:13 | 47.60575 | 19.85745 | 55° | 9km/h | 21838m | -17.7m/s | -54.2°C | 4.4% | 44.2hPa | 2.5V | 00:00:00 | 00:00:00 | 00:00:00 | |
| PETON7-10 | 2026-09-01 00:57:12 | 47.60573 | 19.85740 | 52° | 9km/h | 21855m | -16.9m/s | -54.0°C | 4.3% | 44.1hPa | 2.5V | 00:00:00 | 02:02:18 | 00:00:00 | |
| PETON7-10 | 2026-09-01 00:56:57 | 47.60575 | 19.85701 | 141° | 9km/h | 22099m | -13.9m/s | -54.0°C | 4.3% | 42.4hPa | 2.5V | 00:00:00 | 00:00:00 | 00:00:00 | |
| OE5DRO-10 | 2026-09-01 00:56:54 | 47.60580 | 19.85697 | 151° | 13km/h | 22143m | -13.9m/s | -54.0°C | 4.4% | 42.1hPa | 2.6V | 00:00:00 | 00:00:00 | 00:00:00 | |
| OE3JTB-15 | 2026-09-01 00:56:53 | 47.60586 | 19.85696 | 226° | 15km/h | 22203m | -15.6m/s | -53.8°C | 4.2% | 41.7hPa | 2.5V | 08:21:00 | 00:00:00 | 00:00:00 | |
| GYPAP8-17 | 2026-09-01 00:56:47 | 47.60586 | 19.85697 | 251° | 4km/h | 22236m | -17.6m/s | -53.7°C | 1.1% | 41.5hPa | 2.5V | 00:00:00 | 00:00:00 | 00:00:00 | |
| PETON7-10 | 2026-09-01 00:56:41 | 47.60580 | 19.85733 | 297° | 16km/h | 22347m | -16.9m/s | -53.4°C | 4.0% | 40.8hPa | 2.5V | 00:00:00 | 00:00:00 | 00:00:00 | |
| OE5DRO-10 | 2026-09-01 00:56:35 | 47.60564 | 19.85766 | 315° | 18km/h | 22444m | -15.3m/s | -53.7°C | 4.3% | 40.2hPa | 2.5V | 00:00:00 | 00:00:00 | 00:00:00 | |
| PETON7-10 | 2026-09-01 00:56:26 | 47.60537 | 19.85796 | 335° | 18km/h | 22559m | -12.9m/s | -53.7°C | 4.2% | 39.4hPa | 2.5V | 00:00:00 | 02:01:32 | 00:00:00 | |
| OE3JTB-15 | 2026-09-01 00:56:22 | 47.60508 | 19.85808 | 343° | 11km/h | 22634m | -12.6m/s | -53.7°C | 4.3% | 39.0hPa | 2.5V | 00:00:00 | 00:00:00 | 00:00:00 | |
| PETON7-10 | 2026-09-01 00:56:11 | 47.60469 | 19.85832 | 7° | 11km/h | 22751m | -13.3m/s | -53.4°C | 4.2% | 38.3hPa | 2.5V | 00:00:00 | 00:00:00 | 00:00:00 | |
| LZ4TU-5 | 2026-09-01 00:55:59 | 47.60435 | 19.85826 | 320° | 7km/h | 22933m | -21.7m/s | -53.0°C | 0% | 37.3hPa | 2.6V | 00:00:00 | 00:00:00 | 00:00:00 | |
| OE5DRO-10 | 2026-09-01 00:55:57 | 47.60435 | 19.85828 | 189° | 7km/h | 23006m | -25.2m/s | -53.0°C | 3.9% | 36.9hPa | 2.6V | 08:22:00 | 00:00:00 | 00:00:00 | |
| PETON7-10 | 2026-09-01 00:55:56 | 47.60436 | 19.85828 | 178° | 7km/h | 23031m | -23.9m/s | -53.2°C | 4.0% | 36.8hPa | 2.6V | 00:00:00 | 00:00:00 | 00:00:00 | |
| LZ4TU-5 | 2026-09-01 00:55:54 | 47.60438 | 19.85828 | 184° | 7km/h | 23054m | -23.4m/s | -53.4°C | 0% | 36.7hPa | 2.6V | 00:00:00 | 00:00:00 | 00:00:00 | |
| SQ9EZE-15 | 2026-09-01 00:55:49 | 47.60449 | 19.85829 | 165° | 9km/h | 23170m | -22.6m/s | -53.5°C | 1.1% | 36.0hPa | 2.6V | 00:00:00 | 00:00:00 | 00:00:00 | |
| PETON7-10 | 2026-09-01 00:55:41 | 47.60456 | 19.85817 | 348° | 9km/h | 23335m | -16.0m/s | -53.9°C | 4.4% | 35.0hPa | 2.6V | 00:00:00 | 02:00:47 | 00:00:00 | |
| OE5DRO-10 | 2026-09-01 00:55:38 | 47.60451 | 19.85817 | 9° | 11km/h | 23387m | -17.0m/s | -53.8°C | 4.3% | 34.7hPa | 2.6V | 00:00:00 | 00:00:00 | 00:00:00 | |
| PETON7-10 | 2026-09-01 00:55:26 | 47.60429 | 19.85801 | 135° | 11km/h | 23608m | -20.0m/s | -53.3°C | 4.2% | 33.6hPa | 2.6V | 08:23:00 | 00:00:00 | 00:00:00 | |
| GYPAP8-17 | 2026-09-01 00:55:23 | 47.60434 | 19.85795 | 156° | 15km/h | 23648m | -20.6m/s | -53.2°C | 1.1% | 33.4hPa | 2.6V | 00:00:00 | 00:00:00 | 00:00:00 | |
| OE3JTB-15 | 2026-09-01 00:55:22 | 47.60445 | 19.85791 | 223° | 7km/h | 23757m | -21.5m/s | -53.8°C | 4.3% | 32.8hPa | 2.6V | 00:00:00 | 00:00:00 | 00:00:00 | |
| OE5DRO-10 | 2026-09-01 00:55:19 | 47.60445 | 19.85791 | 223° | 9km/h | 23757m | -21.5m/s | -53.8°C | 4.3% | 32.8hPa | 2.5V | 00:00:00 | 00:00:00 | 00:00:00 | |
| PETON7-10 | 2026-09-01 00:55:11 | 47.60432 | 19.85796 | 45° | 9km/h | 23928m | -20.3m/s | -53.7°C | 4.5% | 32.0hPa | 2.5V | 00:00:00 | 00:00:00 | 00:00:00 | |
| SP9KGR-15 | 2026-09-01 00:55:06 | 47.60426 | 19.85775 | 110° | 9km/h | 24022m | -23.0m/s | -53.0°C | 1.1% | 31.5hPa | 2.5V | 00:00:00 | 00:00:00 | 00:00:00 | |
| OE5DRO-10 | 2026-09-01 00:55:00 | 47.60437 | 19.85772 | 232° | 7km/h | 24179m | -19.4m/s | -52.9°C | 4.2% | 30.7hPa | 2.5V | 00:00:00 | 00:00:00 | 00:00:00 | |
| PETON7-10 | 2026-09-01 00:54:56 | 47.60438 | 19.85777 | 270° | 9km/h | 24235m | -19.2m/s | -52.8°C | 4.2% | 30.5hPa | 2.5V | 00:00:00 | 02:00:02 | 00:00:00 | |
| OE3JTB-15 | 2026-09-01 00:54:52 | 47.60438 | 19.85788 | 246° | 15km/h | 24374m | -20.5m/s | -51.8°C | 3.8% | 29.8hPa | 2.5V | 00:00:00 | 00:00:00 | 00:00:00 | |
| PETON7-10 | 2026-09-01 00:54:41 | 47.60451 | 19.85832 | 254° | 9km/h | 24542m | -23.1m/s | -52.0°C | 3.8% | 29.1hPa | 2.5V | 00:00:00 | 00:00:00 | 00:00:00 | |
| PETON7-10 | 2026-09-01 00:54:26 | 47.60445 | 19.85857 | 21° | 13km/h | 24841m | -21.0m/s | -52.3°C | 4.1% | 27.7hPa | 2.5V | 00:00:00 | 00:00:00 | 00:00:00 | |
| SP9KGR-15 | 2026-09-01 00:54:25 | 47.60445 | 19.85857 | 22° | 11km/h | 24841m | -21.0m/s | -52.4°C | 1.0% | 27.8hPa | 2.5V | 00:00:00 | 00:00:00 | 00:00:00 | |
| OE5DRO-10 | 2026-09-01 00:54:20 | 47.60432 | 19.85875 | 287° | 13km/h | 25039m | -21.0m/s | -51.8°C | 3.9% | 26.9hPa | 2.5V | 00:00:00 | 00:00:00 | 00:00:00 | |
| PETON7-10 | 2026-09-01 00:54:11 | 47.60418 | 19.85904 | 319° | 11km/h | 25148m | -17.2m/s | -51.4°C | 3.8% | 26.4hPa | 2.5V | 00:00:00 | 01:59:17 | 00:00:00 | |
| SP9KGR-15 | 2026-09-01 00:54:08 | 47.60409 | 19.85912 | 349° | 13km/h | 25208m | -21.5m/s | -51.5°C | 0.9% | 26.2hPa | 2.5V | 00:00:00 | 00:00:00 | 00:00:00 | |
| PETON7-10 | 2026-09-01 00:53:56 | 47.60379 | 19.85914 | 358° | 9km/h | 25439m | -18.4m/s | -51.6°C | 3.8% | 25.3hPa | 2.5V | 00:00:00 | 00:00:00 | 00:00:00 | |
| OE5DRO-10 | 2026-09-01 00:53:55 | 47.60369 | 19.85911 | 23° | 13km/h | 25500m | -20.9m/s | -51.9°C | 4.0% | 25.0hPa | 2.5V | 00:00:00 | 00:00:00 | 00:00:00 | |
| SP9KGR-15 | 2026-09-01 00:53:52 | 47.60369 | 19.85911 | 23° | 11km/h | 25500m | -20.9m/s | -52.0°C | 1.0% | 25.1hPa | 2.5V | 08:25:00 | 00:00:00 | 00:00:00 | |
| PETON7-10 | 2026-09-01 00:53:41 | 47.60356 | 19.85890 | 354° | 13km/h | 25711m | -16.5m/s | -51.3°C | 3.9% | 24.2hPa | 2.5V | 00:00:00 | 00:00:00 | 00:00:00 | |
| SP9KGR-15 | 2026-09-01 00:53:36 | 47.60342 | 19.85888 | 13° | 11km/h | 25794m | -16.7m/s | -51.4°C | 1.0% | 23.9hPa | 2.5V | 08:25:00 | 00:00:00 | 00:00:00 | |
| PETON7-10 | 2026-09-01 00:53:26 | 47.60312 | 19.85858 | 78° | 13km/h | 25955m | -15.5m/s | -50.7°C | 3.9% | 23.3hPa | 2.5V | 00:00:00 | 01:58:32 | 00:00:00 | |
| OE3JTB-15 | 2026-09-01 00:53:20 | 47.60316 | 19.85802 | 97° | 13km/h | 26080m | -15.9m/s | -49.7°C | 3.5% | 22.9hPa | 2.5V | 00:00:00 | 00:00:00 | 00:00:00 | |
| LZ4TU-5 | 2026-09-01 00:53:15 | 47.60315 | 19.85798 | 43° | 4km/h | 26127m | -16.0m/s | -49.9°C | 0% | 22.7hPa | 2.5V | 00:00:00 | 00:00:00 | 00:00:00 | |
| SQ9EZE-15 | 2026-09-01 00:53:12 | 47.60315 | 19.85796 | 114° | 5km/h | 26159m | -16.0m/s | -49.9°C | 0.9% | 22.6hPa | 2.5V | 08:25:00 | 00:00:00 | 00:00:00 | |
| PETON7-10 | 2026-09-01 00:53:11 | 47.60317 | 19.85792 | 131° | 16km/h | 26190m | -15.9m/s | -49.8°C | 3.6% | 22.5hPa | 2.5V | 08:25:00 | 00:00:00 | 00:00:00 | |
| SP9KGR-15 | 2026-09-01 00:53:02 | 47.60342 | 19.85751 | 132° | 18km/h | 26316m | -16.2m/s | -50.0°C | 0.9% | 22.1hPa | 2.5V | 08:25:00 | 00:00:00 | 00:00:00 | |
| OE5DRO-10 | 2026-09-01 00:53:01 | 47.60353 | 19.85733 | 143° | 11km/h | 26381m | -16.4m/s | -49.9°C | 3.6% | 21.8hPa | 2.5V | 00:00:00 | 00:00:00 | 00:00:00 | |
| GYPAP8-17 | 2026-09-01 00:52:58 | 47.60353 | 19.85733 | 143° | 16km/h | 26381m | -16.4m/s | -50.0°C | 0.9% | 21.9hPa | 2.5V | 00:00:00 | 00:00:00 | 00:00:00 | |
| PETON7-10 | 2026-09-01 00:52:56 | 47.60364 | 19.85725 | 162° | 9km/h | 26432m | -16.4m/s | -49.8°C | 3.6% | 21.7hPa | 2.5V | 00:00:00 | 00:00:00 | 00:00:00 | |
| SQ9EZE-15 | 2026-09-01 00:52:51 | 47.60377 | 19.85723 | 187° | 7km/h | 26498m | -16.5m/s | -49.9°C | 0.9% | 21.5hPa | 2.5V | 00:00:00 | 00:00:00 | 00:00:00 | |
| SP9KGR-15 | 2026-09-01 00:52:47 | 47.60377 | 19.85720 | 41° | 9km/h | 26565m | -17.1m/s | -50.0°C | 0.9% | 21.3hPa | 2.5V | 08:26:00 | 00:00:00 | 00:00:00 | |
| PETON7-10 | 2026-09-01 00:52:41 | 47.60375 | 19.85705 | 152° | 11km/h | 26687m | -17.5m/s | -49.5°C | 3.6% | 20.8hPa | 2.5V | 00:00:00 | 01:57:47 | 00:00:00 | |
| PETON7-10 | 2026-09-01 00:52:26 | 47.60355 | 19.85684 | 61° | 11km/h | 26952m | -18.6m/s | -49.2°C | 3.6% | 20.0hPa | 2.5V | 00:00:00 | 00:00:00 | 00:00:00 | |
| SP9KGR-15 | 2026-09-01 00:52:24 | 47.60354 | 19.85680 | 70° | 13km/h | 26971m | -18.9m/s | -49.2°C | 0.9% | 20.0hPa | 2.6V | 08:26:00 | 00:00:00 | 00:00:00 | |
| OE5DRO-10 | 2026-09-01 00:52:23 | 47.60349 | 19.85662 | 72° | 7km/h | 27051m | -25.1m/s | -48.8°C | 3.5% | 19.7hPa | 2.6V | 00:00:00 | 00:00:00 | 00:00:00 | |
| PETON7-10 | 2026-09-01 00:52:11 | 47.60355 | 19.85643 | 244° | 5km/h | 27312m | -25.5m/s | -48.7°C | 3.4% | 19.0hPa | 2.6V | 00:00:00 | 00:00:00 | 00:00:00 | |
| SP9KGR-15 | 2026-09-01 00:52:07 | 47.60355 | 19.85651 | 321° | 4km/h | 27418m | -26.2m/s | -48.8°C | 0.9% | 18.7hPa | 2.6V | 00:00:00 | 00:00:00 | 00:00:00 | |
| OE5DRO-10 | 2026-09-01 00:52:05 | 47.60353 | 19.85657 | 299° | 11km/h | 27516m | -25.9m/s | -48.8°C | 3.5% | 18.4hPa | 2.6V | 00:00:00 | 00:00:00 | 00:00:00 | |
| SP9KGR-15 | 2026-09-01 00:51:53 | 47.60341 | 19.85637 | 93° | 15km/h | 27809m | -26.2m/s | -49.0°C | 0.9% | 17.7hPa | 2.6V | 00:00:00 | 00:00:00 | 00:00:00 | |
| PETON7-10 | 2026-09-01 00:51:41 | 47.60362 | 19.85599 | 74° | 11km/h | 28093m | -25.2m/s | -48.3°C | 3.6% | 16.8hPa | 2.6V | 00:00:00 | 00:00:00 | 00:00:00 | |
| SP9KGR-15 | 2026-09-01 00:51:36 | 47.60359 | 19.85578 | 82° | 16km/h | 28207m | -31.8m/s | -47.9°C | 0.8% | 16.6hPa | 2.5V | 00:00:00 | 00:00:00 | 00:00:00 | |
| PETON7-10 | 2026-09-01 00:51:26 | 47.60365 | 19.85551 | 75° | 11km/h | 28506m | -25.3m/s | -46.4°C | 3.3% | 15.8hPa | 2.5V | 00:00:00 | 00:00:00 | 00:00:00 | |
| SP9KGR-15 | 2026-09-01 00:51:21 | 47.60360 | 19.85526 | 70° | 22km/h | 28600m | -23.8m/s | -46.0°C | 0.8% | 15.6hPa | 2.5V | 00:00:00 | 00:00:00 | 00:00:00 | |
| LZ4TU-5 | 2026-09-01 00:51:17 | 47.60355 | 19.85506 | 0° | 0km/h | 28699m | -28.0m/s | -45.9°C | 0% | 15.4hPa | 2.5V | 00:00:00 | 00:00:00 | 00:00:00 | |
| OE5DXL-15 | 2026-09-01 00:51:16 | 47.60355 | 19.85512 | 313° | 15km/h | 28816m | -27.6m/s | 0°C | 0% | 0hPa | 2.5V | 00:00:00 | 00:00:00 | 00:00:00 | |
| PETON7-10 | 2026-09-01 00:51:11 | 47.60350 | 19.85510 | 52° | 11km/h | 28898m | -27.3m/s | -45.4°C | 3.2% | 14.9hPa | 2.5V | 00:00:00 | 01:56:17 | 00:00:00 | |
| SP9KGR-15 | 2026-09-01 00:51:03 | 47.60345 | 19.85482 | 184° | 5km/h | 29082m | -23.5m/s | -44.9°C | 0.8% | 14.5hPa | 2.5V | 00:00:00 | 00:00:00 | 00:00:00 | |
| PETON7-10 | 2026-09-01 00:50:56 | 47.60342 | 19.85494 | 34° | 11km/h | 29313m | -30.9m/s | -43.4°C | 2.8% | 14.0hPa | 2.5V | 08:27:00 | 00:00:00 | 00:00:00 | |
| OE5DRO-10 | 2026-09-01 00:50:48 | 47.60326 | 19.85458 | 92° | 9km/h | 29545m | -30.5m/s | -42.9°C | 2.8% | 13.5hPa | 2.6V | 00:00:00 | 00:00:00 | 00:00:00 | |
| SP9KGR-15 | 2026-09-01 00:50:47 | 47.60326 | 19.85458 | 92° | 11km/h | 29545m | -30.5m/s | -42.9°C | 0.7% | 13.6hPa | 2.5V | 00:00:00 | 00:00:00 | 00:00:00 | |
| PETON7-10 | 2026-09-01 00:50:41 | 47.60321 | 19.85442 | 59° | 11km/h | 29759m | -28.6m/s | -42.7°C | 2.8% | 13.1hPa | 2.5V | 00:00:00 | 00:00:00 | 00:00:00 | |
| GYPAP8-17 | 2026-09-01 00:50:32 | 47.60309 | 19.85412 | 63° | 9km/h | 29968m | -22.9m/s | -41.2°C | 0.6% | 12.7hPa | 2.5V | 00:00:00 | 00:00:00 | 00:00:00 | |
| OE5DRO-10 | 2026-09-01 00:50:29 | 47.60309 | 19.85403 | 87° | 24km/h | 30067m | -28.5m/s | -40.3°C | 2.3% | 12.5hPa | 2.5V | 00:00:00 | 00:00:00 | 00:00:00 | |
| PETON7-10 | 2026-09-01 00:50:24 | 47.60298 | 19.85379 | 48° | 27km/h | 30221m | -28.3m/s | -40.3°C | 2.3% | 12.2hPa | 2.5V | 00:00:00 | 01:55:30 | 00:00:00 | |
| SP9KGR-15 | 2026-09-01 00:50:17 | 47.60279 | 19.85330 | 65° | 22km/h | 30427m | -26.3m/s | -40.8°C | 0.5% | 11.9hPa | 2.5V | 00:00:00 | 00:00:00 | 00:00:00 | |
| OE5DRO-10 | 2026-09-01 00:50:10 | 47.60260 | 19.85249 | 76° | 29km/h | 30622m | -29.9m/s | -41.4°C | 2.4% | 11.5hPa | 2.5V | 00:00:00 | 00:00:00 | 00:00:00 | |
| PETON7-10 | 2026-09-01 00:50:09 | 47.60258 | 19.85235 | 79° | 35km/h | 30652m | -30.1m/s | -41.6°C | 2.5% | 11.5hPa | 2.5V | 00:00:00 | 00:00:00 | 00:00:00 | |
| SP9KGR-15 | 2026-09-01 00:49:56 | 47.60279 | 19.85092 | 118° | 35km/h | 31006m | -31.1m/s | -41.6°C | 0.6% | 10.9hPa | 2.5V | 00:00:00 | 00:00:00 | 00:00:00 | |
| PETON7-10 | 2026-09-01 00:49:54 | 47.60292 | 19.85058 | 124° | 18km/h | 31101m | -34.6m/s | -41.6°C | 2.5% | 10.7hPa | 2.5V | 00:00:00 | 00:00:00 | 00:00:00 | |
| OE5DRO-10 | 2026-09-01 00:49:49 | 47.60311 | 19.85022 | 146° | 11km/h | 31273m | -33.5m/s | -41.8°C | 2.5% | 10.5hPa | 2.5V | 08:28:00 | 00:00:00 | 00:00:00 | |
| SP9KGR-15 | 2026-09-01 00:49:40 | 47.60337 | 19.85000 | 156° | 9km/h | 31526m | -32.1m/s | -42.1°C | 0.7% | 10.1hPa | 2.5V | 00:00:00 | 00:00:00 | 00:00:00 | |
| PETON7-10 | 2026-09-01 00:49:39 | 47.60340 | 19.84999 | 122° | 16km/h | 31590m | -32.6m/s | -42.2°C | 2.8% | 10.0hPa | 2.5V | 00:00:00 | 01:54:45 | 00:00:00 | |
| OE5DRO-10 | 2026-09-01 00:49:30 | 47.60338 | 19.84956 | 79° | 26km/h | 31868m | -32.3m/s | -41.1°C | 2.6% | 9.5hPa | 2.5V | 00:00:00 | 00:00:00 | 00:00:00 | |
| SQ9EZE-15 | 2026-09-01 00:49:26 | 47.60335 | 19.84925 | 79° | 27km/h | 31964m | -33.2m/s | -40.9°C | 0.6% | 9.5hPa | 2.5V | 00:00:00 | 00:00:00 | 00:00:00 | |
| SP9KGR-15 | 2026-09-01 00:49:25 | 47.60333 | 19.84916 | 80° | 22km/h | 31996m | -32.6m/s | -40.8°C | 0.6% | 9.4hPa | 2.5V | 08:29:00 | 00:00:00 | 00:00:00 | |
| PETON7-10 | 2026-09-01 00:49:24 | 47.60332 | 19.84904 | 83° | 20km/h | 32064m | -33.8m/s | -40.6°C | 2.6% | 9.3hPa | 2.5V | 00:00:00 | 00:00:00 | 00:00:00 | |
| PETON7-10 | 2026-09-01 00:49:09 | 47.60335 | 19.84794 | 63° | 13km/h | 32604m | -37.9m/s | -39.2°C | 2.3% | 8.6hPa | 2.6V | 00:00:00 | 00:00:00 | 00:00:00 | |
| GYPAP8-17 | 2026-09-01 00:49:03 | 47.60330 | 19.84790 | 208° | 5km/h | 32773m | -32.3m/s | -39.3°C | 0.6% | 8.4hPa | 2.6V | 00:00:00 | 00:00:00 | 00:00:00 | |
| LZ4TU-5 | 2026-09-01 00:48:55 | 47.60338 | 19.84752 | 59° | 18km/h | 33025m | -29.5m/s | -38.4°C | 0% | 8.1hPa | 2.6V | 00:00:00 | 00:00:00 | 00:00:00 | |
| PETON7-10 | 2026-09-01 00:48:54 | 47.60332 | 19.84745 | 17° | 13km/h | 33086m | -32.2m/s | -37.9°C | 2.2% | 7.9hPa | 2.6V | 00:00:00 | 01:54:00 | 00:00:00 | |
| LZ4TU-5 | 2026-09-01 00:48:50 | 47.60327 | 19.84747 | 274° | 4km/h | 33189m | -35.6m/s | -37.6°C | 0% | 7.9hPa | 2.6V | 00:00:00 | 00:00:00 | 00:00:00 | |
| SP9KGR-15 | 2026-09-01 00:48:39 | 47.60340 | 19.84712 | 271° | 20km/h | 33570m | -32.4m/s | -36.0°C | 0% | 7.5hPa | 2.6V | 00:00:00 | 00:00:00 | 00:00:00 | |
| PETON7-10 | 2026-09-01 00:48:24 | 47.60341 | 19.84767 | 332° | 20km/h | 34019m | -26.7m/s | -36.1°C | 2.0% | 6.9hPa | 2.6V | 00:00:00 | 00:00:00 | 00:00:00 | |
| SP9KGR-15 | 2026-09-01 00:48:22 | 47.60331 | 19.84774 | 340° | 44km/h | 34046m | -28.9m/s | -36.3°C | 0% | 0hPa | 2.6V | 00:00:00 | 00:00:00 | 00:00:00 | |
| PETON7-10 | 2026-09-01 00:48:09 | 47.60280 | 19.84812 | 341° | 20km/h | 34597m | -38.1m/s | -35.9°C | 1.9% | 6.4hPa | 2.6V | 00:00:00 | 01:53:15 | 00:00:00 | |
| SP9KGR-15 | 2026-09-01 00:48:07 | 47.60272 | 19.84816 | 340° | 27km/h | 34633m | -35.5m/s | -35.9°C | 0% | 0hPa | 2.6V | 00:00:00 | 00:00:00 | 00:00:00 | |
| PETON7-10 | 2026-09-01 00:47:54 | 47.60234 | 19.84836 | 6° | 27km/h | 34915m | 6.3m/s | -36.4°C | 2.0% | 6.1hPa | 2.6V | 00:00:00 | 00:00:00 | 00:00:00 | |
| SP9KGR-15 | 2026-09-01 00:47:51 | 47.60219 | 19.84837 | 356° | 33km/h | 34904m | 4.7m/s | 0°C | 0% | 0hPa | 2.6V | 00:00:00 | 00:00:00 | 00:00:00 | |
| GYPAP8-17 | 2026-09-01 00:47:49 | 47.60204 | 19.84839 | 354° | 26km/h | 34894m | 6.7m/s | -36.4°C | 0.5% | 6.1hPa | 2.6V | 00:00:00 | 00:00:00 | 00:00:00 | |
| SQ9EZE-15 | 2026-09-01 00:47:43 | 47.60166 | 19.84836 | 7° | 31km/h | 34859m | 4.3m/s | -36.2°C | 0.5% | 6.2hPa | 2.6V | 00:00:00 | 00:00:00 | 00:00:00 | |
| PETON7-10 | 2026-09-01 00:47:39 | 47.60138 | 19.84846 | 320° | 24km/h | 34831m | 5.4m/s | -36.2°C | 2.0% | 6.1hPa | 2.6V | 00:00:00 | 00:00:00 | 00:00:00 | |
| SP9KGR-15 | 2026-09-01 00:47:36 | 47.60127 | 19.84859 | 325° | 33km/h | 34819m | 5.7m/s | 0°C | 0% | 0hPa | 2.6V | 00:00:00 | 00:00:00 | 00:00:00 | |
| OE5DRO-10 | 2026-09-01 00:47:27 | 47.60066 | 19.84892 | 346° | 18km/h | 34760m | 4.6m/s | -36.5°C | 2.0% | 6.2hPa | 2.6V | 00:00:00 | 00:00:00 | 00:00:00 | |
| PETON7-10 | 2026-09-01 00:47:24 | 47.60057 | 19.84901 | 304° | 20km/h | 34748m | 6.3m/s | -36.6°C | 2.0% | 6.2hPa | 2.6V | 00:00:00 | 01:52:30 | 00:00:00 | |
| SQ9EZE-15 | 2026-09-01 00:47:22 | 47.60055 | 19.84908 | 289° | 24km/h | 34742m | 5.3m/s | -36.7°C | 0.5% | 6.3hPa | 2.6V | 00:00:00 | 00:00:00 | 00:00:00 | |
| SP9KGR-15 | 2026-09-01 00:47:20 | 47.60051 | 19.84928 | 290° | 33km/h | 34730m | 6.7m/s | 0°C | 0% | 0hPa | 2.6V | 00:00:00 | 00:00:00 | 00:00:00 | |
| OE5DRO-10 | 2026-09-01 00:47:09 | 47.60020 | 19.84988 | 286° | 15km/h | 34656m | 7.3m/s | -37.3°C | 2.0% | 6.3hPa | 2.6V | 00:00:00 | 00:00:00 | 00:00:00 | |
| SP9KGR-15 | 2026-09-01 00:47:04 | 47.60022 | 19.85011 | 259° | 24km/h | 34638m | 5.4m/s | 0°C | 0% | 0hPa | 2.6V | 00:00:00 | 00:00:00 | 00:00:00 | |
| PETON7-10 | 2026-09-01 00:46:54 | 47.60031 | 19.85051 | 322° | 11km/h | 34572m | 7.2m/s | -38.1°C | 2.2% | 6.3hPa | 2.6V | 00:00:00 | 00:00:00 | 00:00:00 | |
| OE5DRO-10 | 2026-09-01 00:46:49 | 47.60016 | 19.85066 | 303° | 16km/h | 34540m | 5.8m/s | -38.2°C | 2.2% | 6.4hPa | 2.6V | 00:00:00 | 00:00:00 | 00:00:00 | |
| SP9KGR-15 | 2026-09-01 00:46:47 | 47.60015 | 19.85069 | 287° | 7km/h | 34534m | 5.2m/s | 0°C | 0% | 0hPa | 2.6V | 00:00:00 | 00:00:00 | 00:00:00 | |
| PETON7-10 | 2026-09-01 00:46:39 | 47.59996 | 19.85082 | 315° | 24km/h | 34477m | 5.7m/s | -38.2°C | 2.2% | 6.4hPa | 2.6V | 00:00:00 | 01:51:45 | 00:00:00 | |
| GYPAP8-17 | 2026-09-01 00:46:38 | 47.59996 | 19.85082 | 316° | 18km/h | 34477m | 5.7m/s | -38.3°C | 0.5% | 6.5hPa | 2.6V | 00:00:00 | 00:00:00 | 00:00:00 | |
| SP9KGR-15 | 2026-09-01 00:46:32 | 47.59957 | 19.85102 | 334° | 18km/h | 34433m | 7.1m/s | 0°C | 0% | 0hPa | 2.6V | 00:00:00 | 00:00:00 | 00:00:00 | |
| OE5DRO-10 | 2026-09-01 00:46:30 | 47.59950 | 19.85110 | 324° | 27km/h | 34421m | 5.3m/s | -38.4°C | 2.2% | 6.5hPa | 2.6V | 00:00:00 | 00:00:00 | 00:00:00 | |
| PETON7-10 | 2026-09-01 00:46:24 | 47.59910 | 19.85132 | 353° | 27km/h | 34381m | 7.2m/s | -38.3°C | 2.3% | 6.5hPa | 2.6V | 00:00:00 | 00:00:00 | 08:30:00 | |
| SP9KGR-15 | 2026-09-01 00:46:15 | 47.59854 | 19.85095 | 23° | 15km/h | 34328m | 7.7m/s | 0°C | 0% | 0hPa | 2.5V | 00:00:00 | 00:00:00 | 00:00:00 | |
| OE5DRO-10 | 2026-09-01 00:46:11 | 47.59832 | 19.85116 | 326° | 29km/h | 34292m | 6.3m/s | -37.8°C | 2.2% | 6.6hPa | 2.5V | 00:00:00 | 00:00:00 | 00:00:00 | |
| PETON7-10 | 2026-09-01 00:46:09 | 47.59817 | 19.85129 | 334° | 29km/h | 34279m | 7.6m/s | -37.7°C | 2.2% | 6.7hPa | 2.6V | 00:00:00 | 00:00:00 | 00:00:00 | |
| LZ4TU-5 | 2026-09-01 00:45:55 | 47.59756 | 19.85153 | 290° | 38km/h | 34189m | 6.7m/s | -37.6°C | 0% | 6.8hPa | 2.6V | 00:00:00 | 00:00:00 | 00:00:00 | |
| PETON7-10 | 2026-09-01 00:45:54 | 47.59745 | 19.85173 | 330° | 24km/h | 34175m | 7.3m/s | -37.6°C | 2.2% | 6.7hPa | 2.6V | 00:00:00 | 01:51:00 | 00:00:00 | |
| OE5DRO-10 | 2026-09-01 00:45:52 | 47.59729 | 19.85179 | 4° | 20km/h | 34160m | 8.2m/s | -37.5°C | 2.2% | 6.7hPa | 2.6V | 00:00:00 | 00:00:00 | 00:00:00 | |
| LZ4TU-5 | 2026-09-01 00:45:50 | 47.59722 | 19.85177 | 20° | 27km/h | 34151m | 8.6m/s | -37.5°C | 0% | 6.8hPa | 2.6V | 00:00:00 | 00:00:00 | 00:00:00 | |
| PETON7-10 | 2026-09-01 00:45:39 | 47.59712 | 19.85220 | 292° | 20km/h | 34064m | 8.6m/s | -36.9°C | 2.0% | 6.8hPa | 2.6V | 00:00:00 | 00:00:00 | 00:00:00 | |
| OE3JTB-15 | 2026-09-01 00:45:36 | 47.59698 | 19.85206 | 86° | 15km/h | 34023m | 7.4m/s | -37.0°C | 2.1% | 6.9hPa | 2.5V | 00:00:00 | 00:00:00 | 08:30:00 | |
| OE5DRO-10 | 2026-09-01 00:45:34 | 47.59699 | 19.85202 | 128° | 18km/h | 34016m | 6.6m/s | -37.0°C | 2.1% | 6.9hPa | 2.6V | 00:00:00 | 00:00:00 | 00:00:00 | |
| PETON7-10 | 2026-09-01 00:45:24 | 47.59714 | 19.85258 | 232° | 20km/h | 33946m | 8.5m/s | -36.9°C | 2.1% | 7.0hPa | 2.6V | 00:00:00 | 00:00:00 | 00:00:00 | |
| GYPAP8-17 | 2026-09-01 00:45:18 | 47.59740 | 19.85256 | 156° | 5km/h | 33892m | 6.4m/s | -36.8°C | 0.5% | 7.1hPa | 2.6V | 00:00:00 | 00:00:00 | 00:00:00 | |
| OE5DRO-10 | 2026-09-01 00:45:14 | 47.59747 | 19.85266 | 237° | 26km/h | 33868m | 8.0m/s | -36.7°C | 2.0% | 7.1hPa | 2.6V | 00:00:00 | 00:00:00 | 08:30:00 | |
| PETON7-10 | 2026-09-01 00:45:09 | 47.59762 | 19.85314 | 224° | 24km/h | 33830m | 6.4m/s | -36.6°C | 2.0% | 7.1hPa | 2.6V | 00:00:00 | 01:50:15 | 00:00:00 | |
| SQ9EZE-15 | 2026-09-01 00:45:01 | 47.59797 | 19.85283 | 122° | 11km/h | 33775m | 6.5m/s | -36.7°C | 0.5% | 7.2hPa | 2.6V | 00:00:00 | 00:00:00 | 00:00:00 | |
| OE5DRO-10 | 2026-09-01 00:44:55 | 47.59812 | 19.85334 | 248° | 15km/h | 33722m | 6.8m/s | -36.5°C | 2.0% | 7.2hPa | 2.6V | 00:00:00 | 00:00:00 | 00:00:00 | |
| PETON7-10 | 2026-09-01 00:44:54 | 47.59815 | 19.85342 | 242° | 15km/h | 33715m | 6.9m/s | -36.5°C | 2.0% | 7.2hPa | 2.6V | 00:00:00 | 00:00:00 | 00:00:00 | |
| SP9KGR-15 | 2026-09-01 00:44:49 | 47.59830 | 19.85333 | 133° | 31km/h | 33683m | 8.1m/s | 0°C | 0% | 0hPa | 2.6V | 00:00:00 | 00:00:00 | 00:00:00 | |
| PETON7-10 | 2026-09-01 00:44:39 | 47.59851 | 19.85332 | 318° | 7km/h | 33601m | 9.2m/s | -36.9°C | 2.0% | 7.3hPa | 2.6V | 00:00:00 | 00:00:00 | 00:00:00 | |
| OE5DRO-10 | 2026-09-01 00:44:36 | 47.59850 | 19.85329 | 132° | 11km/h | 33581m | 9.3m/s | -36.9°C | 2.0% | 7.4hPa | 2.6V | 00:00:00 | 00:00:00 | 00:00:00 | |
| SP9KGR-15 | 2026-09-01 00:44:27 | 47.59858 | 19.85317 | 0° | 0km/h | 33520m | 8.5m/s | 0°C | 0% | 0hPa | 2.6V | 00:00:00 | 00:00:00 | 00:00:00 | |
| PETON7-10 | 2026-09-01 00:44:24 | 47.59867 | 19.85315 | 158° | 13km/h | 33491m | 9.1m/s | -37.6°C | 2.1% | 7.5hPa | 2.6V | 00:00:00 | 01:49:30 | 00:00:00 | |
| OE5DRO-10 | 2026-09-01 00:44:17 | 47.59890 | 19.85277 | 60° | 11km/h | 33424m | 6.9m/s | -37.9°C | 2.1% | 7.5hPa | 2.6V | 00:00:00 | 00:00:00 | 00:00:00 | |
| OE3JTB-15 | 2026-09-01 00:44:11 | 47.59887 | 19.85267 | 120° | 13km/h | 33395m | 5.5m/s | -37.9°C | 2.1% | 7.5hPa | 2.6V | 00:00:00 | 00:00:00 | 00:00:00 | |
| PETON7-10 | 2026-09-01 00:44:09 | 47.59887 | 19.85262 | 86° | 13km/h | 33382m | 8.5m/s | -38.0°C | 2.1% | 7.6hPa | 2.6V | 00:00:00 | 00:00:00 | 08:30:00 | |
| SP9KGR-15 | 2026-09-01 00:44:04 | 47.59886 | 19.85248 | 119° | 9km/h | 33355m | 8.7m/s | 0°C | 0% | 0hPa | 2.5V | 00:00:00 | 00:00:00 | 00:00:00 | |
| OE5DRO-10 | 2026-09-01 00:43:58 | 47.59870 | 19.85220 | 338° | 9km/h | 33291m | 6.6m/s | -38.1°C | 2.2% | 7.7hPa | 2.5V | 00:00:00 | 00:00:00 | 00:00:00 | |
| GYPAP8-17 | 2026-09-01 00:43:54 | 47.59867 | 19.85222 | 332° | 11km/h | 33285m | 4.9m/s | -38.2°C | 0.5% | 7.7hPa | 2.5V | 00:00:00 | 00:00:00 | 00:00:00 | |
| PETON7-10 | 2026-09-01 00:43:53 | 47.59862 | 19.85225 | 349° | 9km/h | 33271m | 9.0m/s | -38.1°C | 2.2% | 7.7hPa | 2.5V | 00:00:00 | 00:00:00 | 00:00:00 | |
| SQ9EZE-16 | 2026-09-01 00:43:51 | 47.59859 | 19.85225 | 356° | 13km/h | 33263m | 5.9m/s | -38.1°C | 0.5% | 7.8hPa | 2.5V | 00:00:00 | 00:00:00 | 00:00:00 | |
| SP9KGR-15 | 2026-09-01 00:43:49 | 47.59854 | 19.85226 | 338° | 5km/h | 33251m | 8.4m/s | 0°C | 0% | 0hPa | 2.5V | 00:00:00 | 00:00:00 | 00:00:00 | |
| PETON7-10 | 2026-09-01 00:43:38 | 47.59854 | 19.85198 | 126° | 13km/h | 33175m | 6.5m/s | -38.4°C | 2.1% | 7.8hPa | 2.5V | 00:00:00 | 01:48:44 | 00:00:00 | |
| SP9KGR-15 | 2026-09-01 00:43:34 | 47.59850 | 19.85195 | 334° | 9km/h | 33149m | 6.3m/s | 0°C | 0% | 0hPa | 2.5V | 00:00:00 | 00:00:00 | 00:00:00 | |
| GYPAP8-17 | 2026-09-01 00:43:33 | 47.59850 | 19.85195 | 334° | 9km/h | 33149m | 6.3m/s | -38.6°C | 0.5% | 7.9hPa | 2.5V | 00:00:00 | 00:00:00 | 00:00:00 | |
| PETON7-10 | 2026-09-01 00:43:23 | 47.59866 | 19.85146 | 139° | 15km/h | 33078m | 3.6m/s | -39.3°C | 2.2% | 7.9hPa | 2.5V | 00:00:00 | 00:00:00 | 00:00:00 | |
| SQ9EZE-16 | 2026-09-01 00:43:18 | 47.59863 | 19.85136 | 19° | 16km/h | 33051m | 4.2m/s | -39.8°C | 0.6% | 8.0hPa | 2.6V | 00:00:00 | 00:00:00 | 00:00:00 | |
| OE5DRO-10 | 2026-09-01 00:43:17 | 47.59855 | 19.85125 | 94° | 13km/h | 33027m | 3.3m/s | -40.0°C | 2.3% | 8.0hPa | 2.6V | 00:00:00 | 00:00:00 | 00:00:00 | |
| PETON7-10 | 2026-09-01 00:43:08 | 47.59855 | 19.85088 | 154° | 7km/h | 32984m | 8.2m/s | -40.2°C | 2.4% | 8.0hPa | 2.5V | 00:00:00 | 00:00:00 | 00:00:00 | |
| SQ9EZE-16 | 2026-09-01 00:43:03 | 47.59860 | 19.85081 | 49° | 9km/h | 32958m | 9.0m/s | -40.3°C | 0% | 8.1hPa | 2.5V | 00:00:00 | 00:00:00 | 00:00:00 | |
| OE5DRO-10 | 2026-09-01 00:42:58 | 47.59851 | 19.85066 | 97° | 11km/h | 32921m | 5.4m/s | -40.2°C | 2.4% | 8.1hPa | 2.5V | 00:00:00 | 00:00:00 | 00:00:00 | |
| PETON7-10 | 2026-09-01 00:42:53 | 47.59852 | 19.85059 | 205° | 15km/h | 32889m | 8.7m/s | -40.2°C | 2.3% | 8.2hPa | 2.5V | 00:00:00 | 01:47:59 | 00:00:00 | |
| SQ9EZE-16 | 2026-09-01 00:42:48 | 47.59853 | 19.85066 | 6° | 13km/h | 32859m | 6.9m/s | -40.4°C | 0% | 8.2hPa | 2.5V | 00:00:00 | 00:00:00 | 00:00:00 | |
| OE5DRO-10 | 2026-09-01 00:42:47 | 47.59852 | 19.85023 | 114° | 20km/h | 32801m | 5.8m/s | -40.6°C | 2.5% | 8.3hPa | 2.5V | 00:00:00 | 00:00:00 | 00:00:00 | |
| PETON7-10 | 2026-09-01 00:42:39 | 47.59857 | 19.85008 | 93° | 20km/h | 32782m | 5.4m/s | -40.7°C | 2.5% | 8.3hPa | 2.5V | 00:00:00 | 00:00:00 | 00:00:00 | |
| SQ9EZE-16 | 2026-09-01 00:42:31 | 47.59844 | 19.84999 | 20° | 20km/h | 32756m | 5.2m/s | -40.7°C | 0% | 8.4hPa | 2.6V | 00:00:00 | 00:00:00 | 00:00:00 | |
| PETON7-10 | 2026-09-01 00:42:21 | 47.59839 | 19.84912 | 99° | 31km/h | 32684m | 5.0m/s | -40.2°C | 2.4% | 8.4hPa | 2.6V | 00:00:00 | 00:00:00 | 00:00:00 | |
| OE5DRO-10 | 2026-09-01 00:42:20 | 47.59839 | 19.84904 | 84° | 31km/h | 32679m | 5.1m/s | -40.2°C | 2.4% | 8.4hPa | 2.6V | 00:00:00 | 00:00:00 | 08:30:00 | |
| SQ9EZE-15 | 2026-09-01 00:42:10 | 47.59825 | 19.84830 | 107° | 42km/h | 32620m | 7.2m/s | -40.7°C | 0.6% | 8.6hPa | 2.5V | 00:00:00 | 00:00:00 | 00:00:00 | |
| PETON7-10 | 2026-09-01 00:42:06 | 47.59831 | 19.84754 | 94° | 29km/h | 32588m | 7.3m/s | -40.7°C | 2.4% | 8.5hPa | 2.5V | 00:00:00 | 01:47:12 | 00:00:00 | |
| OE5DRO-10 | 2026-09-01 00:42:01 | 47.59829 | 19.84685 | 83° | 22km/h | 32547m | 6.2m/s | -40.7°C | 2.4% | 8.6hPa | 2.5V | 00:00:00 | 00:00:00 | 00:00:00 | |
| SQ9EZE-16 | 2026-09-01 00:41:58 | 47.59829 | 19.84674 | 84° | 29km/h | 32540m | 7.7m/s | -40.8°C | 0% | 8.7hPa | 2.5V | 00:00:00 | 00:00:00 | 00:00:00 | |
| LZ4TU-5 | 2026-09-01 00:41:52 | 47.59820 | 19.84607 | 83° | 26km/h | 32494m | 6.5m/s | -40.9°C | 0% | 8.7hPa | 2.5V | 00:00:00 | 00:00:00 | 00:00:00 | |
| PETON7-10 | 2026-09-01 00:41:51 | 47.59819 | 19.84599 | 88° | 16km/h | 32486m | 8.3m/s | -40.8°C | 2.4% | 8.7hPa | 2.5V | 00:00:00 | 00:00:00 | 08:30:00 | |
| LZ4TU-5 | 2026-09-01 00:41:47 | 47.59821 | 19.84578 | 97° | 18km/h | 32457m | 8.1m/s | -41.1°C | 0% | 8.8hPa | 2.6V | 00:00:00 | 00:00:00 | 00:00:00 | |
| OE5DRO-10 | 2026-09-01 00:41:42 | 47.59819 | 19.84530 | 86° | 15km/h | 32414m | 6.9m/s | -41.2°C | 2.5% | 8.8hPa | 2.6V | 00:00:00 | 00:00:00 | 00:00:00 | |
| SQ9EZE-16 | 2026-09-01 00:41:39 | 47.59819 | 19.84526 | 90° | 13km/h | 32406m | 7.7m/s | -41.3°C | 0% | 0hPa | 2.6V | 00:00:00 | 00:00:00 | 00:00:00 | |
| PETON7-10 | 2026-09-01 00:41:36 | 47.59822 | 19.84508 | 134° | 16km/h | 32377m | 8.4m/s | -41.4°C | 2.5% | 8.8hPa | 2.6V | 00:00:00 | 00:00:00 | 00:00:00 | |
| OE5DRO-10 | 2026-09-01 00:41:23 | 47.59828 | 19.84429 | 114° | 27km/h | 32273m | 5.9m/s | -41.8°C | 2.6% | 9.0hPa | 2.6V | 00:00:00 | 00:00:00 | 00:00:00 | |
| SQ9EZE-16 | 2026-09-01 00:41:08 | 47.59804 | 19.84304 | 98° | 27km/h | 32176m | 9.7m/s | -41.8°C | 0% | 0hPa | 2.5V | 00:00:00 | 00:00:00 | 00:00:00 | |
| PETON7-10 | 2026-09-01 00:41:06 | 47.59808 | 19.84275 | 97° | 29km/h | 32153m | 6.4m/s | -41.8°C | 2.6% | 9.1hPa | 2.5V | 00:00:00 | 00:00:00 | 00:00:00 | |
| OE5DRO-10 | 2026-09-01 00:41:05 | 47.59806 | 19.84262 | 53° | 31km/h | 32136m | 8.0m/s | -41.8°C | 2.6% | 9.1hPa | 2.5V | 00:00:00 | 00:00:00 | 00:00:00 | |
| SQ9EZE-16 | 2026-09-01 00:40:52 | 47.59771 | 19.84147 | 80° | 33km/h | 32051m | 7.7m/s | -41.9°C | 0% | 0hPa | 2.5V | 00:00:00 | 00:00:00 | 00:00:00 | |
| PETON7-10 | 2026-09-01 00:40:51 | 47.59767 | 19.84125 | 67° | 27km/h | 32038m | 7.3m/s | -41.8°C | 2.5% | 9.3hPa | 2.5V | 00:00:00 | 00:00:00 | 00:00:00 | |
| OE5DRO-10 | 2026-09-01 00:40:45 | 47.59736 | 19.84063 | 73° | 24km/h | 31990m | 7.3m/s | -41.7°C | 2.6% | 9.4hPa | 2.5V | 00:00:00 | 00:00:00 | 00:00:00 | |
| PETON7-10 | 2026-09-01 00:40:36 | 47.59728 | 19.83989 | 58° | 20km/h | 31918m | 7.0m/s | -41.9°C | 2.6% | 9.4hPa | 2.5V | 00:00:00 | 01:45:42 | 00:00:00 | |
| OE5DRO-10 | 2026-09-01 00:40:26 | 47.59701 | 19.83924 | 147° | 13km/h | 31837m | 7.6m/s | -41.7°C | 2.6% | 9.6hPa | 2.5V | 00:00:00 | 00:00:00 | 00:00:00 | |
| PETON7-10 | 2026-09-01 00:40:21 | 47.59710 | 19.83908 | 78° | 13km/h | 31796m | 8.7m/s | -41.8°C | 2.6% | 9.6hPa | 2.5V | 00:00:00 | 00:00:00 | 00:00:00 | |
| SQ9EZE-16 | 2026-09-01 00:40:14 | 47.59697 | 19.83887 | 88° | 16km/h | 31745m | 7.8m/s | -41.9°C | 0% | 0hPa | 2.6V | 00:00:00 | 00:00:00 | 00:00:00 | |
| OE5DRO-10 | 2026-09-01 00:40:07 | 47.59708 | 19.83856 | 111° | 16km/h | 31680m | 7.2m/s | -41.8°C | 2.6% | 9.8hPa | 2.6V | 00:00:00 | 00:00:00 | 00:00:00 | |
| PETON7-10 | 2026-09-01 00:40:06 | 47.59708 | 19.83853 | 105° | 15km/h | 31672m | 8.6m/s | -41.9°C | 2.6% | 9.8hPa | 2.6V | 00:00:00 | 00:00:00 | 00:00:00 | |
| SQ9EZE-16 | 2026-09-01 00:39:58 | 47.59721 | 19.83825 | 129° | 22km/h | 31618m | 7.1m/s | -42.0°C | 0% | 0hPa | 2.6V | 00:00:00 | 00:00:00 | 00:00:00 | |
| PETON7-10 | 2026-09-01 00:39:51 | 47.59755 | 19.83809 | 165° | 26km/h | 31553m | 8.0m/s | -42.0°C | 2.7% | 10.0hPa | 2.6V | 00:00:00 | 01:44:57 | 00:00:00 | |
| LZ4TU-5 | 2026-09-01 00:39:50 | 47.59755 | 19.83809 | 166° | 20km/h | 31553m | 8.1m/s | -42.1°C | 0% | 10.0hPa | 2.6V | 00:00:00 | 00:00:00 | 00:00:00 | |
| OE5DRO-10 | 2026-09-01 00:39:48 | 47.59767 | 19.83798 | 129° | 26km/h | 31530m | 7.6m/s | -41.9°C | 2.6% | 10.0hPa | 2.6V | 00:00:00 | 00:00:00 | 00:00:00 | |
| LZ4TU-5 | 2026-09-01 00:39:46 | 47.59770 | 19.83791 | 126° | 26km/h | 31522m | 9.0m/s | -41.9°C | 0% | 10.1hPa | 2.6V | 00:00:00 | 00:00:00 | 00:00:00 | |
| SQ9EZE-16 | 2026-09-01 00:39:36 | 47.59832 | 19.83765 | 158° | 27km/h | 31448m | 6.5m/s | -41.7°C | 0% | 0hPa | 2.6V | 00:00:00 | 00:00:00 | 00:00:00 | |
| PETON7-10 | 2026-09-01 00:39:35 | 47.59841 | 19.83756 | 124° | 27km/h | 31431m | 8.6m/s | -41.6°C | 2.6% | 10.1hPa | 2.6V | 00:00:00 | 00:00:00 | 08:30:00 | |
| OE5DRO-10 | 2026-09-01 00:39:29 | 47.59860 | 19.83709 | 146° | 27km/h | 31386m | 8.0m/s | -41.5°C | 2.6% | 10.2hPa | 2.6V | 00:00:00 | 00:00:00 | 08:30:00 | |
| PETON7-10 | 2026-09-01 00:39:20 | 47.59902 | 19.83646 | 89° | 26km/h | 31323m | 8.7m/s | -41.4°C | 2.6% | 10.3hPa | 2.6V | 00:00:00 | 00:00:00 | 00:00:00 | |
| OE5DRO-10 | 2026-09-01 00:39:10 | 47.59938 | 19.83574 | 119° | 35km/h | 31252m | 7.8m/s | -41.4°C | 2.6% | 10.4hPa | 2.6V | 00:00:00 | 00:00:00 | 00:00:00 | |
| PETON7-10 | 2026-09-01 00:39:05 | 47.59948 | 19.83524 | 88° | 37km/h | 31215m | 6.9m/s | -41.3°C | 2.6% | 10.5hPa | 2.6V | 00:00:00 | 01:44:11 | 00:00:00 | |
| GYPAP8-17 | 2026-09-01 00:38:53 | 47.59991 | 19.83390 | 125° | 33km/h | 31142m | 7.1m/s | -41.2°C | 0.7% | 10.6hPa | 2.6V | 00:00:00 | 00:00:00 | 00:00:00 | |
| OE5DRO-10 | 2026-09-01 00:38:51 | 47.60007 | 19.83362 | 131° | 37km/h | 31122m | 5.6m/s | -41.0°C | 2.5% | 10.6hPa | 2.6V | 00:00:00 | 00:00:00 | 00:00:00 | |
| PETON7-10 | 2026-09-01 00:38:50 | 47.60011 | 19.83354 | 127° | 37km/h | 31116m | 6.3m/s | -41.0°C | 2.6% | 10.6hPa | 2.6V | 00:00:00 | 00:00:00 | 00:00:00 | |
| PETON7-10 | 2026-09-01 00:38:35 | 47.60103 | 19.83196 | 107° | 38km/h | 31021m | 6.3m/s | -40.6°C | 2.5% | 10.8hPa | 2.6V | 00:00:00 | 00:00:00 | 00:00:00 | |
| OE5DRO-10 | 2026-09-01 00:38:32 | 47.60113 | 19.83162 | 126° | 38km/h | 31001m | 5.1m/s | -40.6°C | 2.4% | 10.8hPa | 2.6V | 00:00:00 | 00:00:00 | 00:00:00 | |
| PETON7-10 | 2026-09-01 00:38:20 | 47.60173 | 19.83021 | 106° | 35km/h | 30921m | 7.4m/s | -40.9°C | 2.4% | 11.0hPa | 2.6V | 00:00:00 | 01:43:26 | 00:00:00 | |
| OE5DRO-10 | 2026-09-01 00:38:13 | 47.60201 | 19.82930 | 110° | 33km/h | 30878m | 5.3m/s | -41.5°C | 2.5% | 11.0hPa | 2.6V | 00:00:00 | 00:00:00 | 00:00:00 | |
| PETON7-10 | 2026-09-01 00:38:05 | 47.60214 | 19.82837 | 109° | 31km/h | 30824m | 7.1m/s | -41.6°C | 2.6% | 11.1hPa | 2.6V | 00:00:00 | 00:00:00 | 00:00:00 | |
| OE5DXL-15 | 2026-09-01 00:38:03 | 47.60227 | 19.82797 | 119° | 33km/h | 30797m | 8.2m/s | 0°C | 0% | 0hPa | 2.6V | 00:00:00 | 00:00:00 | 00:00:00 | |
| OE5DRO-10 | 2026-09-01 00:37:54 | 47.60242 | 19.82702 | 96° | 33km/h | 30745m | 6.8m/s | -41.8°C | 2.6% | 11.2hPa | 2.6V | 00:00:00 | 00:00:00 | 00:00:00 | |
| LZ4TU-5 | 2026-09-01 00:37:52 | 47.60242 | 19.82702 | 97° | 27km/h | 30745m | 6.9m/s | -41.9°C | 0% | 11.3hPa | 2.6V | 00:00:00 | 00:00:00 | 00:00:00 | |
| PETON7-10 | 2026-09-01 00:37:50 | 47.60245 | 19.82669 | 98° | 33km/h | 30726m | 7.3m/s | -42.0°C | 2.6% | 11.3hPa | 2.6V | 00:00:00 | 00:00:00 | 00:00:00 | |
| LZ4TU-5 | 2026-09-01 00:37:48 | 47.60245 | 19.82659 | 90° | 27km/h | 30719m | 7.1m/s | -42.1°C | 0% | 11.3hPa | 2.6V | 00:00:00 | 00:00:00 | 00:00:00 | |
| GYPAP8-17 | 2026-09-01 00:37:43 | 47.60242 | 19.82592 | 90° | 46km/h | 30686m | 4.9m/s | -42.0°C | 0.7% | 11.4hPa | 2.6V | 00:00:00 | 00:00:00 | 00:00:00 | |
| PETON7-10 | 2026-09-01 00:37:35 | 47.60219 | 19.82482 | 73° | 26km/h | 30627m | 6.8m/s | -41.6°C | 2.7% | 11.4hPa | 2.6V | 00:00:00 | 01:42:41 | 00:00:00 | |
| OE5DXL-15 | 2026-09-01 00:37:32 | 47.60207 | 19.82431 | 79° | 31km/h | 30592m | 7.0m/s | 0°C | 0% | 0hPa | 2.6V | 00:00:00 | 01:42:36 | 00:00:00 | |
| PETON7-10 | 2026-09-01 00:37:20 | 47.60197 | 19.82344 | 45° | 22km/h | 30525m | 7.4m/s | -41.6°C | 2.6% | 11.6hPa | 2.6V | 00:00:00 | 00:00:00 | 08:30:00 | |
| OE5DRO-10 | 2026-09-01 00:37:16 | 47.60186 | 19.82320 | 58° | 24km/h | 30498m | 8.8m/s | -41.5°C | 2.6% | 11.7hPa | 2.6V | 00:00:00 | 00:00:00 | 00:00:00 | |
| PETON7-10 | 2026-09-01 00:37:05 | 47.60155 | 19.82242 | 13° | 16km/h | 30424m | 6.3m/s | -41.3°C | 2.5% | 11.8hPa | 2.6V | 00:00:00 | 00:00:00 | 00:00:00 | |
| OE5DRO-10 | 2026-09-01 00:36:57 | 47.60121 | 19.82197 | 51° | 15km/h | 30371m | 6.9m/s | -41.5°C | 2.6% | 11.9hPa | 2.6V | 00:00:00 | 00:00:00 | 00:00:00 | |
| PETON7-10 | 2026-09-01 00:36:50 | 47.60116 | 19.82166 | 70° | 13km/h | 30321m | 5.6m/s | -41.3°C | 2.5% | 12.0hPa | 2.6V | 00:00:00 | 01:41:56 | 00:00:00 | |
| OE5DRO-10 | 2026-09-01 00:36:38 | 47.60090 | 19.82115 | 73° | 11km/h | 30235m | 7.9m/s | -41.3°C | 2.5% | 12.1hPa | 2.6V | 00:00:00 | 00:00:00 | 08:30:00 | |
| PETON7-10 | 2026-09-01 00:36:35 | 47.60090 | 19.82111 | 107° | 11km/h | 30215m | 8.2m/s | -41.4°C | 2.5% | 12.2hPa | 2.6V | 00:00:00 | 00:00:00 | 00:00:00 | |
| DO3MHA-12 | 2026-09-01 00:36:34 | 47.60091 | 19.82107 | 101° | 13km/h | 30206m | 7.7m/s | 0°C | 0% | 0hPa | 2.6V | 00:00:00 | 01:41:40 | 00:00:00 | |
| GYPAP8-17 | 2026-09-01 00:36:29 | 47.60088 | 19.82086 | 37° | 13km/h | 30178m | 7.9m/s | -41.5°C | 0.6% | 12.3hPa | 2.6V | 00:00:00 | 00:00:00 | 00:00:00 | |
| DO3MHA-12 | 2026-09-01 00:36:24 | 47.60072 | 19.82073 | 59° | 7km/h | 30135m | 7.6m/s | 0°C | 0% | 0hPa | 2.6V | 00:00:00 | 01:41:30 | 00:00:00 | |
| PETON7-10 | 2026-09-01 00:36:20 | 47.60067 | 19.82067 | 36° | 9km/h | 30107m | 7.1m/s | -42.1°C | 2.6% | 12.4hPa | 2.6V | 00:00:00 | 00:00:00 | 00:00:00 | |
| OE5DRO-10 | 2026-09-01 00:36:19 | 47.60065 | 19.82064 | 68° | 7km/h | 30099m | 7.4m/s | -42.2°C | 2.6% | 12.4hPa | 2.6V | 00:00:00 | 00:00:00 | 00:00:00 | |
| DO3MHA-12 | 2026-09-01 00:36:14 | 47.60063 | 19.82054 | 2° | 9km/h | 30062m | 8.1m/s | 0°C | 0% | 0hPa | 2.6V | 00:00:00 | 01:41:20 | 00:00:00 | |
| PETON7-10 | 2026-09-01 00:36:05 | 47.60045 | 19.82046 | 71° | 9km/h | 29994m | 8.6m/s | -43.1°C | 2.7% | 12.6hPa | 2.6V | 00:00:00 | 01:41:11 | 00:00:00 | |
| OE5DRO-10 | 2026-09-01 00:36:00 | 47.60047 | 19.82033 | 77° | 9km/h | 29947m | 8.3m/s | -43.3°C | 2.7% | 12.7hPa | 2.6V | 00:00:00 | 00:00:00 | 00:00:00 | |
| LZ4TU-5 | 2026-09-01 00:35:58 | 47.60047 | 19.82033 | 77° | 11km/h | 29947m | 8.3m/s | -43.3°C | 0% | 12.7hPa | 2.6V | 00:00:00 | 00:00:00 | 00:00:00 | |
| LZ4TU-5 | 2026-09-01 00:35:54 | 47.60043 | 19.82019 | 27° | 9km/h | 29915m | 8.4m/s | -43.6°C | 0% | 12.8hPa | 2.6V | 00:00:00 | 00:00:00 | 00:00:00 | |
| PETON7-10 | 2026-09-01 00:35:50 | 47.60036 | 19.82011 | 163° | 9km/h | 29874m | 7.1m/s | -43.6°C | 2.9% | 12.8hPa | 2.6V | 00:00:00 | 00:00:00 | 00:00:00 | |
| OE5DRO-10 | 2026-09-01 00:35:41 | 47.60038 | 19.81982 | 23° | 11km/h | 29792m | 8.1m/s | -43.7°C | 2.8% | 13.0hPa | 2.6V | 00:00:00 | 00:00:00 | 00:00:00 | |
| PETON7-10 | 2026-09-01 00:35:35 | 47.60036 | 19.81971 | 144° | 15km/h | 29754m | 7.2m/s | -43.7°C | 2.8% | 13.0hPa | 2.6V | 00:00:00 | 00:00:00 | 00:00:00 | |
| OE3JTB-15 | 2026-09-01 00:35:23 | 47.60019 | 19.81933 | 355° | 15km/h | 29657m | 7.7m/s | -43.8°C | 2.8% | 13.2hPa | 2.6V | 00:00:00 | 01:40:29 | 00:00:00 | |
| OE5DRO-10 | 2026-09-01 00:35:22 | 47.60013 | 19.81933 | 42° | 18km/h | 29633m | 8.2m/s | -43.7°C | 2.8% | 13.3hPa | 2.6V | 00:00:00 | 00:00:00 | 00:00:00 | |
| PETON7-10 | 2026-09-01 00:35:20 | 47.60013 | 19.81933 | 42° | 18km/h | 29633m | 8.2m/s | -43.7°C | 2.8% | 13.3hPa | 2.6V | 00:00:00 | 01:40:26 | 00:00:00 | |
| PETON7-10 | 2026-09-01 00:35:05 | 47.59960 | 19.81897 | 68° | 16km/h | 29517m | 8.3m/s | -44.0°C | 2.8% | 13.5hPa | 2.6V | 00:00:00 | 00:00:00 | 08:30:00 | |
| OE5DRO-10 | 2026-09-01 00:35:00 | 47.59945 | 19.81865 | 12° | 11km/h | 29463m | 5.5m/s | -44.1°C | 2.9% | 13.6hPa | 2.6V | 00:00:00 | 00:00:00 | 00:00:00 | |
| OE3JTB-15 | 2026-09-01 00:34:55 | 47.59925 | 19.81875 | 240° | 9km/h | 29416m | 10.4m/s | -44.3°C | 2.9% | 13.7hPa | 2.6V | 00:00:00 | 00:00:00 | 00:00:00 | |
| PETON7-10 | 2026-09-01 00:34:50 | 47.59927 | 19.81874 | 128° | 11km/h | 29402m | 5.5m/s | -44.4°C | 2.9% | 13.7hPa | 2.6V | 00:00:00 | 00:00:00 | 00:00:00 | |
| OE5DRO-10 | 2026-09-01 00:34:41 | 47.59916 | 19.81878 | 261° | 7km/h | 29327m | 10.9m/s | -44.6°C | 2.9% | 13.9hPa | 2.6V | 00:00:00 | 00:00:00 | 00:00:00 | |
| SQ9EZE-15 | 2026-09-01 00:34:39 | 47.59916 | 19.81878 | 262° | 7km/h | 29327m | 11.0m/s | -44.6°C | 0.8% | 14.0hPa | 2.6V | 00:00:00 | 00:00:00 | 00:00:00 | |
| PETON7-10 | 2026-09-01 00:34:35 | 47.59925 | 19.81901 | 214° | 7km/h | 29289m | 6.8m/s | -44.8°C | 2.9% | 14.0hPa | 2.6V | 00:00:00 | 01:39:41 | 00:00:00 | |
| OE5DRO-10 | 2026-09-01 00:34:21 | 47.59912 | 19.81912 | 72° | 11km/h | 29188m | 5.4m/s | -45.5°C | 3.1% | 14.2hPa | 2.6V | 00:00:00 | 00:00:00 | 00:00:00 | |
| PETON7-10 | 2026-09-01 00:34:20 | 47.59911 | 19.81907 | 73° | 13km/h | 29182m | 6.6m/s | -45.6°C | 3.1% | 14.2hPa | 2.6V | 00:00:00 | 00:00:00 | 00:00:00 | |
| PETON7-10 | 2026-09-01 00:34:05 | 47.59884 | 19.81862 | 55° | 9km/h | 29075m | 5.4m/s | -45.4°C | 3.0% | 14.4hPa | 2.6V | 00:00:00 | 00:00:00 | 00:00:00 | |
| LZ4TU-5 | 2026-09-01 00:34:03 | 47.59883 | 19.81858 | 60° | 11km/h | 29068m | 8.4m/s | -45.6°C | 0% | 14.5hPa | 2.6V | 00:00:00 | 00:00:00 | 00:00:00 | |
| OE5DRO-10 | 2026-09-01 00:34:02 | 47.59883 | 19.81855 | 180° | 9km/h | 29053m | 6.3m/s | -45.6°C | 3.0% | 14.5hPa | 2.6V | 00:00:00 | 00:00:00 | 00:00:00 | |
| GYPAP8-17 | 2026-09-01 00:33:56 | 47.59890 | 19.81857 | 251° | 9km/h | 29018m | 8.5m/s | -45.8°C | 0.8% | 14.6hPa | 2.6V | 00:00:00 | 00:00:00 | 00:00:00 | |
| OE3JTB-15 | 2026-09-01 00:33:52 | 47.59877 | 19.81871 | 337° | 11km/h | 28971m | 6.9m/s | -45.9°C | 3.1% | 14.7hPa | 2.6V | 00:00:00 | 01:38:56 | 00:00:00 | |
| PETON7-10 | 2026-09-01 00:33:50 | 47.59877 | 19.81871 | 337° | 9km/h | 28971m | 6.9m/s | -45.9°C | 3.1% | 14.7hPa | 2.6V | 00:00:00 | 01:38:56 | 00:00:00 | |
| OE5DRO-10 | 2026-09-01 00:33:43 | 47.59889 | 19.81866 | 193° | 13km/h | 28918m | 4.2m/s | -46.0°C | 3.1% | 14.8hPa | 2.6V | 00:00:00 | 00:00:00 | 08:30:00 | |
| PETON7-10 | 2026-09-01 00:33:35 | 47.59895 | 19.81844 | 48° | 13km/h | 28871m | 4.9m/s | -46.1°C | 3.1% | 14.9hPa | 2.6V | 00:00:00 | 00:00:00 | 00:00:00 | |
| OE5DRO-10 | 2026-09-01 00:33:24 | 47.59882 | 19.81796 | 91° | 13km/h | 28795m | 6.0m/s | -46.5°C | 3.2% | 15.1hPa | 2.6V | 00:00:00 | 00:00:00 | 00:00:00 | |
| OE3JTB-15 | 2026-09-01 00:33:23 | 47.59882 | 19.81784 | 80° | 13km/h | 28782m | 5.6m/s | -46.5°C | 3.2% | 15.1hPa | 2.6V | 00:00:00 | 00:00:00 | 00:00:00 | |
| PETON7-10 | 2026-09-01 00:33:20 | 47.59881 | 19.81779 | 74° | 13km/h | 28776m | 6.9m/s | -46.5°C | 3.2% | 15.1hPa | 2.6V | 00:00:00 | 00:00:00 | 00:00:00 | |
| PETON7-10 | 2026-09-01 00:33:04 | 47.59866 | 19.81731 | 122° | 13km/h | 28667m | 6.2m/s | -46.6°C | 3.1% | 15.4hPa | 2.6V | 00:00:00 | 01:38:10 | 00:00:00 | |
| GYPAP8-17 | 2026-09-01 00:32:53 | 47.59859 | 19.81721 | 81° | 18km/h | 28601m | 4.7m/s | -46.9°C | 0.8% | 15.6hPa | 2.6V | 00:00:00 | 00:00:00 | 00:00:00 | |
| SQ9EZE-15 | 2026-09-01 00:32:50 | 47.59863 | 19.81701 | 139° | 20km/h | 28582m | 6.2m/s | -47.0°C | 0.9% | 15.6hPa | 2.6V | 00:00:00 | 00:00:00 | 00:00:00 | |
| PETON7-10 | 2026-09-01 00:32:49 | 47.59874 | 19.81696 | 183° | 16km/h | 28570m | 6.8m/s | -47.1°C | 3.2% | 15.6hPa | 2.6V | 00:00:00 | 00:00:00 | 08:30:00 | |
| OE5DRO-10 | 2026-09-01 00:32:45 | 47.59892 | 19.81717 | 100° | 15km/h | 28530m | 5.2m/s | -47.3°C | 3.3% | 15.7hPa | 2.6V | 00:00:00 | 00:00:00 | 00:00:00 | |
| PETON7-10 | 2026-09-01 00:32:34 | 47.59918 | 19.81691 | 185° | 15km/h | 28472m | 6.6m/s | -47.6°C | 3.3% | 15.8hPa | 2.7V | 00:00:00 | 00:00:00 | 00:00:00 | |
| OE5DRO-10 | 2026-09-01 00:32:27 | 47.59923 | 19.81648 | 73° | 11km/h | 28407m | 4.4m/s | -48.0°C | 3.3% | 16.0hPa | 2.7V | 00:00:00 | 00:00:00 | 00:00:00 | |
| PETON7-10 | 2026-09-01 00:32:19 | 47.59928 | 19.81643 | 234° | 11km/h | 28375m | 7.2m/s | -48.2°C | 3.4% | 16.1hPa | 2.7V | 00:00:00 | 01:37:25 | 00:00:00 | |
| LZ4TU-5 | 2026-09-01 00:32:09 | 47.59909 | 19.81618 | 49° | 15km/h | 28314m | 5.6m/s | -48.5°C | 0% | 16.3hPa | 2.7V | 00:00:00 | 00:00:00 | 00:00:00 | |
| LZ4TU-5 | 2026-09-01 00:32:05 | 47.59908 | 19.81603 | 105° | 9km/h | 28288m | 6.1m/s | -48.5°C | 0% | 16.4hPa | 2.7V | 00:00:00 | 00:00:00 | 00:00:00 | |
| PETON7-10 | 2026-09-01 00:32:03 | 47.59905 | 19.81596 | 27° | 7km/h | 28268m | 5.6m/s | -48.5°C | 3.5% | 16.3hPa | 2.7V | 00:00:00 | 00:00:00 | 00:00:00 | |
| OE3JTB-15 | 2026-09-01 00:31:48 | 47.59922 | 19.81577 | 186° | 11km/h | 28155m | 4.4m/s | -48.6°C | 3.5% | 16.6hPa | 2.6V | 00:00:00 | 00:00:00 | 08:30:00 | |
| OE5DRO-10 | 2026-09-01 00:31:46 | 47.59923 | 19.81579 | 282° | 15km/h | 28143m | 8.2m/s | -48.6°C | 3.5% | 16.6hPa | 2.7V | 00:00:00 | 00:00:00 | 00:00:00 | |
| GYPAP8-17 | 2026-09-01 00:31:38 | 47.59925 | 19.81576 | 154° | 16km/h | 28111m | 5.9m/s | -48.8°C | 1.0% | 16.8hPa | 2.6V | 00:00:00 | 00:00:00 | 00:00:00 | |
| PETON7-10 | 2026-09-01 00:31:33 | 47.59948 | 19.81565 | 153° | 13km/h | 28070m | 6.9m/s | -48.8°C | 3.6% | 16.8hPa | 2.6V | 00:00:00 | 01:36:39 | 00:00:00 | |
| OE5DRO-10 | 2026-09-01 00:31:25 | 47.59976 | 19.81533 | 137° | 11km/h | 28005m | 7.4m/s | -49.0°C | 3.6% | 17.0hPa | 2.6V | 00:00:00 | 00:00:00 | 00:00:00 | |
| PETON7-10 | 2026-09-01 00:31:18 | 47.59988 | 19.81531 | 182° | 13km/h | 27971m | 6.3m/s | -48.9°C | 3.6% | 17.1hPa | 2.6V | 00:00:00 | 00:00:00 | 00:00:00 | |
| OE5DRO-10 | 2026-09-01 00:31:06 | 47.60023 | 19.81500 | 117° | 7km/h | 27871m | 6.9m/s | -49.1°C | 3.6% | 17.4hPa | 2.6V | 00:00:00 | 00:00:00 | 00:00:00 | |
| PETON7-10 | 2026-09-01 00:31:03 | 47.60023 | 19.81500 | 117° | 7km/h | 27871m | 6.9m/s | -49.1°C | 3.6% | 17.4hPa | 2.6V | 00:00:00 | 00:00:00 | 00:00:00 | |
| OE3JTB-15 | 2026-09-01 00:30:50 | 47.60019 | 19.81460 | 44° | 9km/h | 27761m | 6.8m/s | -49.3°C | 3.7% | 17.6hPa | 2.6V | 00:00:00 | 01:35:54 | 00:00:00 | |
| PETON7-10 | 2026-09-01 00:30:48 | 47.60019 | 19.81460 | 44° | 7km/h | 27761m | 6.8m/s | -49.3°C | 3.7% | 17.6hPa | 2.6V | 00:00:00 | 01:35:54 | 00:00:00 | |
| SQ9EZE-15 | 2026-09-01 00:30:38 | 47.60003 | 19.81467 | 180° | 2km/h | 27696m | 7.3m/s | -49.3°C | 1.0% | 17.9hPa | 2.6V | 00:00:00 | 00:00:00 | 00:00:00 | |
| GYPAP8-17 | 2026-09-01 00:30:34 | 47.60003 | 19.81462 | 49° | 7km/h | 27666m | 7.0m/s | -49.2°C | 1.0% | 18.0hPa | 2.6V | 00:00:00 | 00:00:00 | 00:00:00 | |
| PETON7-10 | 2026-09-01 00:30:33 | 47.60000 | 19.81461 | 316° | 11km/h | 27652m | 6.4m/s | -49.2°C | 3.7% | 17.9hPa | 2.6V | 00:00:00 | 00:00:00 | 08:30:00 | |
| OE5DRO-10 | 2026-09-01 00:30:23 | 47.59995 | 19.81511 | 84° | 13km/h | 27565m | 6.3m/s | -49.3°C | 3.7% | 18.2hPa | 2.6V | 00:00:00 | 00:00:00 | 08:30:00 | |
| OE3JTB-15 | 2026-09-01 00:30:21 | 47.59995 | 19.81512 | 299° | 15km/h | 27549m | 7.0m/s | -49.3°C | 3.7% | 18.2hPa | 2.6V | 00:00:00 | 00:00:00 | 00:00:00 | |
| PETON7-10 | 2026-09-01 00:30:18 | 47.59993 | 19.81516 | 304° | 15km/h | 27543m | 5.3m/s | -49.3°C | 3.7% | 18.2hPa | 2.7V | 00:00:00 | 00:00:00 | 00:00:00 | |
| LZ4TU-5 | 2026-09-01 00:30:17 | 47.59987 | 19.81527 | 313° | 18km/h | 27528m | 9.4m/s | -49.3°C | 0% | 18.4hPa | 2.7V | 00:00:00 | 00:00:00 | 00:00:00 | |
| LZ4TU-5 | 2026-09-01 00:30:10 | 47.59976 | 19.81562 | 274° | 18km/h | 27494m | 5.6m/s | -49.3°C | 0% | 18.4hPa | 2.7V | 00:00:00 | 00:00:00 | 00:00:00 | |
| OE5DRO-10 | 2026-09-01 00:30:04 | 47.59984 | 19.81588 | 272° | 16km/h | 27428m | 6.4m/s | -49.1°C | 3.7% | 18.6hPa | 2.7V | 00:00:00 | 00:00:00 | 00:00:00 | |
| OE3JTB-15 | 2026-09-01 00:29:51 | 47.59993 | 19.81624 | 202° | 9km/h | 27340m | 5.0m/s | -49.1°C | 3.7% | 18.8hPa | 2.7V | 00:00:00 | 00:00:00 | 00:00:00 | |
| PETON7-10 | 2026-09-01 00:29:48 | 47.59993 | 19.81625 | 259° | 9km/h | 27334m | 7.1m/s | -49.1°C | 3.7% | 18.8hPa | 2.7V | 00:00:00 | 00:00:00 | 00:00:00 | |
| OE5DRO-10 | 2026-09-01 00:29:45 | 47.59984 | 19.81639 | 329° | 9km/h | 27297m | 8.7m/s | -49.2°C | 3.7% | 19.0hPa | 2.6V | 00:00:00 | 00:00:00 | 00:00:00 | |
| GYPAP8-17 | 2026-09-01 00:29:32 | 47.59994 | 19.81618 | 75° | 9km/h | 27219m | 6.3m/s | -49.0°C | 1.0% | 19.2hPa | 2.6V | 00:00:00 | 00:00:00 | 00:00:00 | |
| OE5DRO-10 | 2026-09-01 00:29:27 | 47.59980 | 19.81603 | 32° | 11km/h | 27170m | 7.1m/s | -48.9°C | 3.5% | 19.3hPa | 2.6V | 00:00:00 | 00:00:00 | 00:00:00 | |
| OE3JTB-15 | 2026-09-01 00:29:22 | 47.59978 | 19.81589 | 86° | 18km/h | 27132m | 6.4m/s | -49.0°C | 3.6% | 19.4hPa | 2.6V | 00:00:00 | 01:34:26 | 00:00:00 | |
| PETON7-10 | 2026-09-01 00:29:18 | 47.59978 | 19.81580 | 84° | 15km/h | 27118m | 7.9m/s | -49.2°C | 3.6% | 19.5hPa | 2.6V | 00:00:00 | 01:34:24 | 00:00:00 | |
| OE5DRO-10 | 2026-09-01 00:29:07 | 47.59948 | 19.81534 | 61° | 11km/h | 27034m | 7.1m/s | -49.4°C | 3.7% | 19.7hPa | 2.6V | 00:00:00 | 00:00:00 | 00:00:00 | |
| PETON7-10 | 2026-09-01 00:29:03 | 47.59943 | 19.81519 | 52° | 24km/h | 27015m | 4.9m/s | -49.4°C | 3.7% | 19.8hPa | 2.6V | 00:00:00 | 00:00:00 | 00:00:00 | |
| OE3JTB-15 | 2026-09-01 00:28:51 | 47.59862 | 19.81522 | 39° | 7km/h | 26918m | 4.4m/s | -49.3°C | 3.7% | 20.1hPa | 2.6V | 00:00:00 | 00:00:00 | 00:00:00 | |
| PETON7-10 | 2026-09-01 00:28:48 | 47.59860 | 19.81520 | 32° | 13km/h | 26914m | 5.4m/s | -49.3°C | 3.7% | 20.1hPa | 2.7V | 00:00:00 | 00:00:00 | 00:00:00 | |
| PETON7-10 | 2026-09-01 00:28:33 | 47.59819 | 19.81516 | 22° | 7km/h | 26814m | 7.9m/s | -49.3°C | 3.7% | 20.4hPa | 2.7V | 00:00:00 | 01:33:39 | 00:00:00 | |
| GYPAP8-17 | 2026-09-01 00:28:27 | 47.59808 | 19.81509 | 348° | 2km/h | 26782m | 4.7m/s | -49.2°C | 1.0% | 20.6hPa | 2.7V | 00:00:00 | 00:00:00 | 00:00:00 | |
| LZ4TU-5 | 2026-09-01 00:28:22 | 47.59805 | 19.81514 | 279° | 7km/h | 26751m | 7.2m/s | -49.3°C | 0% | 20.6hPa | 2.7V | 00:00:00 | 00:00:00 | 00:00:00 | |
| OE3JTB-15 | 2026-09-01 00:28:21 | 47.59805 | 19.81515 | 90° | 7km/h | 26738m | 4.9m/s | -49.4°C | 3.6% | 20.7hPa | 2.7V | 00:00:00 | 00:00:00 | 00:00:00 | |
| PETON7-10 | 2026-09-01 00:28:18 | 47.59799 | 19.81507 | 29° | 7km/h | 26717m | 5.7m/s | -49.7°C | 3.8% | 20.7hPa | 2.7V | 00:00:00 | 00:00:00 | 08:30:00 | |
| LZ4TU-5 | 2026-09-01 00:28:17 | 47.59799 | 19.81507 | 29° | 15km/h | 26717m | 5.7m/s | -49.8°C | 0% | 20.8hPa | 2.6V | 00:00:00 | 00:00:00 | 00:00:00 | |
| OE5DRO-10 | 2026-09-01 00:28:14 | 47.59788 | 19.81495 | 49° | 7km/h | 26691m | 6.2m/s | -49.7°C | 3.7% | 20.8hPa | 2.6V | 00:00:00 | 00:00:00 | 00:00:00 | |
| PETON7-10 | 2026-09-01 00:28:03 | 47.59777 | 19.81478 | 72° | 9km/h | 26615m | 7.6m/s | -50.1°C | 3.8% | 21.0hPa | 2.6V | 00:00:00 | 00:00:00 | 00:00:00 | |
| OE5DRO-10 | 2026-09-01 00:27:55 | 47.59762 | 19.81476 | 3° | 9km/h | 26562m | 6.5m/s | -50.2°C | 3.8% | 21.2hPa | 2.6V | 00:00:00 | 00:00:00 | 00:00:00 | |
| OE3JTB-15 | 2026-09-01 00:27:52 | 47.59762 | 19.81474 | 138° | 15km/h | 26542m | 6.1m/s | -50.3°C | 3.9% | 21.3hPa | 2.6V | 00:00:00 | 01:32:58 | 00:00:00 | |
| PETON7-10 | 2026-09-01 00:27:48 | 47.59769 | 19.81455 | 117° | 13km/h | 26514m | 7.1m/s | -50.3°C | 3.9% | 21.4hPa | 2.6V | 00:00:00 | 01:32:54 | 00:00:00 | |
| OE5DRO-10 | 2026-09-01 00:27:36 | 47.59790 | 19.81435 | 130° | 22km/h | 26435m | 7.4m/s | -50.4°C | 3.9% | 21.6hPa | 2.6V | 00:00:00 | 00:00:00 | 00:00:00 | |
| PETON7-10 | 2026-09-01 00:27:33 | 47.59801 | 19.81415 | 124° | 22km/h | 26413m | 6.1m/s | -50.6°C | 4.0% | 21.7hPa | 2.6V | 00:00:00 | 00:00:00 | 00:00:00 | |
| GYPAP8-17 | 2026-09-01 00:27:28 | 47.59809 | 19.81388 | 123° | 18km/h | 26387m | 7.8m/s | -50.5°C | 1.1% | 21.8hPa | 2.6V | 00:00:00 | 00:00:00 | 00:00:00 | |
| OE3JTB-15 | 2026-09-01 00:27:23 | 47.59832 | 19.81353 | 123° | 15km/h | 26347m | 6.8m/s | -50.3°C | 3.9% | 21.9hPa | 2.6V | 00:00:00 | 00:00:00 | 08:30:00 | |
| PETON7-10 | 2026-09-01 00:27:18 | 47.59845 | 19.81315 | 104° | 11km/h | 26314m | 6.6m/s | -50.4°C | 3.9% | 22.0hPa | 2.6V | 00:00:00 | 00:00:00 | 00:00:00 | |
| OE5DRO-10 | 2026-09-01 00:27:17 | 47.59846 | 19.81311 | 104° | 11km/h | 26307m | 7.5m/s | -50.4°C | 3.9% | 22.1hPa | 2.6V | 00:00:00 | 00:00:00 | 08:30:00 | |
| PETON7-10 | 2026-09-01 00:27:03 | 47.59871 | 19.81274 | 138° | 18km/h | 26212m | 6.7m/s | -50.4°C | 3.9% | 22.4hPa | 2.6V | 00:00:00 | 01:32:09 | 00:00:00 | |
| OE5DRO-10 | 2026-09-01 00:26:58 | 47.59880 | 19.81252 | 109° | 20km/h | 26180m | 6.8m/s | -50.4°C | 3.8% | 22.5hPa | 2.6V | 00:00:00 | 00:00:00 | 00:00:00 | |
| OE3JTB-15 | 2026-09-01 00:26:50 | 47.59893 | 19.81197 | 93° | 16km/h | 26127m | 6.9m/s | -50.8°C | 3.8% | 22.7hPa | 2.6V | 00:00:00 | 00:00:00 | 00:00:00 | |
| PETON7-10 | 2026-09-01 00:26:48 | 47.59893 | 19.81184 | 85° | 18km/h | 26115m | 6.5m/s | -50.9°C | 3.9% | 22.7hPa | 2.6V | 00:00:00 | 00:00:00 | 00:00:00 | |
| OE5DRO-10 | 2026-09-01 00:26:39 | 47.59888 | 19.81120 | 74° | 15km/h | 26057m | 6.2m/s | -51.5°C | 4.0% | 22.9hPa | 2.7V | 00:00:00 | 00:00:00 | 00:00:00 | |
| PETON7-10 | 2026-09-01 00:26:33 | 47.59885 | 19.81088 | 68° | 13km/h | 26018m | 4.9m/s | -51.8°C | 4.0% | 23.1hPa | 2.7V | 00:00:00 | 00:00:00 | 00:00:00 | |
| OE3JTB-15 | 2026-09-01 00:26:21 | 47.59871 | 19.81032 | 323° | 5km/h | 25939m | 5.4m/s | -52.5°C | 4.4% | 23.4hPa | 2.7V | 00:00:00 | 01:31:27 | 00:00:00 | |
| OE5DRO-10 | 2026-09-01 00:26:20 | 47.59870 | 19.81033 | 311° | 5km/h | 25934m | 5.6m/s | -52.4°C | 4.4% | 23.4hPa | 2.7V | 00:00:00 | 00:00:00 | 00:00:00 | |
| PETON7-10 | 2026-09-01 00:26:18 | 47.59869 | 19.81038 | 272° | 5km/h | 25920m | 5.7m/s | -52.4°C | 4.3% | 23.4hPa | 2.6V | 00:00:00 | 01:31:24 | 00:00:00 | |
| PETON7-10 | 2026-09-01 00:26:03 | 47.59870 | 19.81040 | 133° | 9km/h | 25822m | 6.6m/s | -52.3°C | 4.2% | 23.8hPa | 2.6V | 00:00:00 | 00:00:00 | 08:30:00 | |
| OE5DRO-10 | 2026-09-01 00:26:01 | 47.59871 | 19.81035 | 77° | 7km/h | 25809m | 7.1m/s | -52.4°C | 4.3% | 23.8hPa | 2.6V | 00:00:00 | 00:00:00 | 00:00:00 | |
| LZ4TU-5 | 2026-09-01 00:25:57 | 47.59869 | 19.81028 | 88° | 5km/h | 25789m | 7.0m/s | 0°C | 0% | 23.9hPa | 2.6V | 00:00:00 | 00:00:00 | 00:00:00 | |
| OE3JTB-15 | 2026-09-01 00:25:52 | 47.59878 | 19.81021 | 167° | 7km/h | 25749m | 6.4m/s | -52.7°C | 4.3% | 24.1hPa | 2.6V | 00:00:00 | 00:00:00 | 00:00:00 | |
| PETON7-10 | 2026-09-01 00:25:48 | 47.59891 | 19.81016 | 164° | 7km/h | 25722m | 6.8m/s | -52.7°C | 4.4% | 24.1hPa | 2.7V | 00:00:00 | 00:00:00 | 00:00:00 | |
| OE5DRO-10 | 2026-09-01 00:25:42 | 47.59893 | 19.81019 | 341° | 7km/h | 25683m | 7.0m/s | -52.8°C | 4.5% | 24.3hPa | 2.7V | 00:00:00 | 00:00:00 | 00:00:00 | |
| PETON7-10 | 2026-09-01 00:25:33 | 47.59894 | 19.80992 | 108° | 7km/h | 25621m | 5.0m/s | -52.7°C | 4.4% | 24.5hPa | 2.7V | 00:00:00 | 01:30:39 | 00:00:00 | |
| OE5DRO-10 | 2026-09-01 00:25:23 | 47.59893 | 19.80991 | 253° | 7km/h | 25556m | 5.9m/s | -52.6°C | 4.5% | 24.8hPa | 2.7V | 00:00:00 | 00:00:00 | 00:00:00 | |
| OE3JTB-15 | 2026-09-01 00:25:20 | 47.59897 | 19.80993 | 187° | 7km/h | 25537m | 5.0m/s | -52.5°C | 4.5% | 24.9hPa | 2.7V | 00:00:00 | 00:00:00 | 00:00:00 | |
| PETON7-10 | 2026-09-01 00:25:18 | 47.59899 | 19.80995 | 262° | 7km/h | 25525m | 6.1m/s | -52.4°C | 4.4% | 24.9hPa | 2.7V | 00:00:00 | 00:00:00 | 00:00:00 | |
| GYPAP8-17 | 2026-09-01 00:25:17 | 47.59899 | 19.80995 | 263° | 5km/h | 25525m | 6.2m/s | -52.4°C | 1.3% | 25.0hPa | 2.6V | 00:00:00 | 00:00:00 | 00:00:00 | |
| OE5DRO-10 | 2026-09-01 00:25:04 | 47.59899 | 19.81010 | 277° | 7km/h | 25428m | 6.9m/s | -52.5°C | 4.4% | 25.3hPa | 2.6V | 00:00:00 | 00:00:00 | 00:00:00 | |
| PETON7-10 | 2026-09-01 00:25:03 | 47.59899 | 19.81010 | 277° | 5km/h | 25428m | 6.9m/s | -52.5°C | 4.4% | 25.3hPa | 2.6V | 00:00:00 | 00:00:00 | 00:00:00 | |
| OE3JTB-15 | 2026-09-01 00:24:51 | 47.59892 | 19.81014 | 225° | 13km/h | 25346m | 6.6m/s | -52.6°C | 4.5% | 25.6hPa | 2.6V | 00:00:00 | 01:29:57 | 00:00:00 | |
| PETON7-10 | 2026-09-01 00:24:48 | 47.59889 | 19.81021 | 323° | 11km/h | 25326m | 6.9m/s | -52.4°C | 4.4% | 25.7hPa | 2.6V | 00:00:00 | 01:29:54 | 00:00:00 | |
| OE5DRO-10 | 2026-09-01 00:24:45 | 47.59878 | 19.81041 | 317° | 13km/h | 25289m | 6.7m/s | -52.2°C | 4.4% | 25.8hPa | 2.6V | 00:00:00 | 00:00:00 | 00:00:00 | |
| PETON7-10 | 2026-09-01 00:24:33 | 47.59871 | 19.81075 | 266° | 16km/h | 25222m | 6.7m/s | -52.3°C | 4.3% | 26.1hPa | 2.6V | 00:00:00 | 00:00:00 | 00:00:00 | |
| OE5DRO-10 | 2026-09-01 00:24:26 | 47.59867 | 19.81129 | 288° | 16km/h | 25161m | 5.9m/s | -52.6°C | 4.4% | 26.3hPa | 2.7V | 00:00:00 | 00:00:00 | 08:30:00 | |
| OE3JTB-15 | 2026-09-01 00:24:22 | 47.59865 | 19.81139 | 275° | 13km/h | 25149m | 7.1m/s | -52.6°C | 4.5% | 26.4hPa | 2.6V | 00:00:00 | 00:00:00 | 00:00:00 | |
| PETON7-10 | 2026-09-01 00:24:18 | 47.59867 | 19.81170 | 274° | 11km/h | 25122m | 6.7m/s | -52.5°C | 4.4% | 26.5hPa | 2.7V | 00:00:00 | 00:00:00 | 00:00:00 | |
| LZ4TU-5 | 2026-09-01 00:24:06 | 47.59861 | 19.81213 | 193° | 7km/h | 25048m | 5.8m/s | 0°C | 0% | 26.9hPa | 2.7V | 00:00:00 | 00:00:00 | 00:00:00 | |
| PETON7-10 | 2026-09-01 00:24:03 | 47.59863 | 19.81224 | 277° | 13km/h | 25023m | 6.4m/s | -52.6°C | 4.4% | 26.9hPa | 2.7V | 00:00:00 | 01:29:09 | 00:00:00 | |
| LZ4TU-5 | 2026-09-01 00:24:01 | 47.59862 | 19.81229 | 292° | 13km/h | 25016m | 6.5m/s | 0°C | 0% | 27.0hPa | 2.7V | 00:00:00 | 00:00:00 | 00:00:00 | |
| GYPAP8-17 | 2026-09-01 00:23:55 | 47.59843 | 19.81245 | 11° | 15km/h | 24977m | 7.0m/s | -53.0°C | 1.5% | 27.1hPa | 2.7V | 00:00:00 | 00:00:00 | 00:00:00 | |
| OE3JTB-15 | 2026-09-01 00:23:53 | 47.59833 | 19.81240 | 10° | 5km/h | 24956m | 7.4m/s | -53.0°C | 4.8% | 27.2hPa | 2.7V | 00:00:00 | 00:00:00 | 00:00:00 | |
| PETON7-10 | 2026-09-01 00:23:48 | 47.59823 | 19.81242 | 350° | 5km/h | 24922m | 7.4m/s | -52.8°C | 4.7% | 27.3hPa | 2.7V | 00:00:00 | 00:00:00 | 08:30:00 | |
| OE5DRO-10 | 2026-09-01 00:23:45 | 47.59817 | 19.81242 | 353° | 7km/h | 24881m | 7.2m/s | -52.5°C | 4.6% | 27.5hPa | 2.6V | 00:00:00 | 00:00:00 | 00:00:00 | |
| PETON7-10 | 2026-09-01 00:23:33 | 47.59814 | 19.81259 | 261° | 5km/h | 24818m | 7.5m/s | -52.7°C | 4.8% | 27.8hPa | 2.6V | 00:00:00 | 00:00:00 | 00:00:00 | |
| OE3JTB-15 | 2026-09-01 00:23:24 | 47.59815 | 19.81273 | 276° | 13km/h | 24758m | 4.7m/s | -52.6°C | 4.8% | 28.1hPa | 2.6V | 00:00:00 | 01:28:30 | 00:00:00 | |
| PETON7-10 | 2026-09-01 00:23:18 | 47.59815 | 19.81288 | 321° | 11km/h | 24717m | 4.7m/s | -52.6°C | 4.8% | 28.2hPa | 2.6V | 00:00:00 | 01:28:24 | 00:00:00 | |
| SQ9EZE-15 | 2026-09-01 00:23:04 | 47.59829 | 19.81326 | 275° | 15km/h | 24634m | 5.8m/s | -52.4°C | 1.5% | 28.6hPa | 2.6V | 00:00:00 | 00:00:00 | 00:00:00 | |
| PETON7-10 | 2026-09-01 00:23:03 | 47.59828 | 19.81334 | 260° | 16km/h | 24623m | 7.2m/s | -52.3°C | 4.6% | 28.6hPa | 2.6V | 00:00:00 | 00:00:00 | 00:00:00 | |
| OE3JTB-15 | 2026-09-01 00:22:55 | 47.59861 | 19.81360 | 205° | 15km/h | 24572m | 5.8m/s | -52.2°C | 4.5% | 28.9hPa | 2.6V | 00:00:00 | 00:00:00 | 08:30:00 | |
| PETON7-10 | 2026-09-01 00:22:48 | 47.59878 | 19.81387 | 229° | 16km/h | 24528m | 4.8m/s | -52.3°C | 4.5% | 29.1hPa | 2.7V | 00:00:00 | 00:00:00 | 00:00:00 | |
| GYPAP8-17 | 2026-09-01 00:22:42 | 47.59899 | 19.81403 | 197° | 29km/h | 24500m | 5.1m/s | -52.3°C | 1.5% | 29.2hPa | 2.7V | 00:00:00 | 00:00:00 | 00:00:00 | |
| PETON7-10 | 2026-09-01 00:22:33 | 47.59916 | 19.81436 | 253° | 7km/h | 24441m | 6.9m/s | -52.3°C | 4.4% | 29.5hPa | 2.7V | 00:00:00 | 01:27:39 | 00:00:00 | |
| OE3JTB-15 | 2026-09-01 00:22:26 | 47.59923 | 19.81449 | 271° | 9km/h | 24397m | 6.6m/s | -52.9°C | 4.7% | 29.7hPa | 2.7V | 00:00:00 | 00:00:00 | 00:00:00 | |
| PETON7-10 | 2026-09-01 00:22:18 | 47.59905 | 19.81450 | 27° | 7km/h | 24347m | 6.2m/s | -52.9°C | 4.5% | 29.9hPa | 2.7V | 00:00:00 | 00:00:00 | 00:00:00 | |
| LZ4TU-5 | 2026-09-01 00:22:17 | 47.59905 | 19.81450 | 28° | 9km/h | 24347m | 6.3m/s | 0°C | 0% | 0hPa | 2.6V | 00:00:00 | 00:00:00 | 00:00:00 | |
| LZ4TU-5 | 2026-09-01 00:22:12 | 47.59905 | 19.81446 | 155° | 7km/h | 24314m | 5.3m/s | 0°C | 0% | 0hPa | 2.6V | 00:00:00 | 00:00:00 | 00:00:00 | |
| OE5DRO-10 | 2026-09-01 00:22:09 | 47.59914 | 19.81457 | 272° | 11km/h | 24276m | 4.9m/s | -53.3°C | 4.8% | 30.2hPa | 2.6V | 00:00:00 | 00:00:00 | 00:00:00 | |
| PETON7-10 | 2026-09-01 00:22:03 | 47.59917 | 19.81461 | 149° | 13km/h | 24252m | 5.8m/s | -53.3°C | 4.7% | 30.3hPa | 2.6V | 00:00:00 | 00:00:00 | 00:00:00 | |
| OE3JTB-15 | 2026-09-01 00:21:57 | 47.59935 | 19.81433 | 133° | 13km/h | 24216m | 5.0m/s | -53.3°C | 4.8% | 30.5hPa | 2.6V | 00:00:00 | 01:27:03 | 00:00:00 | |
| OE5DRO-10 | 2026-09-01 00:21:50 | 47.59935 | 19.81407 | 87° | 15km/h | 24161m | 7.2m/s | -53.3°C | 4.8% | 30.8hPa | 2.6V | 00:00:00 | 00:00:00 | 00:00:00 | |
| PETON7-10 | 2026-09-01 00:21:48 | 47.59935 | 19.81407 | 87° | 16km/h | 24161m | 7.2m/s | -53.3°C | 4.8% | 30.8hPa | 2.6V | 00:00:00 | 01:26:54 | 00:00:00 | |
| GYPAP8-17 | 2026-09-01 00:21:40 | 47.59945 | 19.81365 | 103° | 20km/h | 24117m | 5.7m/s | -53.2°C | 1.6% | 31.0hPa | 2.6V | 00:00:00 | 00:00:00 | 00:00:00 | |
| PETON7-10 | 2026-09-01 00:21:33 | 47.59933 | 19.81331 | 66° | 16km/h | 24070m | 6.6m/s | -53.1°C | 4.7% | 31.2hPa | 2.6V | 00:00:00 | 00:00:00 | 08:30:00 | |
| OE5DRO-10 | 2026-09-01 00:21:31 | 47.59931 | 19.81312 | 104° | 16km/h | 24047m | 6.2m/s | -53.2°C | 4.7% | 31.3hPa | 2.6V | 00:00:00 | 00:00:00 | 00:00:00 | |
| OE3JTB-15 | 2026-09-01 00:21:27 | 47.59933 | 19.81300 | 95° | 16km/h | 24035m | 6.3m/s | -53.2°C | 4.7% | 31.4hPa | 2.6V | 00:00:00 | 00:00:00 | 00:00:00 | |
| PETON7-10 | 2026-09-01 00:21:19 | 47.59904 | 19.81268 | 43° | 16km/h | 23979m | 7.1m/s | -53.7°C | 4.8% | 31.6hPa | 2.6V | 00:00:00 | 00:00:00 | 00:00:00 | |
| OE5DRO-10 | 2026-09-01 00:21:15 | 47.59889 | 19.81243 | 345° | 13km/h | 23931m | 4.9m/s | -53.9°C | 4.9% | 31.9hPa | 2.6V | 00:00:00 | 00:00:00 | 00:00:00 | |
| PETON7-10 | 2026-09-01 00:21:03 | 47.59853 | 19.81251 | 24° | 13km/h | 23889m | 6.6m/s | -53.9°C | 5.0% | 32.1hPa | 2.6V | 00:00:00 | 01:26:09 | 00:00:00 | |
| OE3JTB-15 | 2026-09-01 00:20:58 | 47.59846 | 19.81228 | 117° | 9km/h | 23861m | 4.9m/s | -53.8°C | 5.1% | 32.2hPa | 2.6V | 00:00:00 | 00:00:00 | 00:00:00 | |
| PETON7-10 | 2026-09-01 00:20:48 | 47.59835 | 19.81205 | 31° | 9km/h | 23805m | 4.6m/s | -53.5°C | 4.9% | 32.5hPa | 2.6V | 00:00:00 | 00:00:00 | 00:00:00 | |
| PETON7-10 | 2026-09-01 00:20:33 | 47.59850 | 19.81173 | 116° | 9km/h | 23714m | 8.1m/s | -53.3°C | 5.0% | 33.0hPa | 2.6V | 00:00:00 | 00:00:00 | 00:00:00 | |
| OE3JTB-15 | 2026-09-01 00:20:29 | 47.59855 | 19.81161 | 123° | 11km/h | 23689m | 6.1m/s | -53.1°C | 4.9% | 33.1hPa | 2.6V | 00:00:00 | 01:25:35 | 00:00:00 | |
| LZ4TU-5 | 2026-09-01 00:20:25 | 47.59864 | 19.81145 | 140° | 15km/h | 23672m | 8.2m/s | 0°C | 0% | 0hPa | 2.6V | 00:00:00 | 00:00:00 | 00:00:00 | |
| LZ4TU-5 | 2026-09-01 00:20:20 | 47.59871 | 19.81134 | 161° | 5km/h | 23640m | 5.8m/s | 0°C | 0% | 0hPa | 2.6V | 00:00:00 | 00:00:00 | 00:00:00 | |
| PETON7-10 | 2026-09-01 00:20:18 | 47.59871 | 19.81130 | 64° | 11km/h | 23620m | 5.3m/s | -52.9°C | 4.9% | 33.5hPa | 2.6V | 00:00:00 | 01:25:24 | 00:00:00 | |
| OE5DRO-10 | 2026-09-01 00:20:09 | 47.59860 | 19.81091 | 56° | 18km/h | 23549m | 6.8m/s | -52.9°C | 4.9% | 33.8hPa | 2.6V | 00:00:00 | 00:00:00 | 08:30:00 | |
| PETON7-10 | 2026-09-01 00:20:03 | 47.59849 | 19.81082 | 7° | 18km/h | 23523m | 7.3m/s | -53.0°C | 5.0% | 34.0hPa | 2.6V | 00:00:00 | 00:00:00 | 00:00:00 | |
| OE3JTB-15 | 2026-09-01 00:20:00 | 47.59835 | 19.81077 | 23° | 18km/h | 23504m | 6.1m/s | -53.1°C | 5.0% | 34.1hPa | 2.7V | 00:00:00 | 00:00:00 | 00:00:00 | |
| PETON7-10 | 2026-09-01 00:19:48 | 47.59786 | 19.81056 | 1° | 20km/h | 23424m | 5.7m/s | -53.2°C | 5.1% | 34.5hPa | 2.7V | 00:00:00 | 00:00:00 | 00:00:00 | |
| PETON7-10 | 2026-09-01 00:19:33 | 47.59712 | 19.81068 | 348° | 13km/h | 23323m | 6.3m/s | -52.8°C | 4.9% | 35.1hPa | 2.7V | 00:00:00 | 01:24:39 | 00:00:00 | |
| OE3JTB-15 | 2026-09-01 00:19:31 | 47.59702 | 19.81071 | 355° | 9km/h | 23310m | 8.2m/s | -52.9°C | 4.8% | 35.1hPa | 2.7V | 00:00:00 | 00:00:00 | 00:00:00 | |
| PETON7-10 | 2026-09-01 00:19:18 | 47.59662 | 19.81073 | 18° | 7km/h | 23223m | 7.1m/s | -52.9°C | 5.1% | 35.6hPa | 2.7V | 00:00:00 | 00:00:00 | 08:30:00 | |
| OE5DRO-10 | 2026-09-01 00:19:11 | 47.59642 | 19.81062 | 11° | 5km/h | 23164m | 5.6m/s | -52.6°C | 4.9% | 35.9hPa | 2.7V | 00:00:00 | 00:00:00 | 00:00:00 | |
| PETON7-10 | 2026-09-01 00:19:03 | 47.59636 | 19.81053 | 70° | 5km/h | 23124m | 5.5m/s | -52.7°C | 4.9% | 36.1hPa | 2.7V | 00:00:00 | 00:00:00 | 00:00:00 | |
| OE3JTB-15 | 2026-09-01 00:19:02 | 47.59636 | 19.81050 | 93° | 7km/h | 23110m | 8.1m/s | -52.9°C | 5.0% | 36.2hPa | 2.7V | 00:00:00 | 01:24:07 | 00:00:00 | |
| GYPAP8-17 | 2026-09-01 00:18:54 | 47.59640 | 19.81039 | 165° | 5km/h | 23071m | 7.0m/s | -53.0°C | 1.8% | 36.5hPa | 2.7V | 00:00:00 | 00:00:00 | 00:00:00 | |
| OE5DRO-10 | 2026-09-01 00:18:52 | 47.59647 | 19.81033 | 186° | 7km/h | 23036m | 5.7m/s | -52.9°C | 5.0% | 36.6hPa | 2.7V | 00:00:00 | 00:00:00 | 00:00:00 | |
| PETON7-10 | 2026-09-01 00:18:47 | 47.59649 | 19.81033 | 11° | 9km/h | 23017m | 5.1m/s | -52.9°C | 5.1% | 36.8hPa | 2.7V | 00:00:00 | 01:23:53 | 00:00:00 | |
| LZ4TU-5 | 2026-09-01 00:18:35 | 47.59626 | 19.81044 | 361° | 5km/h | 22948m | 6.4m/s | 0°C | 0% | 0hPa | 2.7V | 00:00:00 | 00:00:00 | 00:00:00 | |
| OE3JTB-15 | 2026-09-01 00:18:33 | 47.59621 | 19.81051 | 295° | 16km/h | 22924m | 7.5m/s | -52.5°C | 4.9% | 37.3hPa | 2.7V | 00:00:00 | 00:00:00 | 08:30:00 | |
| PETON7-10 | 2026-09-01 00:18:32 | 47.59621 | 19.81051 | 295° | 13km/h | 22924m | 7.5m/s | -52.5°C | 4.9% | 37.3hPa | 2.7V | 00:00:00 | 00:00:00 | 00:00:00 | |
| LZ4TU-5 | 2026-09-01 00:18:30 | 47.59618 | 19.81056 | 304° | 18km/h | 22918m | 5.2m/s | 0°C | 0% | 0hPa | 2.6V | 00:00:00 | 00:00:00 | 00:00:00 | |
| LZ4TU-5 | 2026-09-01 00:18:26 | 47.59605 | 19.81075 | 325° | 9km/h | 22887m | 7.0m/s | 0°C | 0% | 0hPa | 2.6V | 00:00:00 | 00:00:00 | 00:00:00 | |
| LZ4TU-5 | 2026-09-01 00:18:21 | 47.59595 | 19.81078 | 7° | 9km/h | 22862m | 6.2m/s | 0°C | 0% | 0hPa | 2.6V | 00:00:00 | 00:00:00 | 00:00:00 | |
| PETON7-10 | 2026-09-01 00:18:17 | 47.59578 | 19.81086 | 339° | 20km/h | 22830m | 6.2m/s | -52.7°C | 5.0% | 37.9hPa | 2.6V | 00:00:00 | 00:00:00 | 00:00:00 | |
| OE5DRO-10 | 2026-09-01 00:18:13 | 47.59544 | 19.81094 | 14° | 22km/h | 22793m | 6.7m/s | -52.6°C | 5.0% | 38.0hPa | 2.6V | 00:00:00 | 00:00:00 | 00:00:00 | |
| OE3JTB-15 | 2026-09-01 00:18:05 | 47.59515 | 19.81083 | 1° | 24km/h | 22750m | 5.8m/s | -52.6°C | 5.0% | 38.3hPa | 2.6V | 00:00:00 | 00:00:00 | 00:00:00 | |
| PETON7-10 | 2026-09-01 00:18:02 | 47.59505 | 19.81085 | 348° | 26km/h | 22737m | 5.1m/s | -52.6°C | 5.0% | 38.4hPa | 2.6V | 00:00:00 | 01:23:08 | 00:00:00 | |
| PETON7-10 | 2026-09-01 00:17:47 | 47.59410 | 19.81095 | 345° | 26km/h | 22642m | 5.7m/s | -52.8°C | 5.1% | 39.0hPa | 2.6V | 00:00:00 | 00:00:00 | 00:00:00 | |
| 9A1FER-3 | 2026-09-01 00:17:45 | 47.59399 | 19.81102 | 332° | 24km/h | 22629m | 6.6m/s | 0°C | 0% | 0hPa | 2.7V | 00:00:00 | 01:22:51 | 00:00:00 | |
| OE5DRO-10 | 2026-09-01 00:17:39 | 47.59354 | 19.81129 | 344° | 24km/h | 22580m | 7.1m/s | -53.1°C | 5.2% | 39.3hPa | 2.7V | 00:00:00 | 00:00:00 | 00:00:00 | |
| OE3JTB-15 | 2026-09-01 00:17:35 | 47.59341 | 19.81136 | 336° | 20km/h | 22568m | 6.1m/s | -53.2°C | 5.2% | 39.4hPa | 2.6V | 00:00:00 | 01:22:41 | 00:00:00 | |
| PETON7-10 | 2026-09-01 00:17:32 | 47.59322 | 19.81146 | 345° | 20km/h | 22549m | 5.9m/s | -53.2°C | 5.2% | 39.5hPa | 2.6V | 00:00:00 | 00:00:00 | 00:00:00 | |
| GYPAP8-17 | 2026-09-01 00:17:28 | 47.59306 | 19.81156 | 329° | 24km/h | 22530m | 6.3m/s | -53.1°C | 1.9% | 39.7hPa | 2.6V | 00:00:00 | 00:00:00 | 00:00:00 | |
| OE5DRO-10 | 2026-09-01 00:17:20 | 47.59258 | 19.81191 | 341° | 16km/h | 22468m | 7.2m/s | -53.1°C | 5.1% | 40.0hPa | 2.6V | 00:00:00 | 00:00:00 | 00:00:00 | |
| PETON7-10 | 2026-09-01 00:17:17 | 47.59253 | 19.81195 | 329° | 18km/h | 22454m | 5.8m/s | -53.1°C | 5.1% | 40.1hPa | 2.6V | 00:00:00 | 01:22:23 | 00:00:00 | |
| SQ9EZE-15 | 2026-09-01 00:17:15 | 47.59250 | 19.81197 | 331° | 11km/h | 22449m | 6.2m/s | -53.2°C | 1.9% | 40.2hPa | 2.6V | 00:00:00 | 00:00:00 | 00:00:00 | |
| OE3JTB-15 | 2026-09-01 00:17:06 | 47.59215 | 19.81248 | 305° | 13km/h | 22385m | 6.7m/s | -53.5°C | 5.2% | 40.5hPa | 2.6V | 00:00:00 | 00:00:00 | 00:00:00 | |
| PETON7-10 | 2026-09-01 00:17:02 | 47.59206 | 19.81269 | 291° | 13km/h | 22360m | 6.9m/s | -53.4°C | 5.2% | 40.7hPa | 2.6V | 00:00:00 | 00:00:00 | 08:30:00 | |
| OE5DRO-10 | 2026-09-01 00:17:01 | 47.59203 | 19.81281 | 300° | 11km/h | 22348m | 5.7m/s | -53.5°C | 5.2% | 40.8hPa | 2.6V | 00:00:00 | 00:00:00 | 00:00:00 | |
| SQ9EZE-15 | 2026-09-01 00:16:54 | 47.59188 | 19.81311 | 305° | 18km/h | 22316m | 7.1m/s | -53.6°C | 1.9% | 41.0hPa | 2.6V | 00:00:00 | 00:00:00 | 00:00:00 | |
| PETON7-10 | 2026-09-01 00:16:47 | 47.59186 | 19.81333 | 267° | 9km/h | 22266m | 5.1m/s | -53.6°C | 5.2% | 41.3hPa | 2.6V | 00:00:00 | 00:00:00 | 00:00:00 | |
| OE5DRO-10 | 2026-09-01 00:16:42 | 47.59182 | 19.81342 | 340° | 11km/h | 22235m | 6.1m/s | -53.7°C | 5.3% | 41.5hPa | 2.6V | 00:00:00 | 00:00:00 | 08:30:00 | |
| OE3JTB-15 | 2026-09-01 00:16:37 | 47.59171 | 19.81340 | 49° | 11km/h | 22203m | 5.4m/s | -53.8°C | 5.4% | 41.7hPa | 2.6V | 00:00:00 | 00:00:00 | 00:00:00 | |
| LZ4TU-5 | 2026-09-01 00:16:34 | 47.59172 | 19.81334 | 127° | 13km/h | 22192m | 6.5m/s | 0°C | 0% | 0hPa | 2.6V | 00:00:00 | 00:00:00 | 00:00:00 | |
| PETON7-10 | 2026-09-01 00:16:32 | 47.59181 | 19.81328 | 174° | 11km/h | 22172m | 5.5m/s | -53.9°C | 5.4% | 41.9hPa | 2.6V | 00:00:00 | 01:21:38 | 00:00:00 | |
| SQ9EZE-14 | 2026-09-01 00:16:30 | 47.59188 | 19.81326 | 160° | 13km/h | 22158m | 7.5m/s | 0°C | 0% | 0hPa | 2.6V | 00:00:00 | 00:00:00 | 00:00:00 | |
| LZ4TU-5 | 2026-09-01 00:16:29 | 47.59188 | 19.81326 | 160° | 13km/h | 22158m | 7.5m/s | 0°C | 0% | 0hPa | 2.6V | 00:00:00 | 00:00:00 | 00:00:00 | |
| OE5DRO-10 | 2026-09-01 00:16:23 | 47.59190 | 19.81309 | 85° | 11km/h | 22113m | 4.2m/s | -53.8°C | 5.4% | 42.3hPa | 2.6V | 00:00:00 | 00:00:00 | 00:00:00 | |
| PETON7-10 | 2026-09-01 00:16:17 | 47.59203 | 19.81297 | 175° | 11km/h | 22077m | 5.7m/s | -53.7°C | 5.4% | 42.5hPa | 2.6V | 00:00:00 | 00:00:00 | 00:00:00 | |
| OE3JTB-15 | 2026-09-01 00:16:08 | 47.59211 | 19.81267 | 80° | 9km/h | 22020m | 6.0m/s | -53.6°C | 5.4% | 42.9hPa | 2.6V | 00:00:00 | 01:21:14 | 00:00:00 | |
| OE5DRO-10 | 2026-09-01 00:16:04 | 47.59210 | 19.81254 | 146° | 5km/h | 21997m | 5.8m/s | -53.5°C | 5.3% | 43.1hPa | 2.6V | 00:00:00 | 00:00:00 | 00:00:00 | |
| PETON7-10 | 2026-09-01 00:16:02 | 47.59213 | 19.81253 | 238° | 7km/h | 21983m | 6.1m/s | -53.5°C | 5.3% | 43.1hPa | 2.6V | 00:00:00 | 00:00:00 | 00:00:00 | |
| GYPAP8-17 | 2026-09-01 00:16:01 | 47.59213 | 19.81253 | 239° | 2km/h | 21983m | 6.2m/s | -53.6°C | 2.0% | 43.2hPa | 2.6V | 00:00:00 | 00:00:00 | 00:00:00 | |
| PETON7-10 | 2026-09-01 00:15:47 | 47.59203 | 19.81225 | 23° | 16km/h | 21890m | 6.9m/s | -54.0°C | 5.4% | 43.8hPa | 2.6V | 00:00:00 | 01:20:53 | 00:00:00 | |
| OE5DRO-10 | 2026-09-01 00:15:45 | 47.59200 | 19.81221 | 41° | 16km/h | 21877m | 6.3m/s | -54.1°C | 5.5% | 43.9hPa | 2.6V | 00:00:00 | 00:00:00 | 00:00:00 | |
| OE3JTB-15 | 2026-09-01 00:15:39 | 47.59182 | 19.81188 | 64° | 20km/h | 21839m | 6.0m/s | -54.3°C | 5.6% | 44.1hPa | 2.6V | 00:00:00 | 00:00:00 | 00:00:00 | |
| PETON7-10 | 2026-09-01 00:15:32 | 47.59164 | 19.81152 | 38° | 20km/h | 21794m | 7.2m/s | -54.3°C | 5.5% | 44.4hPa | 2.7V | 00:00:00 | 00:00:00 | 00:00:00 | |
| PETON7-10 | 2026-09-01 00:15:17 | 47.59095 | 19.81103 | 12° | 16km/h | 21697m | 6.5m/s | -54.5°C | 5.7% | 45.1hPa | 2.6V | 00:00:00 | 00:00:00 | 00:00:00 | |
| OE3JTB-15 | 2026-09-01 00:15:10 | 47.59067 | 19.81108 | 334° | 11km/h | 21651m | 7.3m/s | -54.4°C | 5.6% | 45.4hPa | 2.6V | 00:00:00 | 00:00:00 | 00:00:00 | |
| GYPAP8-17 | 2026-09-01 00:14:49 | 47.59024 | 19.81141 | 267° | 9km/h | 21527m | 5.9m/s | -54.7°C | 2.2% | 46.4hPa | 2.6V | 00:00:00 | 00:00:00 | 00:00:00 | |
| PETON7-10 | 2026-09-01 00:14:47 | 47.59024 | 19.81149 | 290° | 11km/h | 21508m | 4.6m/s | -54.6°C | 5.8% | 46.5hPa | 2.6V | 00:00:00 | 00:00:00 | 08:30:00 | |
| OE5DRO-10 | 2026-09-01 00:14:46 | 47.59023 | 19.81152 | 310° | 13km/h | 21502m | 7.3m/s | -54.6°C | 5.8% | 46.5hPa | 2.6V | 00:00:00 | 00:00:00 | 00:00:00 | |
| LZ4TU-5 | 2026-09-01 00:14:45 | 47.59023 | 19.81152 | 310° | 9km/h | 21502m | 7.4m/s | 0°C | 0% | 0hPa | 2.6V | 00:00:00 | 00:00:00 | 00:00:00 | |
| OE3JTB-15 | 2026-09-01 00:14:41 | 47.59011 | 19.81163 | 333° | 13km/h | 21471m | 4.4m/s | -54.5°C | 5.8% | 46.7hPa | 2.6V | 00:00:00 | 01:19:47 | 00:00:00 | |
| LZ4TU-5 | 2026-09-01 00:14:40 | 47.59011 | 19.81163 | 334° | 5km/h | 21471m | 4.5m/s | 0°C | 0% | 0hPa | 2.6V | 00:00:00 | 00:00:00 | 00:00:00 | |
| PETON7-10 | 2026-09-01 00:14:32 | 47.58987 | 19.81182 | 349° | 13km/h | 21416m | 5.6m/s | -54.5°C | 5.7% | 47.1hPa | 2.6V | 00:00:00 | 00:00:00 | 00:00:00 | |
| OE5DRO-10 | 2026-09-01 00:14:27 | 47.58969 | 19.81196 | 323° | 11km/h | 21386m | 5.1m/s | -54.5°C | 5.8% | 47.3hPa | 2.6V | 00:00:00 | 00:00:00 | 00:00:00 | |
| PETON7-10 | 2026-09-01 00:14:17 | 47.58956 | 19.81230 | 262° | 11km/h | 21326m | 5.9m/s | -54.2°C | 5.7% | 47.8hPa | 2.6V | 00:00:00 | 01:19:23 | 00:00:00 | |
| OE3JTB-15 | 2026-09-01 00:14:12 | 47.58956 | 19.81243 | 235° | 11km/h | 21295m | 4.8m/s | -54.3°C | 5.6% | 48.0hPa | 2.6V | 00:00:00 | 00:00:00 | 08:30:00 | |
| OE5DRO-10 | 2026-09-01 00:14:08 | 47.58958 | 19.81260 | 265° | 11km/h | 21272m | 4.7m/s | -54.3°C | 5.6% | 48.2hPa | 2.6V | 00:00:00 | 00:00:00 | 00:00:00 | |
| PETON7-10 | 2026-09-01 00:14:02 | 47.58967 | 19.81280 | 167° | 11km/h | 21238m | 5.8m/s | -54.3°C | 5.7% | 48.4hPa | 2.6V | 00:00:00 | 00:00:00 | 00:00:00 | |
| OE5DRO-10 | 2026-09-01 00:13:49 | 47.59000 | 19.81289 | 203° | 11km/h | 21157m | 5.4m/s | -54.5°C | 5.7% | 49.1hPa | 2.6V | 00:00:00 | 00:00:00 | 08:30:00 | |
| PETON7-10 | 2026-09-01 00:13:47 | 47.59003 | 19.81291 | 198° | 13km/h | 21151m | 7.2m/s | -54.5°C | 5.8% | 49.1hPa | 2.6V | 00:00:00 | 00:00:00 | 00:00:00 | |
| GYPAP8-17 | 2026-09-01 00:13:46 | 47.59003 | 19.81290 | 198° | 13km/h | 21151m | 7.2m/s | -54.5°C | 2.3% | 49.2hPa | 2.6V | 00:00:00 | 00:00:00 | 00:00:00 | |
| OE3JTB-15 | 2026-09-01 00:13:43 | 47.59016 | 19.81289 | 172° | 11km/h | 21128m | 5.6m/s | -54.5°C | 5.7% | 49.3hPa | 2.6V | 00:00:00 | 00:00:00 | 00:00:00 | |
| PETON7-10 | 2026-09-01 00:13:32 | 47.59047 | 19.81289 | 183° | 9km/h | 21064m | 5.5m/s | -54.4°C | 5.8% | 49.8hPa | 2.6V | 00:00:00 | 01:18:38 | 00:00:00 | |
| OE5DRO-10 | 2026-09-01 00:13:30 | 47.59056 | 19.81284 | 103° | 9km/h | 21042m | 3.7m/s | -54.4°C | 5.8% | 50.0hPa | 2.6V | 00:00:00 | 00:00:00 | 00:00:00 | |
| PETON7-10 | 2026-09-01 00:13:17 | 47.59075 | 19.81263 | 164° | 9km/h | 20978m | 5.8m/s | -54.5°C | 5.9% | 50.4hPa | 2.6V | 00:00:00 | 00:00:00 | 00:00:00 | |
| OE3JTB-15 | 2026-09-01 00:13:14 | 47.59082 | 19.81258 | 146° | 7km/h | 20961m | 5.5m/s | -54.5°C | 5.9% | 50.6hPa | 2.7V | 00:00:00 | 01:18:20 | 00:00:00 | |
| OE5DRO-10 | 2026-09-01 00:13:10 | 47.59076 | 19.81244 | 51° | 9km/h | 20925m | 5.2m/s | -54.5°C | 5.9% | 50.9hPa | 2.7V | 00:00:00 | 00:00:00 | 00:00:00 | |
| PETON7-10 | 2026-09-01 00:13:01 | 47.59070 | 19.81229 | 50° | 9km/h | 20884m | 6.3m/s | -54.5°C | 5.9% | 51.2hPa | 2.7V | 00:00:00 | 00:00:00 | 00:00:00 | |
| SQ9EZE-15 | 2026-09-01 00:12:55 | 47.59062 | 19.81219 | 22° | 11km/h | 20854m | 5.9m/s | -54.6°C | 2.3% | 51.5hPa | 2.7V | 00:00:00 | 00:00:00 | 00:00:00 | |
| SQ9EZE-16 | 2026-09-01 00:12:54 | 47.59060 | 19.81218 | 13° | 13km/h | 20847m | 7.4m/s | -54.7°C | 2.4% | 51.5hPa | 2.7V | 00:00:00 | 00:00:00 | 00:00:00 | |
| LZ4TU-5 | 2026-09-01 00:12:51 | 47.59052 | 19.81215 | 11° | 9km/h | 20830m | 6.4m/s | 0°C | 0% | 0hPa | 2.7V | 00:00:00 | 00:00:00 | 00:00:00 | |
| OE3JTB-15 | 2026-09-01 00:12:46 | 47.59040 | 19.81216 | 20° | 9km/h | 20789m | 7.1m/s | -54.5°C | 5.8% | 52.0hPa | 2.7V | 00:00:00 | 00:00:00 | 00:00:00 | |
| SQ9EZE-16 | 2026-09-01 00:12:38 | 47.59028 | 19.81215 | 342° | 4km/h | 20753m | 6.0m/s | -54.7°C | 2.3% | 52.3hPa | 2.6V | 00:00:00 | 00:00:00 | 00:00:00 | |
| SQ9EZE-15 | 2026-09-01 00:12:34 | 47.59024 | 19.81224 | 294° | 7km/h | 20730m | 7.5m/s | -54.8°C | 2.4% | 52.5hPa | 2.6V | 00:00:00 | 00:00:00 | 00:00:00 | |
| PETON7-10 | 2026-09-01 00:12:31 | 47.59020 | 19.81225 | 20° | 11km/h | 20705m | 6.1m/s | -54.6°C | 5.8% | 52.7hPa | 2.6V | 00:00:00 | 00:00:00 | 08:30:00 | |
| OE5DRO-10 | 2026-09-01 00:12:29 | 47.59019 | 19.81220 | 142° | 15km/h | 20681m | 4.4m/s | -54.7°C | 5.8% | 52.8hPa | 2.7V | 00:00:00 | 00:00:00 | 00:00:00 | |
| SQ9EZE-16 | 2026-09-01 00:12:22 | 47.59020 | 19.81216 | 71° | 7km/h | 20659m | 5.3m/s | -54.7°C | 2.4% | 53.1hPa | 2.7V | 00:00:00 | 00:00:00 | 00:00:00 | |
| PETON7-10 | 2026-09-01 00:12:16 | 47.59003 | 19.81169 | 70° | 18km/h | 20617m | 5.0m/s | -54.9°C | 6.0% | 53.4hPa | 2.7V | 00:00:00 | 00:00:00 | 00:00:00 | |
| OE5DRO-10 | 2026-09-01 00:12:10 | 47.58996 | 19.81134 | 72° | 24km/h | 20574m | 7.5m/s | -55.1°C | 6.1% | 53.8hPa | 2.7V | 00:00:00 | 00:00:00 | 00:00:00 | |
| GYPAP8-17 | 2026-09-01 00:12:07 | 47.58995 | 19.81128 | 77° | 18km/h | 20568m | 4.6m/s | -55.2°C | 2.5% | 53.8hPa | 2.7V | 00:00:00 | 00:00:00 | 00:00:00 | |
| PETON7-10 | 2026-09-01 00:12:01 | 47.58991 | 19.81071 | 88° | 26km/h | 20527m | 7.3m/s | -55.3°C | 6.2% | 54.1hPa | 2.7V | 00:00:00 | 01:17:07 | 00:00:00 | |
| SQ9EZE-16 | 2026-09-01 00:11:51 | 47.58982 | 19.80985 | 64° | 26km/h | 20471m | 6.1m/s | -55.4°C | 2.5% | 54.7hPa | 2.7V | 00:00:00 | 00:00:00 | 00:00:00 | |
| OE5DRO-10 | 2026-09-01 00:11:49 | 47.58975 | 19.80960 | 77° | 22km/h | 20452m | 5.9m/s | -55.2°C | 6.1% | 54.8hPa | 2.7V | 00:00:00 | 00:00:00 | 00:00:00 | |
| OE3JTB-15 | 2026-09-01 00:11:47 | 47.58972 | 19.80942 | 72° | 22km/h | 20440m | 6.5m/s | -55.2°C | 6.0% | 54.9hPa | 2.6V | 00:00:00 | 01:16:53 | 00:00:00 | |
| PETON7-10 | 2026-09-01 00:11:46 | 47.58970 | 19.80933 | 74° | 24km/h | 20434m | 6.4m/s | -55.2°C | 6.0% | 54.9hPa | 2.6V | 00:00:00 | 00:00:00 | 00:00:00 | |
| SQ9EZE-14 | 2026-09-01 00:11:39 | 47.58956 | 19.80877 | 62° | 26km/h | 20396m | 6.4m/s | 0°C | 0% | 0hPa | 2.6V | 00:00:00 | 00:00:00 | 00:00:00 | |
| SQ9EZE-16 | 2026-09-01 00:11:35 | 47.58943 | 19.80849 | 50° | 18km/h | 20370m | 4.9m/s | -55.6°C | 2.5% | 55.5hPa | 2.6V | 00:00:00 | 00:00:00 | 00:00:00 | |
| OE5DRO-10 | 2026-09-01 00:11:30 | 47.58926 | 19.80816 | 47° | 24km/h | 20335m | 5.2m/s | -55.8°C | 6.3% | 55.8hPa | 2.6V | 00:00:00 | 00:00:00 | 00:00:00 | |
| SQ9EZE-14 | 2026-09-01 00:11:23 | 47.58900 | 19.80771 | 44° | 24km/h | 20298m | 5.6m/s | 0°C | 0% | 0hPa | 2.6V | 00:00:00 | 00:00:00 | 00:00:00 | |
| SQ9EZE-16 | 2026-09-01 00:11:20 | 47.58891 | 19.80756 | 50° | 13km/h | 20280m | 5.9m/s | 0°C | 0% | 56.3hPa | 2.6V | 00:00:00 | 00:00:00 | 00:00:00 | |
| OE3JTB-15 | 2026-09-01 00:11:18 | 47.58883 | 19.80748 | 28° | 20km/h | 20262m | 6.9m/s | -55.5°C | 6.2% | 56.4hPa | 2.6V | 00:00:00 | 00:00:00 | 00:00:00 | |
| PETON7-10 | 2026-09-01 00:11:16 | 47.58876 | 19.80741 | 40° | 26km/h | 20251m | 5.1m/s | -55.6°C | 6.4% | 56.5hPa | 2.6V | 00:00:00 | 01:16:22 | 00:00:00 | |
| OE5DRO-10 | 2026-09-01 00:11:10 | 47.58848 | 19.80707 | 60° | 26km/h | 20215m | 5.3m/s | -55.6°C | 6.3% | 56.9hPa | 2.6V | 00:00:00 | 00:00:00 | 00:00:00 | |
| LZ4TU-5 | 2026-09-01 00:11:06 | 47.58838 | 19.80683 | 58° | 29km/h | 20196m | 6.7m/s | 0°C | 0% | 0hPa | 2.6V | 00:00:00 | 00:00:00 | 00:00:00 | |
| SQ9EZE-15 | 2026-09-01 00:11:05 | 47.58830 | 19.80664 | 60° | 27km/h | 20183m | 5.0m/s | -55.5°C | 2.5% | 57.2hPa | 2.6V | 00:00:00 | 00:00:00 | 00:00:00 | |
| SQ9EZE-16 | 2026-09-01 00:11:04 | 47.58830 | 19.80664 | 60° | 27km/h | 20183m | 5.0m/s | 0°C | 0% | 0hPa | 2.6V | 00:00:00 | 00:00:00 | 00:00:00 | |
| PETON7-10 | 2026-09-01 00:11:01 | 47.58812 | 19.80642 | 25° | 16km/h | 20157m | 7.5m/s | -55.5°C | 6.2% | 57.4hPa | 2.6V | 00:00:00 | 00:00:00 | 00:00:00 | |
| GYPAP8-17 | 2026-09-01 00:10:56 | 47.58796 | 19.80630 | 18° | 15km/h | 20128m | 5.9m/s | -55.6°C | 2.5% | 57.7hPa | 2.6V | 00:00:00 | 00:00:00 | 00:00:00 | |
| SQ9EZE-16 | 2026-09-01 00:10:49 | 47.58773 | 19.80613 | 22° | 15km/h | 20086m | 7.1m/s | 0°C | 0% | 0hPa | 2.6V | 00:00:00 | 00:00:00 | 00:00:00 | |
| PETON7-10 | 2026-09-01 00:10:46 | 47.58756 | 19.80608 | 354° | 11km/h | 20061m | 5.3m/s | -56.1°C | 6.4% | 58.2hPa | 2.6V | 00:00:00 | 00:00:00 | 00:00:00 | |
| SQ9EZE-15 | 2026-09-01 00:10:44 | 47.58752 | 19.80609 | 354° | 16km/h | 20056m | 5.4m/s | -56.1°C | 2.6% | 58.3hPa | 2.6V | 00:00:00 | 00:00:00 | 00:00:00 | |
| SQ9EZE-16 | 2026-09-01 00:10:33 | 47.58737 | 19.80601 | 41° | 13km/h | 19988m | 7.5m/s | 0°C | 0% | 0hPa | 2.6V | 00:00:00 | 00:00:00 | 00:00:00 | |
| PETON7-10 | 2026-09-01 00:10:31 | 47.58726 | 19.80589 | 29° | 16km/h | 19968m | 5.6m/s | -55.9°C | 6.5% | 59.1hPa | 2.6V | 00:00:00 | 01:15:37 | 00:00:00 | |
| OE3JTB-15 | 2026-09-01 00:10:20 | 47.58690 | 19.80553 | 48° | 29km/h | 19900m | 7.2m/s | -55.6°C | 6.4% | 59.7hPa | 2.6V | 00:00:00 | 01:15:26 | 00:00:00 | |
| PETON7-10 | 2026-09-01 00:10:16 | 47.58677 | 19.80529 | 58° | 27km/h | 19874m | 4.9m/s | -55.4°C | 6.3% | 60.0hPa | 2.6V | 00:00:00 | 00:00:00 | 08:30:00 | |
| PETON7-10 | 2026-09-01 00:10:01 | 47.58613 | 19.80412 | 49° | 35km/h | 19780m | 6.3m/s | -55.4°C | 6.4% | 60.9hPa | 2.6V | 00:00:00 | 00:00:00 | 00:00:00 | |
| OE3JTB-15 | 2026-09-01 00:09:51 | 47.58539 | 19.80328 | 44° | 24km/h | 19718m | 4.9m/s | -55.2°C | 6.3% | 61.5hPa | 2.6V | 00:00:00 | 00:00:00 | 08:30:00 | |
| GYPAP8-17 | 2026-09-01 00:09:50 | 47.58539 | 19.80328 | 45° | 29km/h | 19718m | 4.9m/s | -55.2°C | 2.7% | 61.5hPa | 2.6V | 00:00:00 | 00:00:00 | 00:00:00 | |
| PETON7-10 | 2026-09-01 00:09:46 | 47.58521 | 19.80285 | 61° | 26km/h | 19686m | 6.3m/s | -54.9°C | 6.2% | 61.8hPa | 2.6V | 00:00:00 | 01:14:52 | 00:00:00 | |
| PETON7-10 | 2026-09-01 00:09:31 | 47.58458 | 19.80179 | 75° | 16km/h | 19596m | 5.2m/s | -54.9°C | 6.1% | 62.6hPa | 2.6V | 00:00:00 | 00:00:00 | 00:00:00 | |
| OE3JTB-15 | 2026-09-01 00:09:22 | 47.58433 | 19.80135 | 58° | 16km/h | 19542m | 7.2m/s | -55.1°C | 6.3% | 63.2hPa | 2.6V | 00:00:00 | 00:00:00 | 00:00:00 | |
| LZ4TU-5 | 2026-09-01 00:09:18 | 47.58431 | 19.80123 | 93° | 13km/h | 19525m | 5.7m/s | 0°C | 0% | 0hPa | 2.6V | 00:00:00 | 00:00:00 | 00:00:00 | |
| PETON7-10 | 2026-09-01 00:09:16 | 47.58429 | 19.80106 | 69° | 18km/h | 19506m | 5.6m/s | -55.0°C | 6.3% | 63.5hPa | 2.6V | 00:00:00 | 00:00:00 | 00:00:00 | |
| LZ4TU-5 | 2026-09-01 00:09:14 | 47.58426 | 19.80098 | 63° | 15km/h | 19494m | 7.8m/s | 0°C | 0% | 0hPa | 2.6V | 00:00:00 | 00:00:00 | 00:00:00 | |
| SQ9EZE-16 | 2026-09-01 00:09:08 | 47.58420 | 19.80068 | 107° | 18km/h | 19466m | 4.6m/s | -54.9°C | 0% | 64.0hPa | 2.6V | 00:00:00 | 00:00:00 | 00:00:00 | |
| PETON7-10 | 2026-09-01 00:09:01 | 47.58429 | 19.80014 | 88° | 18km/h | 19419m | 5.9m/s | -54.9°C | 6.3% | 64.4hPa | 2.6V | 00:00:00 | 01:14:07 | 00:00:00 | |
| SQ9EZE-15 | 2026-09-01 00:08:56 | 47.58427 | 19.79991 | 83° | 18km/h | 19394m | 6.1m/s | 0°C | 0% | 64.7hPa | 2.6V | 00:00:00 | 00:00:00 | 00:00:00 | |
| OE3JTB-15 | 2026-09-01 00:08:53 | 47.58423 | 19.79966 | 80° | 27km/h | 19370m | 4.9m/s | -55.0°C | 6.3% | 64.9hPa | 2.6V | 00:00:00 | 01:13:59 | 00:00:00 | |
| SQ9EZE-16 | 2026-09-01 00:08:52 | 47.58423 | 19.79966 | 80° | 18km/h | 19370m | 4.9m/s | 0°C | 0% | 64.9hPa | 2.6V | 00:00:00 | 00:00:00 | 00:00:00 | |
| PETON7-10 | 2026-09-01 00:08:46 | 47.58412 | 19.79910 | 67° | 27km/h | 19329m | 6.0m/s | -54.9°C | 6.2% | 65.3hPa | 2.6V | 00:00:00 | 00:00:00 | 00:00:00 | |
| SQ9EZE-15 | 2026-09-01 00:08:37 | 47.58390 | 19.79815 | 78° | 26km/h | 19276m | 4.7m/s | 0°C | 0% | 0hPa | 2.6V | 00:00:00 | 00:00:00 | 00:00:00 | |
| PETON7-10 | 2026-09-01 00:08:31 | 47.58372 | 19.79765 | 51° | 33km/h | 19241m | 5.7m/s | -55.0°C | 6.3% | 66.2hPa | 2.6V | 00:00:00 | 00:00:00 | 00:00:00 | |
| OE5DRO-10 | 2026-09-01 00:08:30 | 47.58367 | 19.79756 | 55° | 27km/h | 19235m | 6.0m/s | -55.0°C | 6.2% | 66.3hPa | 2.6V | 00:00:00 | 00:00:00 | 08:30:00 | |
| OE3JTB-15 | 2026-09-01 00:08:24 | 47.58337 | 19.79695 | 46° | 20km/h | 19201m | 6.4m/s | -55.3°C | 6.3% | 66.6hPa | 2.6V | 00:00:00 | 00:00:00 | 00:00:00 | |
| GYPAP8-17 | 2026-09-01 00:08:23 | 47.58331 | 19.79686 | 50° | 35km/h | 19194m | 6.8m/s | -55.3°C | 2.7% | 66.7hPa | 2.6V | 00:00:00 | 00:00:00 | 00:00:00 | |
| SQ9EZE-16 | 2026-09-01 00:08:22 | 47.58326 | 19.79676 | 56° | 35km/h | 19189m | 3.9m/s | 0°C | 0% | 0hPa | 2.6V | 00:00:00 | 00:00:00 | 00:00:00 | |
| PETON7-10 | 2026-09-01 00:08:16 | 47.58298 | 19.79625 | 53° | 22km/h | 19156m | 5.5m/s | -55.1°C | 6.4% | 67.1hPa | 2.6V | 00:00:00 | 01:13:22 | 00:00:00 | |
| OE5DRO-10 | 2026-09-01 00:08:09 | 47.58270 | 19.79595 | 32° | 16km/h | 19114m | 4.5m/s | -55.0°C | 6.3% | 67.5hPa | 2.6V | 00:00:00 | 00:00:00 | 00:00:00 | |
| PETON7-10 | 2026-09-01 00:08:01 | 47.58230 | 19.79569 | 32° | 15km/h | 19069m | 5.5m/s | -54.7°C | 6.3% | 68.0hPa | 2.6V | 00:00:00 | 00:00:00 | 08:30:00 | |
| OE3JTB-15 | 2026-09-01 00:07:53 | 47.58209 | 19.79549 | 38° | 11km/h | 19029m | 5.5m/s | -54.5°C | 6.3% | 68.4hPa | 2.6V | 00:00:00 | 00:00:00 | 00:00:00 | |
| OE5DRO-10 | 2026-09-01 00:07:50 | 47.58197 | 19.79541 | 27° | 9km/h | 19012m | 5.9m/s | 0°C | 0% | 0hPa | 2.6V | 00:00:00 | 00:00:00 | 00:00:00 | |
| PETON7-10 | 2026-09-01 00:07:46 | 47.58180 | 19.79530 | 13° | 9km/h | 18991m | 4.9m/s | -54.5°C | 6.2% | 68.8hPa | 2.6V | 00:00:00 | 00:00:00 | 00:00:00 | |
| PETON7-10 | 2026-09-01 00:07:31 | 47.58158 | 19.79503 | 3° | 9km/h | 18909m | 5.5m/s | -54.4°C | 6.2% | 69.7hPa | 2.6V | 00:00:00 | 01:12:37 | 00:00:00 | |
| OE3JTB-15 | 2026-09-01 00:07:24 | 47.58149 | 19.79512 | 293° | 18km/h | 18871m | 5.4m/s | -54.5°C | 6.2% | 70.1hPa | 2.6V | 00:00:00 | 01:12:30 | 00:00:00 | |
| LZ4TU-5 | 2026-09-01 00:07:23 | 47.58149 | 19.79512 | 61° | 4km/h | 18866m | 5.6m/s | 0°C | 0% | 0hPa | 2.6V | 00:00:00 | 00:00:00 | 00:00:00 | |
| LZ4TU-5 | 2026-09-01 00:07:17 | 47.58134 | 19.79510 | 352° | 16km/h | 18838m | 6.6m/s | 0°C | 0% | 0hPa | 2.6V | 00:00:00 | 00:00:00 | 00:00:00 | |
| PETON7-10 | 2026-09-01 00:07:16 | 47.58125 | 19.79512 | 353° | 20km/h | 18826m | 6.0m/s | -54.5°C | 6.3% | 70.6hPa | 2.6V | 00:00:00 | 00:00:00 | 00:00:00 | |
| GYPAP8-17 | 2026-09-01 00:07:12 | 47.58105 | 19.79518 | 359° | 15km/h | 18804m | 6.0m/s | -54.6°C | 2.7% | 70.9hPa | 2.7V | 00:00:00 | 00:00:00 | 00:00:00 | |
| PETON7-10 | 2026-09-01 00:07:01 | 47.58047 | 19.79510 | 355° | 18km/h | 18739m | 6.0m/s | -54.6°C | 6.2% | 71.6hPa | 2.7V | 00:00:00 | 00:00:00 | 00:00:00 | |
| OE3JTB-15 | 2026-09-01 00:06:55 | 47.58012 | 19.79510 | 10° | 11km/h | 18706m | 7.1m/s | -54.7°C | 6.5% | 72.0hPa | 2.7V | 00:00:00 | 00:00:00 | 00:00:00 | |
| PETON7-10 | 2026-09-01 00:06:46 | 47.57981 | 19.79489 | 357° | 9km/h | 18656m | 5.7m/s | -54.4°C | 6.4% | 72.6hPa | 2.7V | 00:00:00 | 01:11:52 | 00:00:00 | |
| PETON7-10 | 2026-09-01 00:06:31 | 47.57953 | 19.79490 | 344° | 7km/h | 18563m | 5.4m/s | -54.0°C | 6.0% | 73.6hPa | 2.7V | 00:00:00 | 00:00:00 | 00:00:00 | |
| OE3JTB-15 | 2026-09-01 00:06:26 | 47.57942 | 19.79497 | 38° | 9km/h | 18534m | 6.7m/s | -54.4°C | 6.2% | 73.9hPa | 2.6V | 00:00:00 | 00:00:00 | 00:00:00 | |
| PETON7-10 | 2026-09-01 00:06:16 | 47.57946 | 19.79481 | 144° | 9km/h | 18468m | 8.3m/s | -54.3°C | 6.2% | 74.7hPa | 2.6V | 00:00:00 | 00:00:00 | 00:00:00 | |
| GYPAP8-17 | 2026-09-01 00:06:12 | 47.57947 | 19.79482 | 207° | 4km/h | 18449m | 7.8m/s | -54.4°C | 2.7% | 75.0hPa | 2.6V | 00:00:00 | 00:00:00 | 00:00:00 | |
| OE5DRO-10 | 2026-09-01 00:06:08 | 47.57957 | 19.79475 | 166° | 26km/h | 18413m | 7.1m/s | 0°C | 0% | 0hPa | 2.6V | 00:00:00 | 00:00:00 | 00:00:00 | |
| PETON7-10 | 2026-09-01 00:06:01 | 47.57975 | 19.79447 | 122° | 15km/h | 18373m | 6.1m/s | -54.7°C | 6.3% | 75.8hPa | 2.6V | 00:00:00 | 01:11:07 | 00:00:00 | |
| OE3JTB-15 | 2026-09-01 00:05:57 | 47.57984 | 19.79424 | 131° | 20km/h | 18348m | 6.0m/s | -55.2°C | 6.7% | 76.1hPa | 2.6V | 00:00:00 | 01:11:03 | 00:00:00 | |
| PETON7-10 | 2026-09-01 00:05:47 | 47.57985 | 19.79371 | 95° | 22km/h | 18278m | 7.0m/s | -55.0°C | 6.5% | 76.9hPa | 2.6V | 00:00:00 | 00:00:00 | 08:30:00 | |
| PETON7-10 | 2026-09-01 00:05:31 | 47.57996 | 19.79245 | 98° | 33km/h | 18180m | 5.7m/s | -54.7°C | 6.5% | 78.1hPa | 2.6V | 00:00:00 | 00:00:00 | 00:00:00 | |
| OE3JTB-15 | 2026-09-01 00:05:28 | 47.58002 | 19.79211 | 117° | 40km/h | 18160m | 6.0m/s | -54.8°C | 6.4% | 78.4hPa | 2.6V | 00:00:00 | 00:00:00 | 08:30:00 | |
| OE3JTB-15 | 2026-09-01 00:05:00 | 47.58028 | 19.78787 | 87° | 44km/h | 17982m | 6.0m/s | -54.8°C | 6.8% | 80.6hPa | 2.6V | 00:00:00 | 00:00:00 | 00:00:00 | |
| GYPAP8-17 | 2026-09-01 00:04:50 | 47.58023 | 19.78634 | 84° | 42km/h | 17926m | 7.1m/s | -54.6°C | 3.0% | 81.3hPa | 2.6V | 00:00:00 | 00:00:00 | 00:00:00 | |
| PETON7-10 | 2026-09-01 00:04:49 | 47.58019 | 19.78584 | 82° | 46km/h | 17906m | 5.9m/s | -54.4°C | 6.3% | 81.6hPa | 2.6V | 00:00:00 | 00:00:00 | 00:00:00 | |
| OE3JTB-15 | 2026-09-01 00:04:32 | 47.57992 | 19.78324 | 80° | 40km/h | 17809m | 3.5m/s | -55.1°C | 6.4% | 82.8hPa | 2.6V | 00:00:00 | 01:09:36 | 00:00:00 | |
| OE3JTB-15 | 2026-09-01 00:04:02 | 47.57920 | 19.77912 | 61° | 37km/h | 17647m | 5.2m/s | -55.8°C | 6.9% | 84.9hPa | 2.6V | 00:00:00 | 00:00:00 | 00:00:00 | |
| PETON7-10 | 2026-09-01 00:04:00 | 47.57916 | 19.77899 | 61° | 38km/h | 17641m | 5.5m/s | -55.8°C | 6.9% | 85.0hPa | 2.6V | 00:00:00 | 00:00:00 | 00:00:00 | |
| GYPAP8-17 | 2026-09-01 00:03:50 | 47.57846 | 19.77751 | 50° | 37km/h | 17568m | 5.0m/s | -55.7°C | 3.0% | 86.0hPa | 2.6V | 00:00:00 | 00:00:00 | 00:00:00 | |
| PETON7-10 | 2026-09-01 00:03:48 | 47.57834 | 19.77727 | 59° | 37km/h | 17557m | 4.1m/s | -55.7°C | 6.7% | 86.1hPa | 2.6V | 00:00:00 | 01:08:51 | 00:00:00 | |
| OE3JTB-15 | 2026-09-01 00:03:41 | 47.57752 | 19.77607 | 38° | 37km/h | 17487m | 5.9m/s | -55.8°C | 7.0% | 87.1hPa | 2.6V | 00:00:00 | 00:00:00 | 00:00:00 | |
| PETON7-10 | 2026-09-01 00:03:33 | 47.57657 | 19.77464 | 47° | 38km/h | 17385m | 7.5m/s | -55.0°C | 6.7% | 88.5hPa | 2.6V | 00:00:00 | 00:00:00 | 00:00:00 | |
| OE3JTB-15 | 2026-09-01 00:03:24 | 47.57610 | 19.77302 | 50° | 38km/h | 17303m | 7.7m/s | -54.7°C | 6.2% | 89.6hPa | 2.6V | 00:00:00 | 01:08:09 | 00:00:00 | |
| OE5DRO-10 | 2026-09-01 00:03:22 | 47.57605 | 19.77285 | 72° | 37km/h | 17291m | 4.1m/s | 0°C | 0% | 0hPa | 2.6V | 00:00:00 | 00:00:00 | 00:00:00 | |
| PETON7-10 | 2026-09-01 00:03:20 | 47.57602 | 19.77273 | 73° | 38km/h | 17286m | 5.4m/s | -54.9°C | 6.5% | 89.9hPa | 2.6V | 00:00:00 | 01:08:06 | 00:00:00 | |
| PETON7-10 | 2026-09-01 00:03:03 | 47.57567 | 19.77062 | 82° | 40km/h | 17207m | 3.9m/s | -55.1°C | 6.6% | 91.0hPa | 2.6V | 00:00:00 | 00:00:00 | 00:00:00 | |
| OE5DRO-10 | 2026-09-01 00:02:58 | 47.57565 | 19.77013 | 89° | 38km/h | 17192m | 3.9m/s | 0°C | 0% | 0hPa | 2.7V | 00:00:00 | 00:00:00 | 00:00:00 | |
| OE3JTB-15 | 2026-09-01 00:02:46 | 47.57547 | 19.76890 | 71° | 35km/h | 17152m | 4.5m/s | -55.1°C | 6.6% | 91.8hPa | 2.7V | 00:00:00 | 00:00:00 | 00:00:00 | |
| PETON7-10 | 2026-09-01 00:02:43 | 47.57541 | 19.76843 | 86° | 33km/h | 17130m | 5.0m/s | -55.1°C | 6.4% | 92.1hPa | 2.7V | 00:00:00 | 00:00:00 | 00:00:00 | |
| GYPAP8-17 | 2026-09-01 00:02:35 | 47.57535 | 19.76803 | 75° | 38km/h | 17114m | 5.5m/s | -55.3°C | 2.9% | 92.3hPa | 2.7V | 00:00:00 | 00:00:00 | 00:00:00 | |
| OE5DRO-10 | 2026-09-01 00:02:30 | 47.57527 | 19.76751 | 74° | 33km/h | 17090m | 7.3m/s | 0°C | 0% | 0hPa | 2.7V | 00:00:00 | 00:00:00 | 00:00:00 | |
| PETON7-10 | 2026-09-01 00:02:18 | 47.57523 | 19.76661 | 91° | 40km/h | 17050m | 6.5m/s | -55.7°C | 6.5% | 93.2hPa | 2.7V | 00:00:00 | 01:07:21 | 00:00:00 | |
| OE3JTB-15 | 2026-09-01 00:02:06 | 47.57546 | 19.76526 | 119° | 57km/h | 16991m | 6.6m/s | -56.1°C | 6.6% | 94.1hPa | 2.7V | 00:00:00 | 00:00:00 | 00:00:00 | |
| OE5DRO-10 | 2026-09-01 00:02:04 | 47.57551 | 19.76512 | 118° | 51km/h | 16985m | 6.2m/s | 0°C | 0% | 0hPa | 2.7V | 00:00:00 | 00:00:00 | 00:00:00 | |
| PETON7-10 | 2026-09-01 00:02:01 | 47.57597 | 19.76154 | 91° | 71km/h | 16881m | 5.0m/s | -57.4°C | 7.5% | 95.7hPa | 2.7V | 00:00:00 | 00:00:00 | 00:00:00 | |
| OE3JTB-15 | 2026-09-01 00:01:47 | 47.57610 | 19.75923 | 91° | 68km/h | 16831m | 5.1m/s | -57.3°C | 7.7% | 96.5hPa | 2.7V | 00:00:00 | 01:06:42 | 00:00:00 | |
| PETON7-10 | 2026-09-01 00:01:40 | 47.57612 | 19.75757 | 96° | 68km/h | 16797m | 6.9m/s | -57.1°C | 7.5% | 97.0hPa | 2.7V | 00:00:00 | 01:06:36 | 00:00:00 | |
| OE5DRO-10 | 2026-09-01 00:01:37 | 47.57620 | 19.75664 | 97° | 66km/h | 16775m | 5.6m/s | 0°C | 0% | 0hPa | 2.7V | 00:00:00 | 00:00:00 | 00:00:00 | |
| PETON7-10 | 2026-09-01 00:01:20 | 47.57614 | 19.75379 | 92° | 60km/h | 16711m | 6.9m/s | -57.1°C | 7.3% | 98.4hPa | 2.7V | 00:00:00 | 00:00:00 | 08:30:00 | |
| GYPAP8-17 | 2026-09-01 00:01:17 | 47.57614 | 19.75357 | 90° | 55km/h | 16704m | 7.2m/s | -57.2°C | 3.5% | 98.5hPa | 2.7V | 00:00:00 | 00:00:00 | 00:00:00 | |
| OE3OSB-13 | 2026-09-01 00:00:47 | 47.57427 | 19.74375 | 67° | 44km/h | 16425m | 6.8m/s | -60.8°C | 4.5% | 103.0hPa | 2.7V | 00:00:00 | 00:00:00 | 00:00:00 | |
| PETON7-10 | 2026-09-01 00:00:30 | 47.57440 | 19.74427 | 70° | 46km/h | 16445m | 6.7m/s | -60.8°C | 9.4% | 102.7hPa | 2.7V | 00:00:00 | 00:00:00 | 00:00:00 | |
| PETON7-10 | 2026-09-01 00:00:20 | 47.57384 | 19.74195 | 63° | 44km/h | 16349m | 5.3m/s | -60.3°C | 9.3% | 104.2hPa | 2.7V | 00:00:00 | 00:00:00 | 00:00:00 | |
| OE3OSB-13 | 2026-09-01 00:00:19 | 47.57356 | 19.74096 | 74° | 47km/h | 16316m | 5.2m/s | -60.1°C | 4.5% | 104.9hPa | 2.7V | 00:00:00 | 00:00:00 | 00:00:00 | |
| OE3JTB-15 | 2026-09-01 00:00:09 | 47.57356 | 19.74095 | 75° | 42km/h | 16316m | 5.1m/s | -60.1°C | 9.3% | 104.8hPa | 2.7V | 00:00:00 | 01:05:15 | 00:00:00 | |
| PETON7-10 | 2026-09-01 00:00:00 | 47.57327 | 19.73962 | 61° | 40km/h | 16264m | 3.9m/s | -59.6°C | 8.9% | 105.7hPa | 2.7V | 00:00:00 | 01:05:06 | 00:00:00 | |
| PETON7-10 | 2026-08-31 23:59:45 | 47.57268 | 19.73751 | 68° | 37km/h | 16177m | 7.4m/s | -59.2°C | 8.7% | 107.2hPa | 2.7V | 00:00:00 | 00:00:00 | 00:00:00 | |
| OE3OSB-13 | 2026-08-31 23:59:43 | 47.57248 | 19.73694 | 59° | 35km/h | 16153m | 4.2m/s | -59.2°C | 4.3% | 107.7hPa | 2.7V | 00:00:00 | 00:00:00 | 00:00:00 | |
| OE3JTB-15 | 2026-08-31 23:59:40 | 47.57243 | 19.73683 | 57° | 31km/h | 16149m | 5.6m/s | -59.2°C | 8.7% | 107.7hPa | 2.7V | 00:00:00 | 00:00:00 | 00:00:00 | |
| PETON7-10 | 2026-08-31 23:59:30 | 47.57191 | 19.73579 | 76° | 29km/h | 16091m | 5.1m/s | -58.8°C | 8.9% | 108.7hPa | 2.7V | 00:00:00 | 00:00:00 | 00:00:00 | |
| PETON7-10 | 2026-08-31 23:59:15 | 47.57153 | 19.73426 | 75° | 29km/h | 15988m | 7.6m/s | -58.0°C | 8.4% | 110.5hPa | 2.7V | 00:00:00 | 01:04:21 | 00:00:00 | |
| OE3JTB-15 | 2026-08-31 23:59:12 | 47.57155 | 19.73386 | 110° | 22km/h | 15961m | 8.3m/s | -57.8°C | 8.2% | 110.9hPa | 2.7V | 00:00:00 | 00:00:00 | 00:00:00 | |
| OE3OSB-13 | 2026-08-31 23:59:11 | 47.57157 | 19.73377 | 96° | 26km/h | 15953m | 8.2m/s | -57.8°C | 4.2% | 111.1hPa | 2.7V | 00:00:00 | 00:00:00 | 00:00:00 | |
| PETON7-10 | 2026-08-31 23:59:00 | 47.57136 | 19.73275 | 107° | 20km/h | 15889m | 8.1m/s | -57.4°C | 8.3% | 112.2hPa | 2.7V | 00:00:00 | 00:00:00 | 08:30:00 | |
| GYPAP8-17 | 2026-08-31 23:58:49 | 47.57129 | 19.73212 | 90° | 20km/h | 15827m | 5.9m/s | -57.2°C | 4.2% | 113.4hPa | 2.7V | 00:00:00 | 00:00:00 | 00:00:00 | |
| PETON7-10 | 2026-08-31 23:58:44 | 47.57134 | 19.73167 | 107° | 26km/h | 15790m | 6.9m/s | -57.0°C | 8.2% | 114.0hPa | 2.7V | 00:00:00 | 00:00:00 | 00:00:00 | |
| OE3JTB-15 | 2026-08-31 23:58:42 | 47.57135 | 19.73155 | 72° | 29km/h | 15776m | 8.1m/s | -56.9°C | 8.1% | 114.3hPa | 2.7V | 00:00:00 | 01:03:48 | 00:00:00 | |
| PETON7-10 | 2026-08-31 23:58:29 | 47.57124 | 19.73041 | 55° | 31km/h | 15689m | 7.2m/s | -56.8°C | 8.6% | 115.8hPa | 2.7V | 00:00:00 | 01:03:35 | 00:00:00 | |
| PETON7-10 | 2026-08-31 23:58:14 | 47.57081 | 19.72884 | 69° | 47km/h | 15547m | 10.6m/s | -56.3°C | 8.3% | 118.5hPa | 2.7V | 00:00:00 | 00:00:00 | 00:00:00 | |
| OE3JTB-15 | 2026-08-31 23:58:13 | 47.57077 | 19.72872 | 60° | 58km/h | 15536m | 10.9m/s | -56.2°C | 8.1% | 118.6hPa | 2.7V | 00:00:00 | 00:00:00 | 00:00:00 | |
| OE3OSB-13 | 2026-08-31 23:58:09 | 47.57053 | 19.72787 | 73° | 55km/h | 15476m | 13.7m/s | -55.7°C | 4.0% | 119.8hPa | 2.7V | 00:00:00 | 00:00:00 | 00:00:00 | |
| PETON7-10 | 2026-08-31 23:57:59 | 47.57042 | 19.72627 | 87° | 66km/h | 15373m | 12.5m/s | -56.4°C | 7.9% | 121.7hPa | 2.7V | 00:00:00 | 00:00:00 | 00:00:00 | |
| PETON7-10 | 2026-08-31 23:57:44 | 47.57008 | 19.72259 | 74° | 77km/h | 15212m | 4.6m/s | -58.0°C | 9.3% | 124.8hPa | 2.7V | 00:00:00 | 01:02:50 | 00:00:00 | |
| GYPAP8-17 | 2026-08-31 23:57:37 | 47.56973 | 19.72101 | 75° | 75km/h | 15177m | 5.9m/s | -57.9°C | 4.8% | 125.6hPa | 2.7V | 00:00:00 | 00:00:00 | 00:00:00 | |
| PETON7-10 | 2026-08-31 23:57:29 | 47.56926 | 19.71841 | 70° | 82km/h | 15123m | 6.5m/s | -57.8°C | 9.1% | 126.5hPa | 2.7V | 00:00:00 | 00:00:00 | 00:00:00 | |
| OE3JTB-15 | 2026-08-31 23:57:15 | 47.56819 | 19.71449 | 64° | 78km/h | 15042m | 4.9m/s | -57.8°C | 9.5% | 128.2hPa | 2.7V | 00:00:00 | 01:02:21 | 00:00:00 | |
| PETON7-10 | 2026-08-31 23:57:14 | 47.56809 | 19.71421 | 65° | 78km/h | 15037m | 4.9m/s | -57.7°C | 9.5% | 128.3hPa | 2.7V | 00:00:00 | 00:00:00 | 00:00:00 | |
| OE3OSB-13 | 2026-08-31 23:57:06 | 47.56748 | 19.71211 | 62° | 84km/h | 14987m | 6.5m/s | -57.3°C | 4.7% | 129.4hPa | 2.7V | 00:00:00 | 00:00:00 | 00:00:00 | |
| PETON7-10 | 2026-08-31 23:56:57 | 47.56668 | 19.70971 | 70° | 77km/h | 14933m | 4.5m/s | -57.0°C | 9.0% | 130.4hPa | 2.7V | 00:00:00 | 01:02:03 | 00:00:00 | |
| OE3JTB-15 | 2026-08-31 23:56:46 | 47.56588 | 19.70680 | 70° | 80km/h | 14866m | 3.2m/s | -56.6°C | 8.8% | 131.8hPa | 2.7V | 00:00:00 | 00:00:00 | 08:30:00 | |
| PETON7-10 | 2026-08-31 23:56:42 | 47.56562 | 19.70574 | 69° | 82km/h | 14843m | 7.2m/s | -56.5°C | 8.7% | 132.3hPa | 2.7V | 00:00:00 | 00:00:00 | 08:30:00 | |
| OE3OSB-13 | 2026-08-31 23:56:35 | 47.56509 | 19.70365 | 73° | 84km/h | 14800m | 4.1m/s | -56.3°C | 4.7% | 133.2hPa | 2.7V | 00:00:00 | 00:00:00 | 00:00:00 | |
| GYPAP8-17 | 2026-08-31 23:56:29 | 47.56480 | 19.70221 | 74° | 78km/h | 14769m | 5.0m/s | -56.1°C | 4.6% | 133.9hPa | 2.7V | 00:00:00 | 00:00:00 | 00:00:00 | |
| PETON7-10 | 2026-08-31 23:56:27 | 47.56460 | 19.70138 | 71° | 78km/h | 14750m | 5.4m/s | -55.9°C | 8.5% | 134.2hPa | 2.7V | 00:00:00 | 00:00:00 | 00:00:00 | |
| OE3JTB-15 | 2026-08-31 23:56:16 | 47.56402 | 19.69824 | 72° | 88km/h | 14680m | 5.8m/s | -55.9°C | 8.5% | 135.7hPa | 2.7V | 00:00:00 | 00:00:00 | 00:00:00 | |
| PETON7-10 | 2026-08-31 23:56:12 | 47.56377 | 19.69710 | 75° | 86km/h | 14659m | 4.1m/s | -55.8°C | 8.6% | 136.2hPa | 2.7V | 00:00:00 | 01:01:18 | 00:00:00 | |
| OE3OSB-13 | 2026-08-31 23:56:04 | 47.56331 | 19.69428 | 80° | 89km/h | 14609m | 6.2m/s | -55.9°C | 4.7% | 137.2hPa | 2.7V | 00:00:00 | 00:00:00 | 00:00:00 | |
| PETON7-10 | 2026-08-31 23:55:57 | 47.56301 | 19.69242 | 73° | 93km/h | 14576m | 5.1m/s | -56.0°C | 8.8% | 137.9hPa | 2.7V | 00:00:00 | 00:00:00 | 00:00:00 | |
| OE3JTB-15 | 2026-08-31 23:55:47 | 47.56243 | 19.68907 | 75° | 97km/h | 14519m | 5.2m/s | -56.1°C | 9.1% | 139.2hPa | 2.7V | 00:00:00 | 01:00:53 | 00:00:00 | |
| PETON7-10 | 2026-08-31 23:55:42 | 47.56210 | 19.68743 | 75° | 97km/h | 14489m | 4.6m/s | -55.9°C | 8.8% | 139.9hPa | 2.7V | 00:00:00 | 00:00:00 | 00:00:00 | |
| PETON7-10 | 2026-08-31 23:55:27 | 47.56103 | 19.68223 | 74° | 97km/h | 14409m | 4.1m/s | -56.2°C | 8.6% | 141.6hPa | 2.7V | 00:00:00 | 01:00:33 | 00:00:00 | |
| GYPAP8-17 | 2026-08-31 23:55:26 | 47.56095 | 19.68188 | 73° | 99km/h | 14403m | 8.6m/s | -56.4°C | 4.8% | 141.8hPa | 2.7V | 00:00:00 | 00:00:00 | 00:00:00 | |
| OE3JTB-15 | 2026-08-31 23:55:18 | 47.56024 | 19.67904 | 71° | 93km/h | 14352m | 6.5m/s | -56.9°C | 9.2% | 142.9hPa | 2.7V | 00:00:00 | 00:00:00 | 00:00:00 | |
| PETON7-10 | 2026-08-31 23:55:12 | 47.55975 | 19.67713 | 72° | 93km/h | 14317m | 5.2m/s | -57.1°C | 8.9% | 143.7hPa | 2.7V | 00:00:00 | 00:00:00 | 00:00:00 | |
| OE3OSB-13 | 2026-08-31 23:55:02 | 47.55769 | 19.67121 | 56° | 100km/h | 14221m | 4.0m/s | -57.5°C | 5.1% | 145.9hPa | 2.7V | 00:00:00 | 00:00:00 | 00:00:00 | |
| PETON7-10 | 2026-08-31 23:54:57 | 47.55817 | 19.67254 | 65° | 93km/h | 14241m | 4.8m/s | -57.6°C | 9.6% | 145.4hPa | 2.7V | 00:00:00 | 00:00:00 | 00:00:00 | |
| OE3JTB-15 | 2026-08-31 23:54:49 | 47.55715 | 19.67013 | 55° | 93km/h | 14201m | 7.4m/s | -57.4°C | 9.3% | 146.3hPa | 2.7V | 00:00:00 | 00:00:00 | 00:00:00 | |
| PETON7-10 | 2026-08-31 23:54:42 | 47.55645 | 19.66800 | 67° | 91km/h | 14139m | 8.7m/s | -57.3°C | 9.5% | 147.7hPa | 2.7V | 00:00:00 | 00:59:48 | 00:00:00 | |
| OE3OSB-13 | 2026-08-31 23:54:31 | 47.55534 | 19.66357 | 71° | 99km/h | 14046m | 5.0m/s | -57.4°C | 5.1% | 150.0hPa | 2.7V | 00:00:00 | 00:00:00 | 00:00:00 | |
| PETON7-10 | 2026-08-31 23:54:27 | 47.55526 | 19.66321 | 72° | 93km/h | 14040m | 8.5m/s | -57.4°C | 9.3% | 150.1hPa | 2.7V | 00:00:00 | 00:00:00 | 08:30:00 | |
| OE3JTB-15 | 2026-08-31 23:54:19 | 47.55476 | 19.66048 | 77° | 102km/h | 13992m | 7.9m/s | -57.1°C | 9.5% | 151.2hPa | 2.7V | 00:00:00 | 00:59:25 | 00:00:00 | |
| GYPAP8-17 | 2026-08-31 23:54:16 | 47.55465 | 19.65982 | 77° | 93km/h | 13983m | 4.6m/s | -57.2°C | 5.1% | 151.5hPa | 2.7V | 00:00:00 | 00:00:00 | 00:00:00 | |
| PETON7-10 | 2026-08-31 23:54:12 | 47.55437 | 19.65817 | 79° | 100km/h | 13944m | 6.2m/s | -56.9°C | 9.3% | 152.5hPa | 2.7V | 00:00:00 | 00:00:00 | 00:00:00 | |
| OE3OSB-13 | 2026-08-31 23:54:00 | 47.55390 | 19.65371 | 84° | 100km/h | 13859m | 3.6m/s | -56.4°C | 5.3% | 154.6hPa | 2.7V | 00:00:00 | 00:00:00 | 00:00:00 | |
| PETON7-10 | 2026-08-31 23:53:57 | 47.55377 | 19.65253 | 79° | 104km/h | 13839m | 4.9m/s | -56.2°C | 9.3% | 155.0hPa | 2.7V | 00:00:00 | 00:59:03 | 00:00:00 | |
| OE3JTB-15 | 2026-08-31 23:53:50 | 47.55374 | 19.64961 | 100° | 122km/h | 13778m | 6.4m/s | -55.5°C | 8.5% | 156.4hPa | 2.7V | 00:00:00 | 00:00:00 | 00:00:00 | |
| PETON7-10 | 2026-08-31 23:53:42 | 47.55347 | 19.64681 | 76° | 106km/h | 13714m | 8.7m/s | -55.1°C | 8.4% | 158.0hPa | 2.7V | 00:00:00 | 00:00:00 | 00:00:00 | |
| OE3OSB-13 | 2026-08-31 23:53:29 | 47.55305 | 19.64179 | 78° | 120km/h | 13606m | 10.6m/s | -54.8°C | 4.9% | 160.8hPa | 2.7V | 00:00:00 | 00:00:00 | 00:00:00 | |
| PETON7-10 | 2026-08-31 23:53:27 | 47.55290 | 19.64090 | 77° | 115km/h | 13587m | 8.1m/s | -54.6°C | 8.9% | 161.1hPa | 2.7V | 00:00:00 | 00:00:00 | 00:00:00 | |
| PETON7-10 | 2026-08-31 23:53:12 | 47.55228 | 19.63458 | 82° | 122km/h | 13442m | 10.7m/s | -53.9°C | 8.4% | 164.7hPa | 2.7V | 00:00:00 | 00:58:18 | 00:00:00 | |
| OE3OSB-13 | 2026-08-31 23:52:59 | 47.55104 | 19.62794 | 75° | 126km/h | 13332m | 9.2m/s | -53.5°C | 4.9% | 167.7hPa | 2.7V | 00:00:00 | 00:00:00 | 00:00:00 | |
| PETON7-10 | 2026-08-31 23:52:57 | 47.55103 | 19.62794 | 76° | 128km/h | 13332m | 9.2m/s | -53.4°C | 8.3% | 167.6hPa | 2.7V | 00:00:00 | 00:00:00 | 00:00:00 | |
| PETON7-10 | 2026-08-31 23:52:42 | 47.54955 | 19.62117 | 71° | 128km/h | 13235m | 8.0m/s | -53.4°C | 8.5% | 170.2hPa | 2.7V | 00:00:00 | 00:00:00 | 00:00:00 | |
| GYPAP8-17 | 2026-08-31 23:52:40 | 47.54945 | 19.62072 | 73° | 128km/h | 13229m | 4.4m/s | -53.4°C | 5.0% | 170.4hPa | 2.7V | 00:00:00 | 00:00:00 | 00:00:00 | |
| PETON7-10 | 2026-08-31 23:52:27 | 47.54813 | 19.61432 | 69° | 133km/h | 13153m | 4.0m/s | -53.5°C | 8.4% | 172.4hPa | 2.7V | 00:00:00 | 00:57:33 | 00:00:00 | |
| PETON7-10 | 2026-08-31 23:52:12 | 47.54662 | 19.60717 | 77° | 126km/h | 13078m | 4.8m/s | -53.1°C | 8.2% | 174.3hPa | 2.7V | 00:00:00 | 00:00:00 | 08:30:00 | |
| OE3OSB-13 | 2026-08-31 23:51:56 | 47.54495 | 19.59956 | 71° | 128km/h | 12988m | 7.1m/s | -52.9°C | 4.7% | 176.9hPa | 2.7V | 00:00:00 | 00:00:00 | 00:00:00 | |
| OE3JTB-15 | 2026-08-31 23:51:53 | 47.54475 | 19.59864 | 74° | 130km/h | 12977m | 4.0m/s | -52.8°C | 7.9% | 177.2hPa | 2.7V | 00:00:00 | 00:56:59 | 00:00:00 | |
| GYPAP8-17 | 2026-08-31 23:51:38 | 47.54319 | 19.59194 | 70° | 131km/h | 12892m | 5.4m/s | -53.3°C | 5.3% | 179.6hPa | 2.7V | 00:00:00 | 00:00:00 | 00:00:00 | |
| PETON7-10 | 2026-08-31 23:51:27 | 47.54219 | 19.58681 | 70° | 139km/h | 12828m | 6.4m/s | -53.4°C | 9.6% | 181.2hPa | 2.7V | 00:00:00 | 00:00:00 | 00:00:00 | |
| OE3OSB-13 | 2026-08-31 23:51:25 | 47.54184 | 19.58535 | 72° | 144km/h | 12813m | 4.0m/s | -53.4°C | 5.9% | 181.8hPa | 2.7V | 00:00:00 | 00:00:00 | 00:00:00 | |
| OE3JTB-15 | 2026-08-31 23:51:24 | 47.54184 | 19.58535 | 73° | 141km/h | 12813m | 3.9m/s | -53.4°C | 9.5% | 181.7hPa | 2.7V | 00:00:00 | 00:00:00 | 08:30:00 | |
| PETON7-10 | 2026-08-31 23:51:12 | 47.54053 | 19.57941 | 67° | 142km/h | 12749m | 6.0m/s | -54.1°C | 10.3% | 183.6hPa | 2.7V | 00:00:00 | 00:00:00 | 00:00:00 | |
| OE3OSB-13 | 2026-08-31 23:50:54 | 47.53816 | 19.56944 | 73° | 131km/h | 12655m | 4.6m/s | -55.0°C | 8.2% | 186.3hPa | 2.7V | 00:00:00 | 00:00:00 | 00:00:00 | |
| PETON7-10 | 2026-08-31 23:50:42 | 47.53677 | 19.56435 | 70° | 155km/h | 12596m | 8.5m/s | -55.1°C | 12.7% | 188.0hPa | 2.7V | 00:00:00 | 00:00:00 | 00:00:00 | |
| GYPAP8-17 | 2026-08-31 23:50:37 | 47.53566 | 19.56003 | 68° | 153km/h | 12544m | 3.7m/s | -54.9°C | 8.8% | 189.6hPa | 2.7V | 00:00:00 | 00:00:00 | 00:00:00 | |
| OE3JTB-15 | 2026-08-31 23:50:36 | 47.53443 | 19.55575 | 66° | 137km/h | 12501m | 6.3m/s | -54.5°C | 12.4% | 190.9hPa | 2.7V | 00:00:00 | 00:55:32 | 00:00:00 | |
| PETON7-10 | 2026-08-31 23:50:35 | 47.53443 | 19.55575 | 66° | 150km/h | 12501m | 6.3m/s | -54.5°C | 12.4% | 190.9hPa | 2.7V | 00:00:00 | 00:00:00 | 00:00:00 | |
| OE3OSB-13 | 2026-08-31 23:50:32 | 47.53315 | 19.55172 | 69° | 142km/h | 12448m | 4.8m/s | -54.3°C | 8.2% | 192.4hPa | 2.7V | 00:00:00 | 00:00:00 | 00:00:00 | |
| PETON7-10 | 2026-08-31 23:50:11 | 47.53217 | 19.54806 | 70° | 142km/h | 12410m | 8.2m/s | -54.5°C | 12.9% | 193.6hPa | 2.7V | 00:00:00 | 00:55:17 | 00:00:00 | |
| OE3OSB-13 | 2026-08-31 23:49:51 | 47.52973 | 19.53830 | 74° | 128km/h | 12289m | 1.8m/s | -53.9°C | 8.9% | 197.3hPa | 2.7V | 00:00:00 | 00:00:00 | 00:00:00 | |
| PETON7-10 | 2026-08-31 23:49:41 | 47.52829 | 19.53385 | 58° | 133km/h | 12229m | 3.9m/s | -53.4°C | 12.8% | 199.0hPa | 2.7V | 00:00:00 | 00:00:00 | 00:00:00 | |
| OE3JTB-15 | 2026-08-31 23:49:39 | 47.52797 | 19.53312 | 60° | 133km/h | 12216m | 7.9m/s | -53.2°C | 13.1% | 199.4hPa | 2.7V | 00:00:00 | 00:00:00 | 00:00:00 | |
| GYPAP8-17 | 2026-08-31 23:49:32 | 47.52700 | 19.52992 | 65° | 135km/h | 12172m | 2.4m/s | -53.0°C | 9.6% | 200.9hPa | 2.7V | 00:00:00 | 00:00:00 | 00:00:00 | |
| PETON7-10 | 2026-08-31 23:49:26 | 47.52601 | 19.52716 | 63° | 128km/h | 12133m | 7.2m/s | -52.7°C | 13.4% | 202.0hPa | 2.7V | 00:00:00 | 00:54:32 | 00:00:00 | |
| OE3OSB-13 | 2026-08-31 23:49:21 | 47.52518 | 19.52481 | 59° | 102km/h | 12089m | 9.6m/s | -52.3°C | 9.1% | 203.4hPa | 2.7V | 00:00:00 | 00:00:00 | 00:00:00 | |
| PETON7-10 | 2026-08-31 23:49:11 | 47.52398 | 19.52075 | 66° | 120km/h | 12018m | 5.7m/s | -52.3°C | 15.1% | 205.7hPa | 2.7V | 00:00:00 | 00:00:00 | 00:00:00 | |
| OE3JTB-15 | 2026-08-31 23:49:10 | 47.52384 | 19.52029 | 64° | 124km/h | 12013m | 3.1m/s | -52.4°C | 15.3% | 205.8hPa | 2.7V | 00:00:00 | 00:00:00 | 00:00:00 | |
| OE3OSB-13 | 2026-08-31 23:48:49 | 47.52219 | 19.51117 | 81° | 133km/h | 11870m | 7.7m/s | -53.0°C | 15.9% | 210.3hPa | 2.7V | 00:00:00 | 00:00:00 | 00:00:00 | |
| PETON7-10 | 2026-08-31 23:48:41 | 47.52166 | 19.50741 | 76° | 124km/h | 11818m | 7.0m/s | -53.1°C | 23.8% | 212.1hPa | 2.7V | 00:00:00 | 00:53:47 | 00:00:00 | |
| OE3JTB-15 | 2026-08-31 23:48:30 | 47.52107 | 19.50250 | 82° | 120km/h | 11741m | 5.9m/s | -53.6°C | 31.1% | 214.7hPa | 2.7V | 00:00:00 | 00:53:36 | 00:00:00 | |
| GYPAP8-17 | 2026-08-31 23:48:27 | 47.52095 | 19.50155 | 79° | 133km/h | 11726m | 8.1m/s | -53.8°C | 25.8% | 215.2hPa | 2.7V | 00:00:00 | 00:00:00 | 00:00:00 | |
| PETON7-10 | 2026-08-31 23:48:26 | 47.52082 | 19.50056 | 79° | 124km/h | 11714m | 5.8m/s | -54.0°C | 35.4% | 215.6hPa | 2.7V | 00:00:00 | 00:00:00 | 00:00:00 | |
| OE3OSB-13 | 2026-08-31 23:48:19 | 47.52039 | 19.49682 | 75° | 108km/h | 11656m | 7.6m/s | 0°C | -1.0% | -1.0hPa | 2.9V | 00:00:00 | 00:00:00 | 00:00:00 | |
| PETON7-10 | 2026-08-31 23:48:11 | 47.51986 | 19.49382 | 74° | 108km/h | 11601m | 7.6m/s | -54.3°C | 46.4% | 219.4hPa | 2.9V | 00:00:00 | 00:00:00 | 00:00:00 | |
| OE3OSB-13 | 2026-08-31 23:47:47 | 47.51716 | 19.48484 | 57° | 89km/h | 11426m | 6.6m/s | 0°C | -1.0% | -1.0hPa | 2.9V | 00:00:00 | 00:00:00 | 00:00:00 | |
| PETON7-10 | 2026-08-31 23:47:41 | 47.51656 | 19.48298 | 63° | 111km/h | 11384m | 7.2m/s | -53.4°C | 47.6% | 227.0hPa | 2.9V | 00:00:00 | 00:00:00 | 08:30:00 | |
| OE3JTB-15 | 2026-08-31 23:47:32 | 47.51527 | 19.47993 | 58° | 115km/h | 11325m | 9.4m/s | -53.0°C | 46.1% | 229.0hPa | 2.9V | 00:00:00 | 00:00:00 | 00:00:00 | |
| PETON7-10 | 2026-08-31 23:47:26 | 47.51436 | 19.47769 | 58° | 117km/h | 11277m | 9.0m/s | -52.7°C | 48.0% | 230.6hPa | 2.9V | 00:00:00 | 00:00:00 | 00:00:00 | |
| GYPAP8-17 | 2026-08-31 23:47:25 | 47.51436 | 19.47769 | 58° | 131km/h | 11277m | 9.1m/s | -52.8°C | 0% | 0hPa | 2.9V | 00:00:00 | 00:00:00 | 00:00:00 | |
| PETON7-10 | 2026-08-31 23:47:11 | 47.51175 | 19.47245 | 61° | 115km/h | 11179m | 8.6m/s | -52.7°C | 68.4% | 234.1hPa | 2.9V | 00:00:00 | 00:52:17 | 00:00:00 | |
| OE3JTB-15 | 2026-08-31 23:47:03 | 47.51034 | 19.46968 | 46° | 106km/h | 11130m | 3.9m/s | -52.8°C | 88.7% | 236.0hPa | 2.9V | 00:00:00 | 00:52:09 | 00:00:00 | |
| PETON7-10 | 2026-08-31 23:46:56 | 47.50904 | 19.46747 | 51° | 108km/h | 11088m | 6.3m/s | -52.5°C | 87.1% | 237.5hPa | 2.9V | 00:00:00 | 00:00:00 | 00:00:00 | |
| PETON7-10 | 2026-08-31 23:46:41 | 47.50647 | 19.46282 | 57° | 100km/h | 11000m | 2.2m/s | -52.4°C | 95.5% | 240.8hPa | 2.9V | 00:00:00 | 00:00:00 | 00:00:00 | |
| OE3JTB-15 | 2026-08-31 23:46:34 | 47.50537 | 19.46089 | 56° | 97km/h | 10955m | 5.6m/s | -52.1°C | 86.2% | 242.4hPa | 2.9V | 00:00:00 | 00:00:00 | 08:30:00 | |
| PETON7-10 | 2026-08-31 23:46:26 | 47.50400 | 19.45853 | 48° | 93km/h | 10899m | 6.9m/s | -51.7°C | 78.1% | 244.5hPa | 2.9V | 00:00:00 | 00:51:32 | 00:00:00 | |
| GYPAP8-17 | 2026-08-31 23:46:22 | 47.50355 | 19.45775 | 53° | 91km/h | 10880m | 7.3m/s | -51.7°C | 0% | 0hPa | 2.9V | 00:00:00 | 00:00:00 | 00:00:00 | |
| PETON7-10 | 2026-08-31 23:46:11 | 47.50185 | 19.45444 | 47° | 86km/h | 10800m | 6.8m/s | -51.0°C | 76.7% | 248.3hPa | 2.9V | 00:00:00 | 00:00:00 | 00:00:00 | |
| OE3JTB-15 | 2026-08-31 23:46:05 | 47.50104 | 19.45273 | 51° | 86km/h | 10760m | 5.7m/s | -50.9°C | 78.2% | 249.8hPa | 2.9V | 00:00:00 | 00:00:00 | 00:00:00 | |
| PETON7-10 | 2026-08-31 23:45:56 | 47.49986 | 19.45064 | 65° | 77km/h | 10698m | 4.7m/s | -50.3°C | 83.7% | 252.2hPa | 2.9V | 00:00:00 | 00:00:00 | 00:00:00 | |
| PETON7-10 | 2026-08-31 23:45:41 | 47.49821 | 19.44705 | 63° | 80km/h | 10590m | 3.9m/s | -49.3°C | 88.3% | 256.3hPa | 2.9V | 00:00:00 | 00:50:47 | 00:00:00 | |
| PETON7-10 | 2026-08-31 23:45:26 | 47.49667 | 19.44323 | 67° | 77km/h | 10496m | 6.4m/s | -48.4°C | 85.8% | 260.0hPa | 2.9V | 00:00:00 | 00:00:00 | 08:30:00 | |
| GYPAP8-17 | 2026-08-31 23:45:19 | 47.49605 | 19.44181 | 42° | 71km/h | 10463m | 6.9m/s | -48.1°C | 0% | 0hPa | 2.9V | 00:00:00 | 00:00:00 | 00:00:00 | |
| PETON7-10 | 2026-08-31 23:45:11 | 47.49505 | 19.43968 | 60° | 78km/h | 10404m | 4.1m/s | -47.5°C | 80.1% | 263.7hPa | 2.9V | 00:00:00 | 00:00:00 | 00:00:00 | |
| OE3JTB-15 | 2026-08-31 23:45:05 | 47.49431 | 19.43828 | 49° | 78km/h | 10367m | 1.3m/s | -47.2°C | 78.1% | 265.2hPa | 2.9V | 00:00:00 | 00:50:11 | 00:00:00 | |
| PETON7-10 | 2026-08-31 23:44:56 | 47.49326 | 19.43618 | 58° | 78km/h | 10304m | 6.5m/s | -46.6°C | 77.5% | 267.7hPa | 2.9V | 00:00:00 | 00:50:02 | 00:00:00 | |
| PETON7-10 | 2026-08-31 23:44:41 | 47.49188 | 19.43225 | 62° | 82km/h | 10208m | 7.9m/s | -45.8°C | 76.8% | 271.5hPa | 2.9V | 00:00:00 | 00:00:00 | 00:00:00 | |
| OE3JTB-15 | 2026-08-31 23:44:36 | 47.49143 | 19.43092 | 70° | 88km/h | 10175m | 3.9m/s | -45.6°C | 79.6% | 272.9hPa | 2.7V | 00:00:00 | 00:00:00 | 00:00:00 | |
| PETON7-10 | 2026-08-31 23:44:26 | 47.49055 | 19.42819 | 66° | 86km/h | 10107m | 7.7m/s | -45.0°C | 78.9% | 275.7hPa | 2.9V | 00:00:00 | 00:00:00 | 00:00:00 | |
| GYPAP8-17 | 2026-08-31 23:44:16 | 47.48972 | 19.42569 | 64° | 97km/h | 10049m | 8.0m/s | -44.6°C | 0% | 0hPa | 2.9V | 00:00:00 | 00:00:00 | 00:00:00 | |
| PETON7-10 | 2026-08-31 23:44:11 | 47.48917 | 19.42384 | 68° | 84km/h | 10011m | 9.3m/s | -44.2°C | 80.8% | 279.6hPa | 2.9V | 00:00:00 | 00:49:17 | 00:00:00 | |
| OE3JTB-15 | 2026-08-31 23:44:05 | 47.48874 | 19.42200 | 75° | 84km/h | 9973m | 7.8m/s | -43.9°C | 82.4% | 281.4hPa | 2.9V | 00:00:00 | 00:00:00 | 00:00:00 | |
| PETON7-10 | 2026-08-31 23:43:56 | 47.48806 | 19.41947 | 65° | 84km/h | 9915m | 4.9m/s | -43.4°C | 83.6% | 283.7hPa | 2.9V | 00:00:00 | 00:00:00 | 00:00:00 | |
| PETON7-10 | 2026-08-31 23:43:41 | 47.48699 | 19.41510 | 73° | 80km/h | 9818m | 6.5m/s | -42.5°C | 83.7% | 287.8hPa | 2.9V | 00:00:00 | 00:00:00 | 00:00:00 | |
| OE3JTB-15 | 2026-08-31 23:43:36 | 47.48656 | 19.41365 | 69° | 77km/h | 9790m | 5.6m/s | -42.2°C | 84.7% | 289.1hPa | 2.9V | 00:00:00 | 00:48:42 | 00:00:00 | |
| PETON7-10 | 2026-08-31 23:43:26 | 47.48566 | 19.41110 | 62° | 78km/h | 9728m | 10.1m/s | -41.6°C | 84.8% | 291.7hPa | 2.9V | 00:00:00 | 00:48:32 | 00:00:00 | |
| GYPAP8-17 | 2026-08-31 23:43:13 | 47.48468 | 19.40795 | 54° | 80km/h | 9645m | 6.8m/s | -41.4°C | 0% | 0hPa | 2.9V | 00:00:00 | 00:00:00 | 00:00:00 | |
| PETON7-10 | 2026-08-31 23:43:11 | 47.48438 | 19.40713 | 70° | 75km/h | 9631m | 4.0m/s | -41.2°C | 97.5% | 295.9hPa | 2.9V | 00:00:00 | 00:00:00 | 08:30:00 | |
| OE3JTB-15 | 2026-08-31 23:43:07 | 47.48417 | 19.40608 | 65° | 77km/h | 9604m | 6.5m/s | -40.9°C | 95.5% | 297.1hPa | 2.9V | 00:00:00 | 00:00:00 | 00:00:00 | |
| PETON7-10 | 2026-08-31 23:42:56 | 47.48310 | 19.40337 | 65° | 77km/h | 9525m | 7.4m/s | -40.2°C | 91.0% | 300.5hPa | 2.9V | 00:00:00 | 00:00:00 | 00:00:00 | |
| PETON7-10 | 2026-08-31 23:42:41 | 47.48166 | 19.39971 | 62° | 71km/h | 9418m | 10.3m/s | -39.3°C | 88.0% | 305.3hPa | 2.9V | 00:00:00 | 00:47:47 | 00:00:00 | |
| PETON7-10 | 2026-08-31 23:42:26 | 47.48001 | 19.39662 | 58° | 75km/h | 9317m | 3.2m/s | -38.4°C | 88.8% | 309.7hPa | 2.9V | 00:00:00 | 00:00:00 | 00:00:00 | |
| PETON7-10 | 2026-08-31 23:42:11 | 47.47871 | 19.39296 | 54° | 71km/h | 9220m | 7.6m/s | -37.5°C | 81.5% | 314.2hPa | 2.9V | 00:00:00 | 00:00:00 | 00:00:00 | |
| GYPAP8-17 | 2026-08-31 23:42:00 | 47.47790 | 19.39046 | 56° | 64km/h | 9156m | 9.1m/s | -37.0°C | 0% | 0hPa | 2.9V | 00:00:00 | 00:00:00 | 00:00:00 | |
| PETON7-10 | 2026-08-31 23:41:56 | 47.47737 | 19.38948 | 55° | 73km/h | 9117m | 7.1m/s | -36.7°C | 81.1% | 318.7hPa | 2.9V | 00:00:00 | 00:47:02 | 00:00:00 | |
| PETON7-10 | 2026-08-31 23:41:41 | 47.47589 | 19.38600 | 62° | 75km/h | 9015m | 5.9m/s | -35.7°C | 77.9% | 323.5hPa | 2.9V | 00:00:00 | 00:00:00 | 00:00:00 | |
| PETON7-10 | 2026-08-31 23:41:27 | 47.47448 | 19.38236 | 56° | 78km/h | 8913m | 4.8m/s | -34.8°C | 72.9% | 328.3hPa | 2.7V | 00:00:00 | 00:00:00 | 00:00:00 | |
| PETON7-10 | 2026-08-31 23:41:11 | 47.47293 | 19.37874 | 49° | 75km/h | 8826m | 3.3m/s | -34.3°C | 68.4% | 332.5hPa | 2.7V | 00:00:00 | 00:46:17 | 00:00:00 | |
| PETON7-10 | 2026-08-31 23:40:56 | 47.47115 | 19.37547 | 48° | 86km/h | 8721m | 7.2m/s | -33.3°C | 65.9% | 337.5hPa | 2.7V | 00:00:00 | 00:00:00 | 08:30:00 | |
| GYPAP8-17 | 2026-08-31 23:40:53 | 47.47089 | 19.37498 | 56° | 84km/h | 8705m | 9.2m/s | -33.1°C | 0% | 0hPa | 2.9V | 00:00:00 | 00:00:00 | 00:00:00 | |
| OM5KV | 2026-08-31 23:40:37 | 47.46900 | 19.37095 | 62° | 93km/h | 8591m | 6.4m/s | -32.2°C | 53.1% | 343.9hPa | 2.9V | 00:00:00 | 00:00:00 | 00:00:00 | |
| PETON7-10 | 2026-08-31 23:40:21 | 47.46675 | 19.36642 | 49° | 82km/h | 8477m | 6.1m/s | -31.3°C | 51.2% | 349.3hPa | 2.9V | 00:00:00 | 00:00:00 | 00:00:00 | |
| OM5KV | 2026-08-31 23:40:11 | 47.46533 | 19.36397 | 64° | 77km/h | 8413m | 8.9m/s | -31.0°C | 23.4% | 352.4hPa | 2.9V | 00:00:00 | 00:00:00 | 00:00:00 | |
| PETON7-10 | 2026-08-31 23:40:06 | 47.46485 | 19.36271 | 57° | 91km/h | 8381m | 5.0m/s | -30.8°C | 15.7% | 354.0hPa | 2.9V | 00:00:00 | 00:45:12 | 00:00:00 | |
| OM5KV | 2026-08-31 23:40:04 | 47.46473 | 19.36245 | 57° | 86km/h | 8375m | 7.1m/s | -30.8°C | 12.3% | 354.3hPa | 2.9V | 00:00:00 | 00:00:00 | 00:00:00 | |
| GYPAP8-17 | 2026-08-31 23:40:00 | 47.46424 | 19.36131 | 54° | 93km/h | 8345m | 8.5m/s | -30.5°C | 0% | 0hPa | 2.9V | 00:00:00 | 00:00:00 | 00:00:00 | |
| OM5KV | 2026-08-31 23:39:56 | 47.46366 | 19.36029 | 54° | 91km/h | 8316m | 7.8m/s | -30.2°C | 11.1% | 357.3hPa | 2.9V | 00:00:00 | 00:00:00 | 00:00:00 | |
| OM5KV | 2026-08-31 23:39:54 | 47.46338 | 19.35971 | 56° | 97km/h | 8302m | 6.5m/s | -30.1°C | 11.0% | 358.1hPa | 2.9V | 00:00:00 | 00:00:00 | 00:00:00 | |
| PETON7-10 | 2026-08-31 23:39:51 | 47.46284 | 19.35859 | 56° | 93km/h | 8272m | 9.9m/s | -29.7°C | 11.6% | 359.6hPa | 2.9V | 00:00:00 | 00:00:00 | 00:00:00 | |
| OM5KV | 2026-08-31 23:39:39 | 47.46139 | 19.35528 | 53° | 108km/h | 8196m | 6.1m/s | -29.1°C | 8.9% | 363.6hPa | 2.9V | 00:00:00 | 00:00:00 | 00:00:00 | |
| PETON7-10 | 2026-08-31 23:39:36 | 47.46088 | 19.35429 | 56° | 93km/h | 8178m | 3.8m/s | -28.9°C | 10.8% | 364.5hPa | 2.9V | 00:00:00 | 00:00:00 | 00:00:00 | |
| OM5KV | 2026-08-31 23:39:33 | 47.46059 | 19.35366 | 56° | 99km/h | 8168m | 7.4m/s | -28.8°C | 9.1% | 364.9hPa | 2.9V | 00:00:00 | 00:00:00 | 00:00:00 | |
| OM5KV | 2026-08-31 23:39:31 | 47.46031 | 19.35310 | 53° | 88km/h | 8152m | 9.0m/s | -28.7°C | 8.8% | 365.6hPa | 2.9V | 00:00:00 | 00:00:00 | 00:00:00 | |
| OM5KV | 2026-08-31 23:39:27 | 47.45981 | 19.35208 | 57° | 89km/h | 8125m | 4.3m/s | -28.5°C | 9.6% | 367.0hPa | 2.9V | 00:00:00 | 00:00:00 | 00:00:00 | |
| OM5KV | 2026-08-31 23:39:26 | 47.45956 | 19.35151 | 57° | 88km/h | 8114m | 5.2m/s | -28.3°C | 8.8% | 367.6hPa | 2.9V | 00:00:00 | 00:00:00 | 00:00:00 | |
| PETON7-10 | 2026-08-31 23:39:21 | 47.45887 | 19.35013 | 54° | 99km/h | 8078m | 6.8m/s | -27.9°C | 10.4% | 369.4hPa | 2.9V | 00:00:00 | 00:44:27 | 00:00:00 | |
| OM5KV | 2026-08-31 23:39:19 | 47.45871 | 19.34983 | 54° | 100km/h | 8071m | 6.8m/s | -27.9°C | 9.3% | 369.7hPa | 2.9V | 00:00:00 | 00:00:00 | 00:00:00 | |
| OM5KV | 2026-08-31 23:39:13 | 47.45785 | 19.34805 | 58° | 95km/h | 8032m | 7.1m/s | -27.6°C | 8.6% | 371.6hPa | 2.9V | 00:00:00 | 00:00:00 | 00:00:00 | |
| OM5KV | 2026-08-31 23:39:11 | 47.45761 | 19.34745 | 64° | 91km/h | 8016m | 7.7m/s | -27.4°C | 8.4% | 372.5hPa | 2.9V | 00:00:00 | 00:00:00 | 00:00:00 | |
| GYPAP8-17 | 2026-08-31 23:39:07 | 47.45712 | 19.34613 | 56° | 106km/h | 7989m | 5.5m/s | -27.2°C | 0% | 0hPa | 2.9V | 00:00:00 | 00:00:00 | 00:00:00 | |
| PETON7-10 | 2026-08-31 23:39:06 | 47.45681 | 19.34551 | 51° | 88km/h | 7978m | 4.8m/s | -27.2°C | 11.0% | 374.5hPa | 2.9V | 00:00:00 | 00:00:00 | 00:00:00 | |
| OM5KV | 2026-08-31 23:39:05 | 47.45681 | 19.34551 | 52° | 102km/h | 7978m | 4.8m/s | -27.3°C | 9.6% | 374.5hPa | 2.9V | 00:00:00 | 00:00:00 | 00:00:00 | |
| OM5KV | 2026-08-31 23:38:58 | 47.45578 | 19.34377 | 50° | 78km/h | 7926m | 3.4m/s | -26.9°C | 9.1% | 377.2hPa | 2.9V | 00:00:00 | 00:00:00 | 00:00:00 | |
| OM5KV | 2026-08-31 23:38:57 | 47.45565 | 19.34355 | 49° | 80km/h | 7921m | 6.9m/s | -26.9°C | 9.3% | 377.5hPa | 2.9V | 00:00:00 | 00:00:00 | 00:00:00 | |
| OM5KV | 2026-08-31 23:38:52 | 47.45484 | 19.34197 | 58° | 102km/h | 7881m | 5.7m/s | -26.5°C | 9.4% | 379.5hPa | 2.9V | 00:00:00 | 00:00:00 | 00:00:00 | |
| PETON7-10 | 2026-08-31 23:38:51 | 47.45470 | 19.34165 | 55° | 91km/h | 7874m | 7.4m/s | -26.4°C | 11.0% | 379.8hPa | 2.9V | 00:00:00 | 00:00:00 | 00:00:00 | |
| OM5KV | 2026-08-31 23:38:46 | 47.45415 | 19.34056 | 58° | 84km/h | 7850m | 6.0m/s | -26.2°C | 9.3% | 381.1hPa | 2.9V | 00:00:00 | 00:00:00 | 00:00:00 | |
| OM5KV | 2026-08-31 23:38:45 | 47.45403 | 19.34030 | 57° | 82km/h | 7845m | 3.0m/s | -26.2°C | 9.5% | 381.4hPa | 2.9V | 00:00:00 | 00:00:00 | 00:00:00 | |
| OM5KV | 2026-08-31 23:38:41 | 47.45334 | 19.33904 | 51° | 93km/h | 7818m | 7.1m/s | -25.9°C | 10.1% | 382.8hPa | 2.9V | 00:00:00 | 00:00:00 | 00:00:00 | |
| OM5KV | 2026-08-31 23:38:35 | 47.45251 | 19.33726 | 55° | 104km/h | 7783m | 2.4m/s | -25.6°C | 8.8% | 384.8hPa | 2.9V | 00:00:00 | 00:00:00 | 00:00:00 | |
| OM5KV | 2026-08-31 23:38:30 | 47.45180 | 19.33560 | 59° | 106km/h | 7753m | 7.1m/s | -25.3°C | 9.0% | 386.3hPa | 2.9V | 00:00:00 | 00:00:00 | 00:00:00 | |
| OM5KV | 2026-08-31 23:38:24 | 47.45114 | 19.33420 | 50° | 82km/h | 7720m | 4.7m/s | -25.0°C | 9.4% | 388.1hPa | 2.9V | 00:00:00 | 00:00:00 | 00:00:00 | |
| PETON7-10 | 2026-08-31 23:38:20 | 47.45047 | 19.33279 | 58° | 91km/h | 7693m | 5.4m/s | -24.7°C | 9.8% | 389.5hPa | 2.9V | 00:00:00 | 00:00:00 | 08:30:00 | |
| OM5KV | 2026-08-31 23:38:19 | 47.45047 | 19.33279 | 58° | 102km/h | 7693m | 5.5m/s | -24.8°C | 8.6% | 389.6hPa | 2.9V | 00:00:00 | 00:00:00 | 00:00:00 | |
| OM5KV | 2026-08-31 23:38:18 | 47.45033 | 19.33247 | 57° | 100km/h | 7686m | 9.8m/s | -24.7°C | 8.4% | 390.0hPa | 2.9V | 00:00:00 | 00:00:00 | 00:00:00 | |
| GYPAP8-17 | 2026-08-31 23:38:15 | 47.44991 | 19.33163 | 53° | 86km/h | 7662m | 7.0m/s | 0°C | 0% | 0hPa | 2.9V | 00:00:00 | 00:00:00 | 00:00:00 | |
| OM5KV | 2026-08-31 23:38:13 | 47.44964 | 19.33112 | 53° | 86km/h | 7649m | 6.4m/s | -24.4°C | 8.6% | 392.0hPa | 2.9V | 00:00:00 | 00:00:00 | 00:00:00 | |
| OM5KV | 2026-08-31 23:38:08 | 47.44896 | 19.32989 | 55° | 86km/h | 7615m | 4.8m/s | -24.1°C | 9.1% | 393.9hPa | 2.9V | 00:00:00 | 00:00:00 | 00:00:00 | |
| OM5KV | 2026-08-31 23:38:06 | 47.44869 | 19.32934 | 55° | 95km/h | 7603m | 7.7m/s | -24.0°C | 8.0% | 394.4hPa | 2.9V | 00:00:00 | 00:00:00 | 00:00:00 | |
| PETON7-10 | 2026-08-31 23:38:05 | 47.44838 | 19.32877 | 51° | 100km/h | 7588m | 6.7m/s | -23.8°C | 9.1% | 395.2hPa | 2.9V | 00:00:00 | 00:00:00 | 00:00:00 | |
| OM5KV | 2026-08-31 23:38:03 | 47.44809 | 19.32821 | 55° | 95km/h | 7575m | 6.2m/s | -23.8°C | 7.9% | 395.9hPa | 2.9V | 00:00:00 | 00:00:00 | 00:00:00 | |
| OM5KV | 2026-08-31 23:38:01 | 47.44794 | 19.32791 | 55° | 99km/h | 7568m | 7.1m/s | -23.7°C | 7.7% | 396.2hPa | 2.9V | 00:00:00 | 00:00:00 | 00:00:00 | |
| OM5KV | 2026-08-31 23:37:57 | 47.44717 | 19.32646 | 54° | 95km/h | 7532m | 6.6m/s | -23.4°C | 7.9% | 398.2hPa | 2.9V | 00:00:00 | 00:00:00 | 00:00:00 | |
| OM5KV | 2026-08-31 23:37:55 | 47.44702 | 19.32618 | 53° | 99km/h | 7525m | 8.1m/s | -23.4°C | 7.7% | 398.5hPa | 2.9V | 00:00:00 | 00:00:00 | 00:00:00 | |
| OM5KV | 2026-08-31 23:37:51 | 47.44650 | 19.32496 | 62° | 91km/h | 7501m | 5.3m/s | -23.2°C | 8.6% | 399.9hPa | 2.9V | 00:00:00 | 00:00:00 | 00:00:00 | |
| OM5KV | 2026-08-31 23:37:49 | 47.44627 | 19.32441 | 57° | 86km/h | 7491m | 6.6m/s | -23.1°C | 8.2% | 400.4hPa | 2.9V | 00:00:00 | 00:00:00 | 00:00:00 | |
| OM5KV | 2026-08-31 23:37:46 | 47.44572 | 19.32328 | 54° | 100km/h | 7464m | 5.8m/s | -22.9°C | 8.2% | 401.9hPa | 2.9V | 00:00:00 | 00:00:00 | 00:00:00 | |
| OM5KV | 2026-08-31 23:37:40 | 47.44496 | 19.32201 | 51° | 88km/h | 7428m | 7.0m/s | -22.6°C | 8.7% | 403.9hPa | 2.9V | 00:00:00 | 00:00:00 | 00:00:00 | |
| OM5KV | 2026-08-31 23:37:37 | 47.44461 | 19.32120 | 65° | 84km/h | 7412m | 5.1m/s | -22.4°C | 8.0% | 404.7hPa | 2.9V | 00:00:00 | 00:00:00 | 00:00:00 | |
| OM5KV | 2026-08-31 23:37:36 | 47.44443 | 19.32067 | 61° | 78km/h | 7401m | 4.6m/s | -22.3°C | 8.4% | 405.4hPa | 2.9V | 00:00:00 | 00:00:00 | 00:00:00 | |
| OM5KV | 2026-08-31 23:37:32 | 47.44410 | 19.31991 | 57° | 88km/h | 7384m | 6.9m/s | -22.1°C | 8.3% | 406.2hPa | 2.9V | 00:00:00 | 00:00:00 | 00:00:00 | |
| OM5KV | 2026-08-31 23:37:29 | 47.44370 | 19.31901 | 60° | 104km/h | 7367m | 4.0m/s | -22.0°C | 8.2% | 407.3hPa | 2.9V | 00:00:00 | 00:00:00 | 00:00:00 | |
| OM5KV | 2026-08-31 23:37:26 | 47.44334 | 19.31802 | 62° | 93km/h | 7353m | 4.3m/s | -21.9°C | 8.9% | 408.1hPa | 2.9V | 00:00:00 | 00:00:00 | 00:00:00 | |
| OM5KV | 2026-08-31 23:37:24 | 47.44310 | 19.31745 | 57° | 86km/h | 7341m | 7.5m/s | -21.8°C | 8.2% | 408.7hPa | 2.9V | 00:00:00 | 00:00:00 | 00:00:00 | |
| OM5KV | 2026-08-31 23:37:21 | 47.44272 | 19.31673 | 49° | 78km/h | 7318m | 5.1m/s | -21.7°C | 8.8% | 409.9hPa | 2.9V | 00:00:00 | 00:00:00 | 00:00:00 | |
| GYPAP8-17 | 2026-08-31 23:37:19 | 47.44243 | 19.31630 | 47° | 86km/h | 7308m | 4.0m/s | 0°C | 0% | 0hPa | 2.9V | 00:00:00 | 00:00:00 | 00:00:00 | |
| PETON7-10 | 2026-08-31 23:37:17 | 47.44194 | 19.31559 | 44° | 99km/h | 7291m | 9.2m/s | -21.4°C | 9.5% | 411.5hPa | 2.9V | 00:00:00 | 00:42:23 | 00:00:00 | |
| OM5KV | 2026-08-31 23:37:15 | 47.44176 | 19.31535 | 45° | 95km/h | 7283m | 5.2m/s | -21.5°C | 9.1% | 411.9hPa | 2.9V | 00:00:00 | 00:00:00 | 00:00:00 | |
| OM5KV | 2026-08-31 23:37:08 | 47.44073 | 19.31328 | 62° | 97km/h | 7244m | 6.0m/s | -21.1°C | 8.9% | 414.2hPa | 2.9V | 00:00:00 | 00:00:00 | 00:00:00 | |
| OM5KV | 2026-08-31 23:37:07 | 47.44060 | 19.31298 | 58° | 93km/h | 7237m | 5.4m/s | -21.1°C | 9.5% | 414.5hPa | 2.9V | 00:00:00 | 00:00:00 | 00:00:00 | |
| PETON7-10 | 2026-08-31 23:36:58 | 47.43911 | 19.31026 | 58° | 88km/h | 7178m | 7.8m/s | -20.5°C | 9.7% | 417.8hPa | 2.9V | 00:00:00 | 00:00:00 | 00:00:00 | |
| OM5KV | 2026-08-31 23:36:53 | 47.43861 | 19.30916 | 59° | 88km/h | 7151m | 7.1m/s | -20.4°C | 8.5% | 419.3hPa | 0V | 00:00:00 | 00:00:00 | 00:00:00 | |
| OM5KV | 2026-08-31 23:36:51 | 47.43837 | 19.30858 | 58° | 95km/h | 7138m | 5.3m/s | -20.4°C | 8.9% | 420.1hPa | 0V | 00:00:00 | 00:00:00 | 00:00:00 | |
| OM5KV | 2026-08-31 23:36:47 | 47.43785 | 19.30747 | 55° | 86km/h | 7113m | 7.3m/s | -20.2°C | 8.1% | 421.5hPa | 0V | 00:00:00 | 00:00:00 | 00:00:00 | |
| OM5KV | 2026-08-31 23:36:46 | 47.43772 | 19.30721 | 55° | 86km/h | 7105m | 8.5m/s | -20.1°C | 8.2% | 422.0hPa | 0V | 00:00:00 | 00:00:00 | 00:00:00 | |
| PETON7-10 | 2026-08-31 23:36:41 | 47.43686 | 19.30581 | 40° | 91km/h | 7064m | 7.1m/s | 0°C | 0% | 0hPa | 0V | 00:00:00 | 00:00:00 | 00:00:00 | |
| OM5KV | 2026-08-31 23:36:40 | 47.43686 | 19.30581 | 40° | 84km/h | 7064m | 7.2m/s | -19.9°C | 8.1% | 424.4hPa | 0V | 00:00:00 | 00:00:00 | 00:00:00 | |
| OM5KV | 2026-08-31 23:36:34 | 47.43593 | 19.30436 | 53° | 89km/h | 7028m | 4.6m/s | -19.7°C | 8.4% | 426.4hPa | 0V | 00:00:00 | 00:00:00 | 00:00:00 | |
| OM5KV | 2026-08-31 23:36:30 | 47.43530 | 19.30333 | 45° | 95km/h | 7000m | 7.1m/s | -19.5°C | 7.9% | 427.9hPa | 0V | 00:00:00 | 00:00:00 | 00:00:00 | |
| OM5KV | 2026-08-31 23:36:29 | 47.43513 | 19.30309 | 46° | 91km/h | 6993m | 7.8m/s | -19.5°C | 8.1% | 428.4hPa | 0V | 00:00:00 | 00:00:00 | 00:00:00 | |
| PETON7-10 | 2026-08-31 23:36:26 | 47.43451 | 19.30214 | 45° | 84km/h | 6966m | 8.0m/s | 0°C | 0% | 0hPa | 0V | 00:00:00 | 00:41:32 | 00:00:00 | |
| OM5KV | 2026-08-31 23:36:23 | 47.43423 | 19.30171 | 49° | 78km/h | 6951m | 8.8m/s | -19.3°C | 7.5% | 430.7hPa | 0V | 00:00:00 | 00:00:00 | 00:00:00 | |
| GYPAP8-17 | 2026-08-31 23:36:20 | 47.43382 | 19.30096 | 52° | 91km/h | 6931m | 5.1m/s | 0°C | 0% | 0hPa | 0V | 00:00:00 | 00:00:00 | 00:00:00 | |
| OM5KV | 2026-08-31 23:36:17 | 47.43336 | 19.30023 | 47° | 82km/h | 6912m | 8.8m/s | -19.0°C | 7.7% | 433.0hPa | 0V | 00:00:00 | 00:00:00 | 00:00:00 | |
| OM5KV | 2026-08-31 23:36:16 | 47.43322 | 19.30001 | 48° | 78km/h | 6905m | 5.0m/s | -19.0°C | 8.2% | 433.4hPa | 0V | 00:00:00 | 00:00:00 | 00:00:00 | |
| OM5KV | 2026-08-31 23:36:12 | 47.43249 | 19.29892 | 47° | 82km/h | 6869m | 7.7m/s | -18.8°C | 7.7% | 435.6hPa | 0V | 00:00:00 | 00:00:00 | 00:00:00 | |
| PETON7-10 | 2026-08-31 23:36:11 | 47.43235 | 19.29869 | 49° | 88km/h | 6862m | 6.0m/s | 0°C | 0% | 0hPa | 0V | 00:00:00 | 00:00:00 | 00:00:00 | |
| OM5KV | 2026-08-31 23:36:06 | 47.43155 | 19.29749 | 49° | 91km/h | 6827m | 6.8m/s | -18.5°C | 8.0% | 438.0hPa | 0V | 00:00:00 | 00:00:00 | 00:00:00 | |
| OM5KV | 2026-08-31 23:35:59 | 47.43064 | 19.29612 | 46° | 82km/h | 6785m | 7.9m/s | -18.2°C | 8.7% | 440.5hPa | 0V | 00:00:00 | 00:00:00 | 00:00:00 | |
| OM5KV | 2026-08-31 23:35:58 | 47.43049 | 19.29590 | 48° | 86km/h | 6778m | 6.4m/s | -18.2°C | 9.1% | 440.9hPa | 0V | 00:00:00 | 00:00:00 | 00:00:00 | |
| PETON7-10 | 2026-08-31 23:35:56 | 47.43001 | 19.29519 | 43° | 88km/h | 6757m | 7.4m/s | 0°C | 0% | 0hPa | 0V | 00:00:00 | 00:00:00 | 00:00:00 | |
| OM5KV | 2026-08-31 23:35:53 | 47.42955 | 19.29450 | 50° | 86km/h | 6737m | 5.2m/s | -18.3°C | 9.4% | 443.3hPa | 0V | 00:00:00 | 00:00:00 | 00:00:00 | |
| OE3JTB-15 | 2026-08-31 23:35:44 | 47.42841 | 19.29223 | 53° | 78km/h | 6677m | 7.7m/s | -17.8°C | 9.1% | 446.7hPa | 0V | 00:00:00 | 00:00:00 | 00:00:00 | |
| PETON7-10 | 2026-08-31 23:35:41 | 47.42804 | 19.29146 | 57° | 77km/h | 6657m | 5.5m/s | 0°C | 0% | 0hPa | 0V | 00:00:00 | 00:40:47 | 00:00:00 | |
| OM5KV | 2026-08-31 23:35:40 | 47.42804 | 19.29146 | 58° | 77km/h | 6657m | 5.6m/s | -17.9°C | 9.2% | 448.0hPa | 0V | 00:00:00 | 00:00:00 | 00:00:00 | |
| OM5KV | 2026-08-31 23:35:36 | 47.42746 | 19.29049 | 45° | 77km/h | 6631m | 6.1m/s | -17.8°C | 8.9% | 449.6hPa | 0V | 00:00:00 | 00:00:00 | 00:00:00 | |
| OM5KV | 2026-08-31 23:35:34 | 47.42732 | 19.29028 | 46° | 78km/h | 6625m | 6.1m/s | -17.8°C | 9.0% | 450.0hPa | 0V | 00:00:00 | 00:00:00 | 00:00:00 | |
| OM5KV | 2026-08-31 23:35:29 | 47.42661 | 19.28919 | 48° | 82km/h | 6588m | 6.9m/s | -17.6°C | 8.5% | 452.2hPa | 0V | 00:00:00 | 00:00:00 | 00:00:00 | |
| PETON7-10 | 2026-08-31 23:35:26 | 47.42609 | 19.28834 | 51° | 75km/h | 6561m | 6.7m/s | 0°C | 0% | 0hPa | 0V | 00:00:00 | 00:00:00 | 00:00:00 | |
| OM5KV | 2026-08-31 23:35:24 | 47.42586 | 19.28790 | 52° | 77km/h | 6547m | 7.0m/s | -17.3°C | 8.5% | 454.5hPa | 0V | 00:00:00 | 00:00:00 | 00:00:00 | |
| OM5KV | 2026-08-31 23:35:18 | 47.42514 | 19.28686 | 46° | 82km/h | 6512m | 6.7m/s | -17.1°C | 9.0% | 456.7hPa | 0V | 00:00:00 | 00:00:00 | 00:00:00 | |
| OM5KV | 2026-08-31 23:35:17 | 47.42499 | 19.28664 | 48° | 82km/h | 6505m | 7.0m/s | -17.1°C | 8.7% | 457.1hPa | 0V | 00:00:00 | 00:00:00 | 00:00:00 | |
| OE3JTB-15 | 2026-08-31 23:35:15 | 47.42463 | 19.28597 | 58° | 77km/h | 6485m | 7.5m/s | 0°C | 0% | 0hPa | 0V | 00:00:00 | 00:40:21 | 00:00:00 | |
| OM5KV | 2026-08-31 23:35:12 | 47.42432 | 19.28525 | 56° | 75km/h | 6466m | 4.9m/s | -17.0°C | 9.7% | 459.6hPa | 0V | 00:00:00 | 00:00:00 | 00:00:00 | |
| OM5KV | 2026-08-31 23:35:06 | 47.42362 | 19.28396 | 48° | 77km/h | 6426m | 7.0m/s | -16.7°C | 9.1% | 462.0hPa | 0V | 00:00:00 | 00:00:00 | 00:00:00 | |
| OM5KV | 2026-08-31 23:35:01 | 47.42312 | 19.28306 | 53° | 84km/h | 6399m | 6.6m/s | -16.7°C | 9.5% | 463.7hPa | 0V | 00:00:00 | 00:00:00 | 00:00:00 | |
| OM5KV | 2026-08-31 23:34:55 | 47.42236 | 19.28175 | 51° | 73km/h | 6359m | 7.8m/s | -16.5°C | 9.1% | 466.1hPa | 0V | 00:00:00 | 00:00:00 | 00:00:00 | |
| OM5KV | 2026-08-31 23:34:48 | 47.42156 | 19.28010 | 56° | 77km/h | 6310m | 6.4m/s | -16.6°C | 10.4% | 469.1hPa | 0V | 00:00:00 | 00:00:00 | 00:00:00 | |
| OM5KV | 2026-08-31 23:34:47 | 47.42144 | 19.27986 | 54° | 75km/h | 6303m | 5.7m/s | -16.6°C | 10.6% | 469.6hPa | 0V | 00:00:00 | 00:00:00 | 00:00:00 | |
| OE3JTB-15 | 2026-08-31 23:34:46 | 47.42122 | 19.27942 | 54° | 77km/h | 6289m | 8.7m/s | 0°C | 0% | 0hPa | 0V | 00:00:00 | 00:00:00 | 00:00:00 | |
| GYPAP8-17 | 2026-08-31 23:34:42 | 47.42084 | 19.27876 | 50° | 77km/h | 6270m | 5.7m/s | 0°C | 0% | 0hPa | 0V | 00:00:00 | 00:00:00 | 00:00:00 | |
| OM5KV | 2026-08-31 23:34:35 | 47.41998 | 19.27714 | 53° | 73km/h | 6225m | 6.7m/s | -16.6°C | 12.8% | 474.5hPa | 0V | 00:00:00 | 00:00:00 | 00:00:00 | |
| OM5KV | 2026-08-31 23:34:31 | 47.41951 | 19.27624 | 51° | 75km/h | 6199m | 6.2m/s | -16.4°C | 17.2% | 476.1hPa | 0V | 00:00:00 | 00:00:00 | 00:00:00 | |
| OM5KV | 2026-08-31 23:34:19 | 47.41819 | 19.27370 | 49° | 78km/h | 6121m | 6.0m/s | -16.1°C | 19.5% | 481.0hPa | 0V | 00:00:00 | 00:00:00 | 00:00:00 | |
| OM5KV | 2026-08-31 23:34:13 | 47.41743 | 19.27213 | 56° | 89km/h | 6085m | 5.2m/s | -16.0°C | 19.5% | 483.4hPa | 0V | 00:00:00 | 00:00:00 | 00:00:00 | |
| OM5KV | 2026-08-31 23:34:08 | 47.41676 | 19.27086 | 49° | 88km/h | 6053m | 7.1m/s | -15.9°C | 15.5% | 485.3hPa | 0V | 00:00:00 | 00:00:00 | 00:00:00 | |
| OM5KV | 2026-08-31 23:34:06 | 47.41645 | 19.27042 | 44° | 84km/h | 6042m | 4.2m/s | -16.0°C | 16.1% | 486.0hPa | 0V | 00:00:00 | 00:00:00 | 00:00:00 | |
| OM5KV | 2026-08-31 23:34:03 | 47.41586 | 19.26960 | 50° | 68km/h | 6024m | 4.6m/s | -16.0°C | 14.4% | 487.1hPa | 0V | 00:00:00 | 00:00:00 | 00:00:00 | |
| OM5KV | 2026-08-31 23:34:02 | 47.41576 | 19.26940 | 58° | 66km/h | 6019m | 5.8m/s | -16.0°C | 14.1% | 487.5hPa | 0V | 00:00:00 | 00:00:00 | 00:00:00 | |
| GYPAP8-17 | 2026-08-31 23:33:54 | 47.41517 | 19.26802 | 51° | 75km/h | 5986m | 6.8m/s | 0°C | 0% | 0hPa | 0V | 00:00:00 | 00:00:00 | 00:00:00 | |
| OM5KV | 2026-08-31 23:33:51 | 47.41476 | 19.26730 | 54° | 89km/h | 5969m | 4.7m/s | -16.0°C | 16.3% | 490.6hPa | 0V | 00:00:00 | 00:00:00 | 00:00:00 | |
| OM5KV | 2026-08-31 23:33:50 | 47.41463 | 19.26703 | 58° | 86km/h | 5962m | 7.4m/s | -15.9°C | 19.3% | 491.0hPa | 0V | 00:00:00 | 00:00:00 | 00:00:00 | |
| OM5KV | 2026-08-31 23:33:45 | 47.41417 | 19.26592 | 55° | 68km/h | 5936m | 5.9m/s | -15.9°C | 21.1% | 492.7hPa | 0V | 00:00:00 | 00:00:00 | 00:00:00 | |
| OM5KV | 2026-08-31 23:33:44 | 47.41406 | 19.26571 | 51° | 75km/h | 5930m | 5.7m/s | -15.9°C | 21.2% | 493.0hPa | 0V | 00:00:00 | 00:00:00 | 00:00:00 | |
| OM5KV | 2026-08-31 23:33:39 | 47.41340 | 19.26452 | 56° | 77km/h | 5902m | 5.8m/s | -15.9°C | 23.3% | 494.9hPa | 0V | 00:00:00 | 00:00:00 | 00:00:00 | |
| OM5KV | 2026-08-31 23:33:38 | 47.41330 | 19.26430 | 58° | 71km/h | 5898m | 3.6m/s | -15.9°C | 23.8% | 495.3hPa | 0V | 00:00:00 | 00:00:00 | 00:00:00 | |
| OM5KV | 2026-08-31 23:33:33 | 47.41273 | 19.26320 | 52° | 82km/h | 5872m | 6.4m/s | -15.9°C | 23.0% | 496.8hPa | 0V | 00:00:00 | 00:00:00 | 00:00:00 | |
| OM5KV | 2026-08-31 23:33:27 | 47.41199 | 19.26192 | 45° | 82km/h | 5835m | 6.1m/s | -15.7°C | 27.7% | 499.3hPa | 0V | 00:00:00 | 00:00:00 | 00:00:00 | |
| OM5KV | 2026-08-31 23:33:22 | 47.41127 | 19.26091 | 42° | 68km/h | 5809m | 5.0m/s | -15.7°C | 30.0% | 500.8hPa | 0V | 00:00:00 | 00:00:00 | 00:00:00 | |
| OM5KV | 2026-08-31 23:33:17 | 47.41066 | 19.26010 | 49° | 62km/h | 5789m | 4.2m/s | -15.6°C | 32.0% | 502.3hPa | 0V | 00:00:00 | 00:00:00 | 00:00:00 | |
| OM5KV | 2026-08-31 23:33:16 | 47.41055 | 19.25992 | 51° | 62km/h | 5783m | 7.7m/s | -15.5°C | 30.1% | 502.6hPa | 0V | 00:00:00 | 00:00:00 | 00:00:00 | |
| OM5KV | 2026-08-31 23:33:11 | 47.40999 | 19.25905 | 46° | 71km/h | 5758m | 5.2m/s | -15.4°C | 31.6% | 504.4hPa | 0V | 00:00:00 | 00:00:00 | 00:00:00 | |
| OM5KV | 2026-08-31 23:33:10 | 47.40986 | 19.25887 | 46° | 68km/h | 5752m | 7.5m/s | -15.3°C | 30.4% | 504.8hPa | 0V | 00:00:00 | 00:00:00 | 00:00:00 | |
| OM5KV | 2026-08-31 23:33:00 | 47.40887 | 19.25688 | 53° | 78km/h | 5695m | 7.5m/s | -15.0°C | 35.3% | 508.5hPa | 0V | 00:00:00 | 00:00:00 | 00:00:00 | |
| OM5KV | 2026-08-31 23:32:58 | 47.40865 | 19.25645 | 55° | 69km/h | 5685m | 4.2m/s | -15.0°C | 37.0% | 509.2hPa | 0V | 00:00:00 | 00:00:00 | 00:00:00 | |
| OM5KV | 2026-08-31 23:32:54 | 47.40823 | 19.25563 | 51° | 68km/h | 5663m | 4.7m/s | -14.9°C | 37.4% | 510.6hPa | 0V | 00:00:00 | 00:00:00 | 00:00:00 | |
| OM5KV | 2026-08-31 23:32:53 | 47.40813 | 19.25545 | 52° | 64km/h | 5657m | 5.8m/s | -14.8°C | 38.3% | 511.0hPa | 0V | 00:00:00 | 00:00:00 | 00:00:00 | |
| OM5KV | 2026-08-31 23:32:42 | 47.40684 | 19.25305 | 51° | 73km/h | 5597m | 6.3m/s | -14.3°C | 44.4% | 514.9hPa | 0V | 00:00:00 | 00:00:00 | 00:00:00 | |
| OM5KV | 2026-08-31 23:32:36 | 47.40625 | 19.25204 | 47° | 57km/h | 5560m | 6.1m/s | -14.1°C | 47.5% | 517.3hPa | 0V | 00:00:00 | 00:00:00 | 00:00:00 | |
| OM5KV | 2026-08-31 23:32:30 | 47.40557 | 19.25100 | 52° | 60km/h | 5525m | 6.9m/s | -13.7°C | 45.9% | 519.7hPa | 0V | 00:00:00 | 00:00:00 | 00:00:00 | |
| OM5KV | 2026-08-31 23:32:29 | 47.40548 | 19.25082 | 56° | 62km/h | 5519m | 4.4m/s | -12.4°C | 40.6% | 520.0hPa | 0V | 00:00:00 | 00:00:00 | 00:00:00 | |
| OM5KV | 2026-08-31 23:32:15 | 47.40387 | 19.24784 | 57° | 66km/h | 5429m | 4.9m/s | -13.4°C | 65.4% | 526.1hPa | 0V | 00:00:00 | 00:00:00 | 00:00:00 | |
| OM5KV | 2026-08-31 23:32:07 | 47.40318 | 19.24634 | 58° | 68km/h | 5388m | 6.8m/s | -12.1°C | 84.7% | 529.1hPa | 0V | 00:00:00 | 00:00:00 | 00:00:00 | |
| OM5KV | 2026-08-31 23:32:02 | 47.40269 | 19.24527 | 60° | 66km/h | 5357m | 5.8m/s | -12.1°C | 87.8% | 531.2hPa | 0V | 00:00:00 | 00:00:00 | 00:00:00 | |
| OM5KV | 2026-08-31 23:32:01 | 47.40260 | 19.24506 | 59° | 71km/h | 5351m | 6.3m/s | -12.0°C | 88.5% | 531.7hPa | 0V | 00:00:00 | 00:00:00 | 00:00:00 | |
| OM5KV | 2026-08-31 23:31:56 | 47.40204 | 19.24398 | 55° | 71km/h | 5321m | 7.3m/s | -11.2°C | 92.0% | 533.7hPa | 0V | 00:00:00 | 00:00:00 | 00:00:00 | |
| OM5KV | 2026-08-31 23:31:55 | 47.40193 | 19.24377 | 56° | 69km/h | 5315m | 5.5m/s | -11.5°C | 94.6% | 534.2hPa | 0V | 00:00:00 | 00:00:00 | 00:00:00 | |
| OM5KV | 2026-08-31 23:31:50 | 47.40145 | 19.24275 | 56° | 69km/h | 5281m | 5.4m/s | -11.0°C | 97.0% | 536.6hPa | 0V | 00:00:00 | 00:00:00 | 00:00:00 | |
| OM5KV | 2026-08-31 23:31:49 | 47.40135 | 19.24254 | 56° | 71km/h | 5275m | 6.2m/s | -11.1°C | 97.8% | 537.0hPa | 0V | 00:00:00 | 00:00:00 | 00:00:00 | |
| OM5KV | 2026-08-31 23:31:45 | 47.40094 | 19.24163 | 64° | 75km/h | 5249m | 6.5m/s | -10.5°C | 90.9% | 538.8hPa | 0V | 00:00:00 | 00:00:00 | 00:00:00 | |
| OM5KV | 2026-08-31 23:31:44 | 47.40085 | 19.24138 | 62° | 77km/h | 5242m | 6.7m/s | -10.9°C | 93.4% | 539.3hPa | 0V | 00:00:00 | 00:00:00 | 00:00:00 | |
| OM5KV | 2026-08-31 23:31:39 | 47.40043 | 19.24017 | 63° | 78km/h | 5211m | 6.5m/s | -11.2°C | 87.2% | 541.5hPa | 0V | 00:00:00 | 00:00:00 | 00:00:00 | |
| OM5KV | 2026-08-31 23:31:33 | 47.39986 | 19.23882 | 60° | 71km/h | 5172m | 5.8m/s | -10.0°C | 96.8% | 544.2hPa | 0V | 00:00:00 | 00:00:00 | 00:00:00 | |
| OM5KV | 2026-08-31 23:31:32 | 47.39977 | 19.23860 | 58° | 71km/h | 5166m | 5.8m/s | -9.6°C | 94.4% | 544.6hPa | 0V | 00:00:00 | 00:00:00 | 00:00:00 | |
| OM5KV | 2026-08-31 23:31:27 | 47.39932 | 19.23740 | 64° | 78km/h | 5135m | 6.3m/s | -9.7°C | 97.7% | 546.7hPa | 0V | 00:00:00 | 00:00:00 | 00:00:00 | |
| OM5KV | 2026-08-31 23:31:26 | 47.39923 | 19.23715 | 61° | 75km/h | 5129m | 7.5m/s | -9.5°C | 95.9% | 547.2hPa | 0V | 00:00:00 | 00:00:00 | 00:00:00 | |
| OM5KV | 2026-08-31 23:31:22 | 47.39888 | 19.23622 | 59° | 73km/h | 5101m | 6.3m/s | -9.6°C | 97.8% | 549.2hPa | 0V | 00:00:00 | 00:00:00 | 00:00:00 | |
| OM5KV | 2026-08-31 23:31:20 | 47.39868 | 19.23578 | 57° | 69km/h | 5088m | 6.3m/s | -9.5°C | 96.7% | 550.1hPa | 0V | 00:00:00 | 00:00:00 | 00:00:00 | |
| OM5KV | 2026-08-31 23:31:16 | 47.39833 | 19.23482 | 65° | 78km/h | 5063m | 7.3m/s | -9.2°C | 97.4% | 552.0hPa | 0V | 00:00:00 | 00:00:00 | 00:00:00 | |
| OM5KV | 2026-08-31 23:31:14 | 47.39815 | 19.23433 | 60° | 73km/h | 5048m | 8.0m/s | -9.2°C | 98.3% | 553.0hPa | 0V | 00:00:00 | 00:00:00 | 00:00:00 | |
| OM5KV | 2026-08-31 23:31:08 | 47.39758 | 19.23296 | 58° | 68km/h | 5005m | 9.8m/s | -9.1°C | 99.3% | 556.1hPa | 0V | 00:00:00 | 00:00:00 | 00:00:00 | |
| OM5KV | 2026-08-31 23:31:03 | 47.39711 | 19.23195 | 50° | 64km/h | 4963m | 8.5m/s | -8.9°C | 99.9% | 559.2hPa | 0V | 00:00:00 | 00:00:00 | 00:00:00 | |
| OM5KV | 2026-08-31 23:30:59 | 47.39667 | 19.23123 | 48° | 71km/h | 4931m | 6.7m/s | -8.5°C | 99.4% | 561.5hPa | 0V | 00:00:00 | 00:00:00 | 00:00:00 | |
| OM5KV | 2026-08-31 23:30:57 | 47.39642 | 19.23086 | 45° | 68km/h | 4915m | 7.9m/s | -8.1°C | 99.4% | 562.6hPa | 0V | 00:00:00 | 00:00:00 | 00:00:00 | |
| OM5KV | 2026-08-31 23:30:53 | 47.39602 | 19.23014 | 58° | 62km/h | 4889m | 6.9m/s | -7.8°C | 0% | 564.4hPa | 0V | 00:00:00 | 00:00:00 | 00:00:00 | |
| OM5KV | 2026-08-31 23:30:47 | 47.39542 | 19.22898 | 50° | 77km/h | 4845m | 7.4m/s | -8.1°C | 100.0% | 567.5hPa | 0V | 00:00:00 | 00:00:00 | 00:00:00 | |
| OM5KV | 2026-08-31 23:30:44 | 47.39501 | 19.22839 | 47° | 71km/h | 4822m | 7.7m/s | -7.4°C | 0% | 569.4hPa | 0V | 00:00:00 | 00:00:00 | 00:00:00 | |
| OM5KV | 2026-08-31 23:30:41 | 47.39464 | 19.22776 | 51° | 77km/h | 4796m | 9.3m/s | -7.4°C | 0% | 571.1hPa | 0V | 00:00:00 | 00:00:00 | 00:00:00 | |
| OM5KV | 2026-08-31 23:30:38 | 47.39426 | 19.22714 | 49° | 71km/h | 4771m | 7.5m/s | -7.1°C | 0% | 573.0hPa | 0V | 00:00:00 | 00:00:00 | 00:00:00 | |
| OM5KV | 2026-08-31 23:30:35 | 47.39393 | 19.22653 | 56° | 69km/h | 4744m | 9.6m/s | -6.9°C | 99.8% | 574.9hPa | 0V | 00:00:00 | 00:00:00 | 00:00:00 | |
| OM5KV | 2026-08-31 23:30:30 | 47.39350 | 19.22547 | 61° | 68km/h | 4698m | 9.2m/s | -6.7°C | 0% | 578.3hPa | 0V | 00:00:00 | 00:00:00 | 00:00:00 | |
| OM5KV | 2026-08-31 23:30:28 | 47.39331 | 19.22504 | 57° | 68km/h | 4681m | 7.0m/s | -6.7°C | 0% | 579.5hPa | 0V | 00:00:00 | 00:00:00 | 00:00:00 | |
| OM5KV | 2026-08-31 23:30:25 | 47.39303 | 19.22441 | 58° | 69km/h | 4655m | 9.3m/s | -6.5°C | 0% | 581.5hPa | 0V | 00:00:00 | 00:00:00 | 00:00:00 | |
| OM5KV | 2026-08-31 23:30:23 | 47.39284 | 19.22398 | 57° | 66km/h | 4638m | 9.6m/s | -6.4°C | 0% | 582.8hPa | 0V | 00:00:00 | 00:00:00 | 00:00:00 | |
| OM5KV | 2026-08-31 23:30:19 | 47.39256 | 19.22314 | 68° | 64km/h | 4599m | 9.9m/s | -6.1°C | 0% | 585.6hPa | 0V | 00:00:00 | 00:00:00 | 00:00:00 | |
| OM5KV | 2026-08-31 23:30:17 | 47.39245 | 19.22272 | 71° | 60km/h | 4578m | 10.9m/s | -6.0°C | 0% | 587.2hPa | 0V | 00:00:00 | 00:00:00 | 00:00:00 | |
| OM5KV | 2026-08-31 23:30:13 | 47.39222 | 19.22187 | 64° | 60km/h | 4538m | 11.7m/s | -5.8°C | 0% | 590.2hPa | 0V | 00:00:00 | 00:00:00 | 00:00:00 | |
| OM5KV | 2026-08-31 23:30:12 | 47.39215 | 19.22168 | 62° | 57km/h | 4527m | 10.5m/s | -5.7°C | 0% | 591.0hPa | 0V | 00:00:00 | 00:00:00 | 00:00:00 | |
| OM5KV | 2026-08-31 23:30:07 | 47.39178 | 19.22066 | 62° | 62km/h | 4477m | 10.4m/s | -5.7°C | 0% | 594.7hPa | 0V | 00:00:00 | 00:00:00 | 00:00:00 | |
| OM5KV | 2026-08-31 23:30:01 | 47.39128 | 19.21943 | 58° | 60km/h | 4419m | 9.4m/s | -5.3°C | 0% | 599.3hPa | 0V | 00:00:00 | 00:00:00 | 00:00:00 | |
| OM5KV | 2026-08-31 23:30:00 | 47.39120 | 19.21924 | 60° | 62km/h | 4409m | 10.0m/s | -5.2°C | 0% | 600.0hPa | 0V | 00:00:00 | 00:00:00 | 00:00:00 | |
| OM5KV | 2026-08-31 23:29:55 | 47.39085 | 19.21827 | 71° | 57km/h | 4361m | 10.0m/s | -5.0°C | 0% | 603.7hPa | 0V | 00:00:00 | 00:00:00 | 00:00:00 | |
| OM5KV | 2026-08-31 23:29:54 | 47.39080 | 19.21806 | 72° | 60km/h | 4352m | 9.5m/s | -4.9°C | 0% | 604.4hPa | 0V | 00:00:00 | 00:00:00 | 00:00:00 | |
| OM5KV | 2026-08-31 23:29:48 | 47.39056 | 19.21689 | 74° | 55km/h | 4291m | 10.7m/s | -4.3°C | 0% | 609.0hPa | 0V | 00:00:00 | 00:00:00 | 00:00:00 | |
| OM5KV | 2026-08-31 23:29:43 | 47.39033 | 19.21598 | 62° | 53km/h | 4241m | 9.9m/s | -3.7°C | 0% | 613.0hPa | 0V | 00:00:00 | 00:00:00 | 00:00:00 | |
| OM5KV | 2026-08-31 23:29:42 | 47.39026 | 19.21582 | 59° | 49km/h | 4231m | 10.6m/s | -3.7°C | 0% | 613.8hPa | 0V | 00:00:00 | 00:00:00 | 00:00:00 | |
| OM5KV | 2026-08-31 23:29:37 | 47.38984 | 19.21490 | 58° | 49km/h | 4176m | 10.9m/s | -3.3°C | 0% | 618.1hPa | 0V | 00:00:00 | 00:00:00 | 00:00:00 | |
| OM5KV | 2026-08-31 23:29:31 | 47.38951 | 19.21408 | 50° | 53km/h | 4129m | 7.1m/s | -3.0°C | 0% | 621.6hPa | 0V | 00:00:00 | 00:00:00 | 00:00:00 | |
| OM5KV | 2026-08-31 23:29:29 | 47.38935 | 19.21379 | 52° | 51km/h | 4113m | 8.5m/s | -2.9°C | 0% | 623.0hPa | 0V | 00:00:00 | 00:00:00 | 00:00:00 | |
| OM5KV | 2026-08-31 23:29:25 | 47.38904 | 19.21317 | 52° | 49km/h | 4081m | 7.3m/s | -2.8°C | 0% | 625.5hPa | 0V | 00:00:00 | 00:00:00 | 00:00:00 | |
| OM5KV | 2026-08-31 23:29:24 | 47.38897 | 19.21303 | 57° | 46km/h | 4072m | 8.8m/s | -2.7°C | 0% | 626.0hPa | 0V | 00:00:00 | 00:00:00 | 00:00:00 | |
| OM5KV | 2026-08-31 23:29:19 | 47.38864 | 19.21224 | 59° | 49km/h | 4033m | 7.5m/s | -2.5°C | 99.9% | 629.3hPa | 0V | 00:00:00 | 00:00:00 | 00:00:00 | |
| OM5KV | 2026-08-31 23:29:13 | 47.38824 | 19.21139 | 52° | 44km/h | 3986m | 7.2m/s | -2.2°C | 0% | 632.8hPa | 0V | 00:00:00 | 00:00:00 | 00:00:00 | |
| OM5KV | 2026-08-31 23:29:12 | 47.38817 | 19.21126 | 52° | 44km/h | 3979m | 7.6m/s | -2.1°C | 0% | 633.4hPa | 0V | 00:00:00 | 00:00:00 | 00:00:00 | |
| OM5KV | 2026-08-31 23:28:56 | 47.38710 | 19.20934 | 49° | 40km/h | 3858m | 6.9m/s | -1.4°C | 100.0% | 643.1hPa | 0V | 00:00:00 | 00:00:00 | 00:00:00 | |
| OM5KV | 2026-08-31 23:28:52 | 47.38680 | 19.20894 | 40° | 37km/h | 3831m | 6.0m/s | -1.2°C | 0% | 645.3hPa | 0V | 00:00:00 | 00:00:00 | 00:00:00 | |
| OM5KV | 2026-08-31 23:28:47 | 47.38643 | 19.20840 | 51° | 31km/h | 3785m | 6.7m/s | -0.8°C | 97.6% | 649.1hPa | 0V | 00:00:00 | 00:00:00 | 00:00:00 | |
| OM5KV | 2026-08-31 23:28:40 | 47.38607 | 19.20782 | 55° | 37km/h | 3739m | 8.0m/s | -0.3°C | 94.9% | 652.8hPa | 0V | 00:00:00 | 00:00:00 | 00:00:00 | |
| OM5KV | 2026-08-31 23:28:35 | 47.38577 | 19.20727 | 57° | 38km/h | 3701m | 7.1m/s | 0.0°C | 92.9% | 656.0hPa | 0V | 00:00:00 | 00:00:00 | 00:00:00 | |
| OM5KV | 2026-08-31 23:28:29 | 47.38543 | 19.20662 | 62° | 35km/h | 3658m | 7.7m/s | 0.4°C | 91.0% | 659.4hPa | 0V | 00:00:00 | 00:00:00 | 00:00:00 | |
| OM5KV | 2026-08-31 23:28:28 | 47.38538 | 19.20650 | 61° | 37km/h | 3650m | 8.7m/s | 0.5°C | 90.4% | 660.1hPa | 0V | 00:00:00 | 00:00:00 | 00:00:00 | |
| OM5KV | 2026-08-31 23:28:23 | 47.38512 | 19.20595 | 60° | 38km/h | 3610m | 7.7m/s | 0.8°C | 88.1% | 663.3hPa | 0V | 00:00:00 | 00:00:00 | 00:00:00 | |
| OM5KV | 2026-08-31 23:28:22 | 47.38507 | 19.20582 | 55° | 44km/h | 3603m | 5.7m/s | 1.0°C | 87.9% | 664.0hPa | 0V | 00:00:00 | 00:00:00 | 00:00:00 | |
| OM5KV | 2026-08-31 23:28:16 | 47.38471 | 19.20498 | 60° | 37km/h | 3559m | 8.4m/s | 0.9°C | 87.0% | 667.7hPa | 0V | 00:00:00 | 00:00:00 | 00:00:00 | |
| OM5KV | 2026-08-31 23:28:10 | 47.38451 | 19.20443 | 58° | 29km/h | 3518m | 6.8m/s | 1.2°C | 84.7% | 671.0hPa | 0V | 00:00:00 | 00:00:00 | 00:00:00 | |
| OM5KV | 2026-08-31 23:28:06 | 47.38433 | 19.20404 | 57° | 37km/h | 3492m | 6.2m/s | 1.4°C | 83.1% | 673.3hPa | 0V | 00:00:00 | 00:00:00 | 00:00:00 | |
| OM5KV | 2026-08-31 23:27:48 | 47.38366 | 19.20259 | 55° | 13km/h | 3387m | 4.5m/s | 2.2°C | 69.2% | 682.1hPa | 0V | 00:00:00 | 00:00:00 | 00:00:00 | |
| OM5KV | 2026-08-31 23:27:47 | 47.38365 | 19.20254 | 74° | 15km/h | 3382m | 4.4m/s | 2.2°C | 69.0% | 682.4hPa | 0V | 00:00:00 | 00:00:00 | 00:00:00 | |
| OM5KV | 2026-08-31 23:27:42 | 47.38364 | 19.20232 | 79° | 15km/h | 3352m | 6.4m/s | 2.5°C | 67.4% | 684.8hPa | 0V | 00:00:00 | 00:00:00 | 00:00:00 | |
| OM5KV | 2026-08-31 23:27:41 | 47.38363 | 19.20225 | 82° | 22km/h | 3345m | 7.1m/s | 2.5°C | 66.4% | 685.2hPa | 0V | 00:00:00 | 00:00:00 | 00:00:00 | |
| OM5KV | 2026-08-31 23:27:35 | 47.38354 | 19.20186 | 60° | 9km/h | 3312m | 9.9m/s | 2.9°C | 65.8% | 688.3hPa | 0V | 00:00:00 | 00:00:00 | 00:00:00 | |
| OM5KV | 2026-08-31 23:27:31 | 47.38345 | 19.20182 | 344° | 5km/h | 3284m | 7.3m/s | 3.2°C | 66.5% | 690.8hPa | 0V | 00:00:00 | 00:00:00 | 00:00:00 | |
| OM5KV | 2026-08-31 23:27:25 | 47.38334 | 19.20146 | 86° | 26km/h | 3245m | 6.1m/s | 3.6°C | 65.2% | 694.1hPa | 0V | 00:00:00 | 00:00:00 | 00:00:00 | |
| OM5KV | 2026-08-31 23:27:24 | 47.38334 | 19.20137 | 96° | 22km/h | 3240m | 4.7m/s | 3.6°C | 65.3% | 694.4hPa | 0V | 00:00:00 | 00:00:00 | 00:00:00 | |
| OM5KV | 2026-08-31 23:27:18 | 47.38325 | 19.20102 | 65° | 22km/h | 3206m | 7.8m/s | 3.9°C | 63.8% | 697.5hPa | 0V | 00:00:00 | 00:00:00 | 00:00:00 | |
| OM5KV | 2026-08-31 23:27:13 | 47.38324 | 19.20052 | 92° | 20km/h | 3170m | 5.4m/s | 4.3°C | 63.2% | 700.6hPa | 0V | 00:00:00 | 00:00:00 | 00:00:00 | |
| OM5KV | 2026-08-31 23:27:06 | 47.38322 | 19.20012 | 81° | 20km/h | 3132m | 8.1m/s | 4.6°C | 58.1% | 703.7hPa | 0V | 00:00:00 | 00:00:00 | 00:00:00 | |
| OM5KV | 2026-08-31 23:27:05 | 47.38322 | 19.20004 | 93° | 22km/h | 3125m | 7.1m/s | 4.7°C | 57.7% | 704.5hPa | 0V | 00:00:00 | 00:00:00 | 00:00:00 | |
| OM5KV | 2026-08-31 23:27:01 | 47.38326 | 19.19967 | 116° | 26km/h | 3098m | 8.0m/s | 5.0°C | 57.8% | 706.7hPa | 0V | 00:00:00 | 00:00:00 | 00:00:00 | |
| OM5KV | 2026-08-31 23:27:00 | 47.38329 | 19.19958 | 118° | 27km/h | 3091m | 6.1m/s | 5.0°C | 57.6% | 707.5hPa | 0V | 00:00:00 | 00:00:00 | 00:00:00 | |
| OM5KV | 2026-08-31 23:26:56 | 47.38345 | 19.19912 | 122° | 31km/h | 3051m | 8.4m/s | 5.5°C | 56.1% | 710.7hPa | 0V | 00:00:00 | 00:00:00 | 00:00:00 | |
| OM5KV | 2026-08-31 23:26:55 | 47.38348 | 19.19902 | 105° | 27km/h | 3044m | 5.3m/s | 5.5°C | 56.2% | 711.2hPa | 0V | 00:00:00 | 00:00:00 | 00:00:00 | |
| OM5KV | 2026-08-31 23:26:49 | 47.38347 | 19.19877 | 88° | 4km/h | 3010m | 6.9m/s | 5.7°C | 54.6% | 714.2hPa | 0V | 00:00:00 | 00:00:00 | 00:00:00 | |
| OM5KV | 2026-08-31 23:26:48 | 47.38347 | 19.19874 | 96° | 11km/h | 3003m | 7.7m/s | 5.7°C | 54.3% | 714.9hPa | 0V | 00:00:00 | 00:00:00 | 00:00:00 | |
| OM5KV | 2026-08-31 23:26:43 | 47.38363 | 19.19851 | 166° | 20km/h | 2969m | 7.9m/s | 6.1°C | 53.4% | 717.9hPa | 0V | 00:00:00 | 00:00:00 | 00:00:00 | |
| OM5KV | 2026-08-31 23:26:37 | 47.38383 | 19.19839 | 163° | 16km/h | 2925m | 5.2m/s | 6.4°C | 52.5% | 721.8hPa | 0V | 00:00:00 | 00:00:00 | 00:00:00 | |
| OM5KV | 2026-08-31 23:26:32 | 47.38403 | 19.19822 | 170° | 24km/h | 2887m | 7.0m/s | 6.7°C | 50.9% | 724.9hPa | 0V | 00:00:00 | 00:00:00 | 00:00:00 | |
| OM5KV | 2026-08-31 23:26:31 | 47.38408 | 19.19822 | 193° | 24km/h | 2881m | 7.0m/s | 6.8°C | 50.9% | 725.6hPa | 0V | 00:00:00 | 00:00:00 | 00:00:00 | |
| OM5KV | 2026-08-31 23:26:25 | 47.38425 | 19.19823 | 154° | 9km/h | 2841m | 7.9m/s | 7.2°C | 49.8% | 729.1hPa | 0V | 00:00:00 | 00:00:00 | 00:00:00 | |
| OM5KV | 2026-08-31 23:26:19 | 47.38441 | 19.19808 | 167° | 13km/h | 2801m | 7.6m/s | 7.5°C | 48.2% | 732.6hPa | 0V | 00:00:00 | 00:00:00 | 00:00:00 | |
| OM5KV | 2026-08-31 23:26:13 | 47.38467 | 19.19817 | 198° | 22km/h | 2758m | 6.1m/s | 7.8°C | 46.7% | 736.3hPa | 0V | 00:00:00 | 00:00:00 | 00:00:00 | |
| OM5KV | 2026-08-31 23:26:08 | 47.38487 | 19.19818 | 179° | 15km/h | 2726m | 6.7m/s | 8.0°C | 44.1% | 739.3hPa | 0V | 00:00:00 | 00:00:00 | 00:00:00 | |
| OM5KV | 2026-08-31 23:26:07 | 47.38491 | 19.19817 | 165° | 15km/h | 2719m | 6.8m/s | 8.0°C | 43.7% | 739.9hPa | 0V | 00:00:00 | 00:00:00 | 00:00:00 | |
| OM5KV | 2026-08-31 23:26:03 | 47.38506 | 19.19813 | 175° | 20km/h | 2694m | 5.1m/s | 8.2°C | 42.5% | 742.2hPa | 0V | 00:00:00 | 00:00:00 | 00:00:00 | |
| OM5KV | 2026-08-31 23:26:02 | 47.38511 | 19.19813 | 177° | 20km/h | 2687m | 7.2m/s | 8.3°C | 42.7% | 742.6hPa | 0V | 00:00:00 | 00:00:00 | 00:00:00 | |
| OM5KV | 2026-08-31 23:25:57 | 47.38531 | 19.19824 | 198° | 20km/h | 2655m | 6.9m/s | 8.6°C | 41.4% | 745.7hPa | 0V | 00:00:00 | 00:00:00 | 00:00:00 | |
| OM5KV | 2026-08-31 23:25:56 | 47.38536 | 19.19827 | 199° | 20km/h | 2648m | 7.4m/s | 8.6°C | 40.7% | 746.5hPa | 0V | 00:00:00 | 00:00:00 | 00:00:00 | |
| OM5KV | 2026-08-31 23:25:52 | 47.38555 | 19.19842 | 202° | 22km/h | 2620m | 7.8m/s | 8.9°C | 40.1% | 748.9hPa | 0V | 00:00:00 | 00:00:00 | 00:00:00 | |
| OM5KV | 2026-08-31 23:25:50 | 47.38564 | 19.19845 | 195° | 18km/h | 2605m | 7.6m/s | 9.0°C | 39.9% | 750.1hPa | 0V | 00:00:00 | 00:00:00 | 00:00:00 | |
| OM5KV | 2026-08-31 23:25:46 | 47.38589 | 19.19851 | 182° | 27km/h | 2575m | 7.6m/s | 8.6°C | 44.7% | 752.8hPa | 0V | 00:00:00 | 00:00:00 | 00:00:00 | |
| OM5KV | 2026-08-31 23:25:43 | 47.38611 | 19.19858 | 201° | 35km/h | 2554m | 6.8m/s | 8.8°C | 44.7% | 754.8hPa | 0V | 00:00:00 | 00:00:00 | 00:00:00 | |
| OM5KV | 2026-08-31 23:25:41 | 47.38628 | 19.19864 | 191° | 37km/h | 2539m | 6.3m/s | 9.0°C | 44.3% | 756.1hPa | 0V | 00:00:00 | 00:00:00 | 00:00:00 | |
| OM5KV | 2026-08-31 23:25:38 | 47.38660 | 19.19878 | 202° | 33km/h | 2512m | 6.7m/s | 9.2°C | 43.6% | 758.6hPa | 0V | 00:00:00 | 00:00:00 | 00:00:00 | |
| OM5KV | 2026-08-31 23:25:35 | 47.38675 | 19.19883 | 193° | 27km/h | 2498m | 6.5m/s | 9.4°C | 42.8% | 759.9hPa | 0V | 00:00:00 | 00:00:00 | 00:00:00 | |
| OM5KV | 2026-08-31 23:25:24 | 47.38753 | 19.19914 | 192° | 31km/h | 2421m | 8.5m/s | 10.1°C | 0% | 767.0hPa | 0V | 00:00:00 | 00:00:00 | 00:00:00 | |
| OM5KV | 2026-08-31 23:25:19 | 47.38791 | 19.19927 | 194° | 27km/h | 2385m | 6.7m/s | 10.5°C | 41.1% | 770.3hPa | 0V | 00:00:00 | 00:00:00 | 00:00:00 | |
| OM5KV | 2026-08-31 23:25:18 | 47.38798 | 19.19930 | 194° | 31km/h | 2378m | 7.6m/s | 10.6°C | 0% | 0hPa | 0V | 00:00:00 | 00:00:00 | 00:00:00 | |
| OM5KV | 2026-08-31 23:25:13 | 47.38839 | 19.19945 | 199° | 33km/h | 2344m | 7.8m/s | 10.9°C | 40.5% | 774.2hPa | 0V | 00:00:00 | 00:00:00 | 00:00:00 | |
| OM5KV | 2026-08-31 23:25:12 | 47.38848 | 19.19949 | 198° | 37km/h | 2336m | 6.9m/s | 10.9°C | 0% | 0hPa | 0V | 00:00:00 | 00:00:00 | 00:00:00 | |
| OM5KV | 2026-08-31 23:25:07 | 47.38888 | 19.19965 | 200° | 31km/h | 2302m | 7.9m/s | 11.3°C | 39.6% | 778.1hPa | 0V | 00:00:00 | 00:00:00 | 00:00:00 | |
| OM5KV | 2026-08-31 23:25:06 | 47.38896 | 19.19969 | 198° | 31km/h | 2295m | 6.5m/s | 11.4°C | 0% | 0hPa | 0V | 00:00:00 | 00:00:00 | 00:00:00 | |
| OM5KV | 2026-08-31 23:25:02 | 47.38935 | 19.19987 | 195° | 37km/h | 2259m | 7.4m/s | 11.7°C | 38.3% | 782.1hPa | 0V | 00:00:00 | 00:00:00 | 00:00:00 | |
| OM5KV | 2026-08-31 23:25:00 | 47.38945 | 19.19989 | 184° | 35km/h | 2252m | 7.4m/s | 11.7°C | 0% | 0hPa | 0V | 00:00:00 | 00:00:00 | 00:00:00 | |
| OM5KV | 2026-08-31 23:24:55 | 47.38990 | 19.19994 | 190° | 40km/h | 2218m | 7.6m/s | 12.1°C | 37.7% | 785.9hPa | 0V | 00:00:00 | 00:00:00 | 00:00:00 | |
| OM5KV | 2026-08-31 23:24:54 | 47.39001 | 19.19997 | 191° | 42km/h | 2210m | 8.2m/s | 12.1°C | 0% | 0hPa | 0V | 00:00:00 | 00:00:00 | 00:00:00 | |
| OM5KV | 2026-08-31 23:24:48 | 47.39056 | 19.20011 | 196° | 31km/h | 2166m | 6.4m/s | 12.5°C | 0% | 0hPa | 0V | 00:00:00 | 00:00:00 | 00:00:00 | |
| OM5KV | 2026-08-31 23:24:43 | 47.39096 | 19.20028 | 205° | 29km/h | 2132m | 7.0m/s | 12.7°C | 38.9% | 794.2hPa | 0V | 00:00:00 | 00:00:00 | 00:00:00 | |
| OM5KV | 2026-08-31 23:24:37 | 47.39142 | 19.20047 | 196° | 27km/h | 2088m | 6.8m/s | 13.0°C | 39.5% | 798.1hPa | 0V | 00:00:00 | 00:00:00 | 00:00:00 | |
| OM5KV | 2026-08-31 23:24:35 | 47.39156 | 19.20052 | 189° | 27km/h | 2075m | 8.2m/s | 0°C | 0% | 0hPa | 0V | 00:00:00 | 00:00:00 | 00:00:00 | |
| OM5KV | 2026-08-31 23:24:31 | 47.39186 | 19.20054 | 189° | 37km/h | 2047m | 7.0m/s | 13.3°C | 0% | 802.0hPa | 0V | 00:00:00 | 00:00:00 | 00:00:00 | |
| OM5KV | 2026-08-31 23:24:24 | 47.39249 | 19.20074 | 187° | 35km/h | 1993m | 9.5m/s | 13.6°C | 0% | 0hPa | 0V | 00:00:00 | 00:00:00 | 00:00:00 | |
| OM5KV | 2026-08-31 23:24:18 | 47.39305 | 19.20075 | 175° | 44km/h | 1945m | 7.6m/s | 14.1°C | 0% | 0hPa | 0V | 00:00:00 | 00:00:00 | 00:00:00 | |
| OM5KV | 2026-08-31 23:24:12 | 47.39372 | 19.20075 | 178° | 44km/h | 1896m | 8.5m/s | 14.6°C | 0% | 0hPa | 0V | 00:00:00 | 00:00:00 | 00:00:00 | |
| OM5KV | 2026-08-31 23:24:06 | 47.39437 | 19.20068 | 170° | 44km/h | 1848m | 8.4m/s | 14.9°C | 0% | 0hPa | 0V | 00:00:00 | 00:00:00 | 00:00:00 | |
| OM5KV | 2026-08-31 23:24:00 | 47.39501 | 19.20052 | 173° | 44km/h | 1800m | 8.3m/s | 15.1°C | 0% | 0hPa | 0V | 00:00:00 | 00:00:00 | 00:00:00 | |
| OM5KV | 2026-08-31 23:23:55 | 47.39560 | 19.20036 | 170° | 44km/h | 1763m | 6.0m/s | 15.3°C | 0% | 0hPa | 0V | 00:00:00 | 00:00:00 | 00:00:00 | |
| OM5KV | 2026-08-31 23:23:49 | 47.39632 | 19.20004 | 163° | 51km/h | 1718m | 6.5m/s | 0°C | 0% | 0hPa | 0V | 00:00:00 | 00:00:00 | 00:00:00 | |
| OM5KV | 2026-08-31 23:23:44 | 47.39697 | 19.19973 | 163° | 51km/h | 1682m | 7.3m/s | 0°C | 0% | 0hPa | 0V | 00:00:00 | 00:00:00 | 00:00:00 |